<?xml version='1.0' encoding='UTF-8'?><gpx version="1.1" creator="JPX - https://github.com/jenetics/jpx" xmlns="http://www.topografix.com/GPX/1/1"><trk><trkseg><trkpt lat="47.34453356876947" lon="5.185691676938626"><ele>216.0</ele><time>2026-04-23T07:38:06.994Z</time></trkpt><trkpt lat="47.34447786129838" lon="5.185801628440947"><ele>216.0</ele><time>2026-04-23T07:38:08.995Z</time></trkpt><trkpt lat="47.344435227365906" lon="5.185898419051088"><ele>216.0</ele><time>2026-04-23T07:38:10.996Z</time></trkpt><trkpt lat="47.344399814936786" lon="5.186039768082965"><ele>216.0</ele><time>2026-04-23T07:38:12.996Z</time></trkpt><trkpt lat="47.34437241841811" lon="5.186154713806151"><ele>216.0</ele><time>2026-04-23T07:38:14.997Z</time></trkpt><trkpt lat="47.34435876724945" lon="5.186271371547777"><ele>216.0</ele><time>2026-04-23T07:38:16.997Z</time></trkpt><trkpt lat="47.344332350975414" lon="5.186387427956831"><ele>216.0</ele><time>2026-04-23T07:38:18.998Z</time></trkpt><trkpt lat="47.34429968446694" lon="5.1864957680095625"><ele>216.0</ele><time>2026-04-23T07:38:20.998Z</time></trkpt><trkpt lat="47.344283301331544" lon="5.186603567841957"><ele>216.0</ele><time>2026-04-23T07:38:22.999Z</time></trkpt><trkpt lat="47.34426277820667" lon="5.186694065566249"><ele>216.0</ele><time>2026-04-23T07:38:24.999Z</time></trkpt><trkpt lat="47.344237522600196" lon="5.186784192085111"><ele>216.0</ele><time>2026-04-23T07:38:26.999Z</time></trkpt><trkpt lat="47.34420698011326" lon="5.186874295400208"><ele>216.0</ele><time>2026-04-23T07:38:29Z</time></trkpt><trkpt lat="47.34418526989796" lon="5.186969029260409"><ele>216.0</ele><time>2026-04-23T07:38:41Z</time></trkpt><trkpt lat="47.344141120556195" lon="5.187045235139855"><ele>216.33333333333334</ele><time>2026-04-23T07:38:45.001Z</time></trkpt><trkpt lat="47.34404799876219" lon="5.187090785151917"><ele>216.66666666666669</ele><time>2026-04-23T07:38:48.001Z</time></trkpt><trkpt lat="47.34397019969952" lon="5.1870623881244455"><ele>217.0</ele><time>2026-04-23T07:38:50.001Z</time></trkpt><trkpt lat="47.343900156494485" lon="5.18701575936269"><ele>217.33333333333334</ele><time>2026-04-23T07:38:52.001Z</time></trkpt><trkpt lat="47.343827847628646" lon="5.186953330076895"><ele>217.66666666666669</ele><time>2026-04-23T07:38:54.001Z</time></trkpt><trkpt lat="47.34373393792672" lon="5.186902180878294"><ele>218.0</ele><time>2026-04-23T07:38:57.001Z</time></trkpt><trkpt lat="47.34366642913412" lon="5.18688787437455"><ele>218.16666666666669</ele><time>2026-04-23T07:38:59.001Z</time></trkpt><trkpt lat="47.34358055502073" lon="5.186889180923413"><ele>218.33333333333334</ele><time>2026-04-23T07:39:02.001Z</time></trkpt><trkpt lat="47.34350198531876" lon="5.186884586126775"><ele>218.5</ele><time>2026-04-23T07:39:04.001Z</time></trkpt><trkpt lat="47.34343588366121" lon="5.186870506677081"><ele>218.66666666666669</ele><time>2026-04-23T07:39:07.001Z</time></trkpt><trkpt lat="47.34344176520648" lon="5.186742160045087"><ele>218.83333333333334</ele><time>2026-04-23T07:39:10.001Z</time></trkpt><trkpt lat="47.34347591289885" lon="5.186644917830449"><ele>219.0</ele><time>2026-04-23T07:39:12.001Z</time></trkpt><trkpt lat="47.34351225181453" lon="5.186543221651361"><ele>218.79999999999998</ele><time>2026-04-23T07:39:14.001Z</time></trkpt><trkpt lat="47.3435756384887" lon="5.186445405452666"><ele>218.59999999999997</ele><time>2026-04-23T07:39:16.001Z</time></trkpt><trkpt lat="47.34362725246996" lon="5.186332487381808"><ele>218.4</ele><time>2026-04-23T07:39:18.001Z</time></trkpt><trkpt lat="47.34368703403903" lon="5.186220224010769"><ele>218.2</ele><time>2026-04-23T07:39:20.001Z</time></trkpt><trkpt lat="47.34374199359761" lon="5.186127535379765"><ele>218.0</ele><time>2026-04-23T07:39:22.001Z</time></trkpt><trkpt lat="47.34379133378163" lon="5.186013019870923"><ele>218.00000000000003</ele><time>2026-04-23T07:39:24.002Z</time></trkpt><trkpt lat="47.343852565728106" lon="5.185913886441838"><ele>218.0</ele><time>2026-04-23T07:39:26.002Z</time></trkpt><trkpt lat="47.34391799017984" lon="5.185818917163887"><ele>218.0</ele><time>2026-04-23T07:39:28.002Z</time></trkpt><trkpt lat="47.34398994422872" lon="5.185759060125176"><ele>218.0</ele><time>2026-04-23T07:39:30.002Z</time></trkpt><trkpt lat="47.344062573340224" lon="5.185718942337836"><ele>218.00000000000003</ele><time>2026-04-23T07:39:33.002Z</time></trkpt><trkpt lat="47.34412893899106" lon="5.185646916940096"><ele>218.0</ele><time>2026-04-23T07:39:36.002Z</time></trkpt><trkpt lat="47.34420564814025" lon="5.185614337504677"><ele>217.8</ele><time>2026-04-23T07:39:38.002Z</time></trkpt><trkpt lat="47.34427915517549" lon="5.185530279085891"><ele>217.60000000000002</ele><time>2026-04-23T07:39:40.002Z</time></trkpt><trkpt lat="47.344360438693585" lon="5.185458605501667"><ele>217.39999999999998</ele><time>2026-04-23T07:39:42.002Z</time></trkpt><trkpt lat="47.34444024416074" lon="5.185397958987805"><ele>217.2</ele><time>2026-04-23T07:39:44.002Z</time></trkpt><trkpt lat="47.34451990882234" lon="5.1853343130229685"><ele>217.0</ele><time>2026-04-23T07:39:46.002Z</time></trkpt><trkpt lat="47.34460263167157" lon="5.185278517987619"><ele>217.0</ele><time>2026-04-23T07:39:48.002Z</time></trkpt><trkpt lat="47.34467564659883" lon="5.185218012108886"><ele>217.0</ele><time>2026-04-23T07:39:50.002Z</time></trkpt><trkpt lat="47.3447587625256" lon="5.185138626310951"><ele>217.0</ele><time>2026-04-23T07:39:52.002Z</time></trkpt><trkpt lat="47.34485159229505" lon="5.185072462188431"><ele>217.0</ele><time>2026-04-23T07:39:54.002Z</time></trkpt><trkpt lat="47.34494381802165" lon="5.185000139008094"><ele>217.0</ele><time>2026-04-23T07:39:56.002Z</time></trkpt><trkpt lat="47.34502775175661" lon="5.184935222479767"><ele>217.16666666666666</ele><time>2026-04-23T07:39:58.002Z</time></trkpt><trkpt lat="47.34510743956913" lon="5.18486010098314"><ele>217.33333333333331</ele><time>2026-04-23T07:40:00.002Z</time></trkpt><trkpt lat="47.34519007916592" lon="5.184795759437196"><ele>217.5</ele><time>2026-04-23T07:40:02.002Z</time></trkpt><trkpt lat="47.34526127091722" lon="5.18473697071758"><ele>217.66666666666669</ele><time>2026-04-23T07:40:04.002Z</time></trkpt><trkpt lat="47.345324453967635" lon="5.1846606396301596"><ele>217.83333333333334</ele><time>2026-04-23T07:40:06.002Z</time></trkpt><trkpt lat="47.34536615984631" lon="5.184543242781936"><ele>218.0</ele><time>2026-04-23T07:40:08.002Z</time></trkpt><trkpt lat="47.345387444257256" lon="5.184408476505618"><ele>218.00000000000003</ele><time>2026-04-23T07:40:10.002Z</time></trkpt><trkpt lat="47.34541711090612" lon="5.184286972230109"><ele>218.0</ele><time>2026-04-23T07:40:12.002Z</time></trkpt><trkpt lat="47.34543244877466" lon="5.1841402851219245"><ele>218.0</ele><time>2026-04-23T07:40:14.002Z</time></trkpt><trkpt lat="47.3454747639026" lon="5.1840249963730916"><ele>218.0</ele><time>2026-04-23T07:40:16.002Z</time></trkpt><trkpt lat="47.34552906663354" lon="5.183927308912992"><ele>218.00000000000003</ele><time>2026-04-23T07:40:18.002Z</time></trkpt><trkpt lat="47.345578140504344" lon="5.183852270920395"><ele>218.0</ele><time>2026-04-23T07:40:20.002Z</time></trkpt><trkpt lat="47.3456408718434" lon="5.183745541756014"><ele>218.16666666666669</ele><time>2026-04-23T07:40:23.002Z</time></trkpt><trkpt lat="47.34572169499747" lon="5.183679588296219"><ele>218.33333333333334</ele><time>2026-04-23T07:40:26.002Z</time></trkpt><trkpt lat="47.34578571236789" lon="5.183641771913081"><ele>218.5</ele><time>2026-04-23T07:40:28.002Z</time></trkpt><trkpt lat="47.345852259191226" lon="5.183608972115786"><ele>218.66666666666669</ele><time>2026-04-23T07:40:30.002Z</time></trkpt><trkpt lat="47.34593299438415" lon="5.183585110457955"><ele>218.83333333333334</ele><time>2026-04-23T07:40:32.002Z</time></trkpt><trkpt lat="47.34600586832352" lon="5.183535141039244"><ele>219.0</ele><time>2026-04-23T07:40:34.002Z</time></trkpt><trkpt lat="47.346014147739965" lon="5.18339967493634"><ele>219.0</ele><time>2026-04-23T07:40:36.002Z</time></trkpt><trkpt lat="47.34602689163983" lon="5.183275399509496"><ele>219.0</ele><time>2026-04-23T07:40:38.002Z</time></trkpt><trkpt lat="47.346018256042825" lon="5.18313443136686"><ele>219.0</ele><time>2026-04-23T07:40:40.002Z</time></trkpt><trkpt lat="47.34601627800068" lon="5.183001916473222"><ele>219.0</ele><time>2026-04-23T07:40:42.002Z</time></trkpt><trkpt lat="47.34600937829226" lon="5.182870214406224"><ele>219.0</ele><time>2026-04-23T07:40:44.002Z</time></trkpt><trkpt lat="47.34600762641866" lon="5.182749840906761"><ele>219.0</ele><time>2026-04-23T07:40:46.002Z</time></trkpt><trkpt lat="47.345976305925646" lon="5.182648002679301"><ele>218.83333333333334</ele><time>2026-04-23T07:40:48.002Z</time></trkpt><trkpt lat="47.34598551937787" lon="5.182548833703967"><ele>218.66666666666669</ele><time>2026-04-23T07:40:50.002Z</time></trkpt><trkpt lat="47.34603450358735" lon="5.182456407831046"><ele>218.5</ele><time>2026-04-23T07:40:52.002Z</time></trkpt><trkpt lat="47.34611627893535" lon="5.182438055124862"><ele>218.33333333333334</ele><time>2026-04-23T07:40:54.002Z</time></trkpt><trkpt lat="47.346180009795596" lon="5.182533036442044"><ele>218.16666666666669</ele><time>2026-04-23T07:40:56.002Z</time></trkpt><trkpt lat="47.346213413576535" lon="5.182615487732917"><ele>218.0</ele><time>2026-04-23T07:40:58.002Z</time></trkpt><trkpt lat="47.34646468615776" lon="5.182601970256311"><ele>218.00000000000003</ele><time>2026-04-23T07:41:05.002Z</time></trkpt><trkpt lat="47.346547510529824" lon="5.182540542731237"><ele>218.0</ele><time>2026-04-23T07:41:07.002Z</time></trkpt><trkpt lat="47.346588912712946" lon="5.182460908477308"><ele>218.0</ele><time>2026-04-23T07:41:09.002Z</time></trkpt><trkpt lat="47.346593637604414" lon="5.1823330635305656"><ele>218.0</ele><time>2026-04-23T07:41:12.002Z</time></trkpt><trkpt lat="47.346548542733444" lon="5.182216089130754"><ele>218.00000000000003</ele><time>2026-04-23T07:41:14.002Z</time></trkpt><trkpt lat="47.34650382459716" lon="5.182090521016565"><ele>218.0</ele><time>2026-04-23T07:41:16.002Z</time></trkpt><trkpt lat="47.34648703785008" lon="5.181942150549188"><ele>218.0</ele><time>2026-04-23T07:41:18.002Z</time></trkpt><trkpt lat="47.34647669966761" lon="5.181776849957231"><ele>218.0</ele><time>2026-04-23T07:41:20.002Z</time></trkpt><trkpt lat="47.34647055104292" lon="5.18160678240979"><ele>218.0</ele><time>2026-04-23T07:41:22.002Z</time></trkpt><trkpt lat="47.34647335102578" lon="5.181445249569632"><ele>218.0</ele><time>2026-04-23T07:41:24.002Z</time></trkpt><trkpt lat="47.34646746594845" lon="5.181270182782315"><ele>218.0</ele><time>2026-04-23T07:41:26.002Z</time></trkpt><trkpt lat="47.34646532673264" lon="5.1810931557199"><ele>218.0</ele><time>2026-04-23T07:41:28.002Z</time></trkpt><trkpt lat="47.34646115272002" lon="5.1809982945360025"><ele>218.0</ele><time>2026-04-23T07:41:29.002Z</time></trkpt><trkpt lat="47.34645188125816" lon="5.180831957559957"><ele>218.0</ele><time>2026-04-23T07:41:31.002Z</time></trkpt><trkpt lat="47.346442251824136" lon="5.180651719855938"><ele>218.0</ele><time>2026-04-23T07:41:33.003Z</time></trkpt><trkpt lat="47.34644162726416" lon="5.180488426164574"><ele>217.8</ele><time>2026-04-23T07:41:35.003Z</time></trkpt><trkpt lat="47.346441561824676" lon="5.180340742488675"><ele>217.60000000000002</ele><time>2026-04-23T07:41:37.003Z</time></trkpt><trkpt lat="47.346441108360885" lon="5.180187775815144"><ele>217.39999999999998</ele><time>2026-04-23T07:41:39.003Z</time></trkpt><trkpt lat="47.34642395453211" lon="5.180044388026909"><ele>217.2</ele><time>2026-04-23T07:41:41.003Z</time></trkpt><trkpt lat="47.34641603292374" lon="5.179869940324514"><ele>217.0</ele><time>2026-04-23T07:41:43.003Z</time></trkpt><trkpt lat="47.34642158528958" lon="5.179705330546114"><ele>216.83333333333331</ele><time>2026-04-23T07:41:45.003Z</time></trkpt><trkpt lat="47.34642028814629" lon="5.179551602424751"><ele>216.66666666666666</ele><time>2026-04-23T07:41:47.003Z</time></trkpt><trkpt lat="47.346423318942655" lon="5.179430220341975"><ele>216.5</ele><time>2026-04-23T07:41:49.003Z</time></trkpt><trkpt lat="47.346453857028045" lon="5.1793413693733985"><ele>216.33333333333331</ele><time>2026-04-23T07:41:51.003Z</time></trkpt><trkpt lat="47.34647149303845" lon="5.179237010938627"><ele>216.16666666666666</ele><time>2026-04-23T07:41:53.003Z</time></trkpt><trkpt lat="47.346500440407816" lon="5.179150901803978"><ele>216.0</ele><time>2026-04-23T07:41:55.003Z</time></trkpt><trkpt lat="47.34655194831535" lon="5.179088057747292"><ele>215.83333333333334</ele><time>2026-04-23T07:41:58.003Z</time></trkpt><trkpt lat="47.34657573211228" lon="5.178981942606457"><ele>215.66666666666669</ele><time>2026-04-23T07:42:02.003Z</time></trkpt><trkpt lat="47.34659766290482" lon="5.178876761763764"><ele>215.5</ele><time>2026-04-23T07:42:06.003Z</time></trkpt><trkpt lat="47.346557925887666" lon="5.1787722151727635"><ele>215.33333333333334</ele><time>2026-04-23T07:42:08.003Z</time></trkpt><trkpt lat="47.34648101316423" lon="5.178671233334344"><ele>215.16666666666669</ele><time>2026-04-23T07:42:10.003Z</time></trkpt><trkpt lat="47.34648246144856" lon="5.178577010144726"><ele>215.0</ele><time>2026-04-23T07:42:11.003Z</time></trkpt><trkpt lat="47.34649049983834" lon="5.178479090795284"><ele>215.0</ele><time>2026-04-23T07:42:12.003Z</time></trkpt><trkpt lat="47.34651083426391" lon="5.178386060451413"><ele>215.0</ele><time>2026-04-23T07:42:13.003Z</time></trkpt><trkpt lat="47.3465245839755" lon="5.178286603469057"><ele>215.0</ele><time>2026-04-23T07:42:14.003Z</time></trkpt><trkpt lat="47.346541403619646" lon="5.178196105175323"><ele>215.0</ele><time>2026-04-23T07:42:15.003Z</time></trkpt><trkpt lat="47.34655676979371" lon="5.178095684004538"><ele>215.0</ele><time>2026-04-23T07:42:16.003Z</time></trkpt><trkpt lat="47.34656973373966" lon="5.178002465641257"><ele>215.0</ele><time>2026-04-23T07:42:17.003Z</time></trkpt><trkpt lat="47.34658066544828" lon="5.177904980367188"><ele>215.0</ele><time>2026-04-23T07:42:18.003Z</time></trkpt><trkpt lat="47.34659384275997" lon="5.177811418387689"><ele>215.2</ele><time>2026-04-23T07:42:19.003Z</time></trkpt><trkpt lat="47.346603039747606" lon="5.177719280856695"><ele>215.4</ele><time>2026-04-23T07:42:20.003Z</time></trkpt><trkpt lat="47.346615876496166" lon="5.177627567635173"><ele>215.60000000000002</ele><time>2026-04-23T07:42:21.003Z</time></trkpt><trkpt lat="47.34663771924637" lon="5.177452644432543"><ele>215.8</ele><time>2026-04-23T07:42:23.003Z</time></trkpt><trkpt lat="47.34666313268045" lon="5.177274725176732"><ele>216.0</ele><time>2026-04-23T07:42:25.003Z</time></trkpt><trkpt lat="47.346676985370415" lon="5.177129497673987"><ele>216.20000000000002</ele><time>2026-04-23T07:42:27.003Z</time></trkpt><trkpt lat="47.34667360224419" lon="5.177033174009044"><ele>216.40000000000003</ele><time>2026-04-23T07:42:30.003Z</time></trkpt><trkpt lat="47.346743286697404" lon="5.177020822547094"><ele>216.6</ele><time>2026-04-23T07:42:34.003Z</time></trkpt><trkpt lat="47.34694987872356" lon="5.177023685410602"><ele>216.8</ele><time>2026-04-23T07:42:45.003Z</time></trkpt><trkpt lat="47.347023758101706" lon="5.177005617238522"><ele>217.0</ele><time>2026-04-23T07:42:48.003Z</time></trkpt><trkpt lat="47.347150955294815" lon="5.176948457722393"><ele>216.5</ele><time>2026-04-23T07:42:51.003Z</time></trkpt><trkpt lat="47.34732663040127" lon="5.176929540465102"><ele>216.0</ele><time>2026-04-23T07:42:55.003Z</time></trkpt><trkpt lat="47.34737192224624" lon="5.1768058264923695"><ele>215.5</ele><time>2026-04-23T07:42:57.003Z</time></trkpt><trkpt lat="47.347448517521514" lon="5.176697279461553"><ele>215.0</ele><time>2026-04-23T07:42:59.003Z</time></trkpt><trkpt lat="47.347521652354665" lon="5.176623887937009"><ele>215.00000000000003</ele><time>2026-04-23T07:43:01.003Z</time></trkpt><trkpt lat="47.34761042488567" lon="5.1766096347082105"><ele>215.0</ele><time>2026-04-23T07:43:03.003Z</time></trkpt><trkpt lat="47.347667828933034" lon="5.176692308303771"><ele>215.0</ele><time>2026-04-23T07:43:05.003Z</time></trkpt><trkpt lat="47.34774118572826" lon="5.176638579916049"><ele>215.0</ele><time>2026-04-23T07:43:07.003Z</time></trkpt><trkpt lat="47.347822521895985" lon="5.176593187097681"><ele>215.00000000000003</ele><time>2026-04-23T07:43:09.003Z</time></trkpt><trkpt lat="47.34791383032823" lon="5.176581815122883"><ele>215.0</ele><time>2026-04-23T07:43:11.003Z</time></trkpt><trkpt lat="47.347975103488054" lon="5.17660743459541"><ele>215.00000000000003</ele><time>2026-04-23T07:43:12.003Z</time></trkpt><trkpt lat="47.34809059033831" lon="5.176618326325909"><ele>215.0</ele><time>2026-04-23T07:43:14.003Z</time></trkpt><trkpt lat="47.34819943869381" lon="5.176619406314773"><ele>215.0</ele><time>2026-04-23T07:43:16.003Z</time></trkpt><trkpt lat="47.348276278628774" lon="5.176635202992803"><ele>215.0</ele><time>2026-04-23T07:43:18.003Z</time></trkpt><trkpt lat="47.348343486600456" lon="5.176619868691745"><ele>215.00000000000003</ele><time>2026-04-23T07:43:20.003Z</time></trkpt><trkpt lat="47.348399982707555" lon="5.176549853959924"><ele>215.0</ele><time>2026-04-23T07:43:22.003Z</time></trkpt><trkpt lat="47.34846531823676" lon="5.176464475653037"><ele>215.00000000000003</ele><time>2026-04-23T07:43:25.003Z</time></trkpt><trkpt lat="47.348498075539496" lon="5.176380721356643"><ele>215.0</ele><time>2026-04-23T07:43:27.003Z</time></trkpt><trkpt lat="47.34852030054451" lon="5.176291124927157"><ele>215.0</ele><time>2026-04-23T07:43:29.003Z</time></trkpt><trkpt lat="47.3485035600637" lon="5.176194008126012"><ele>215.0</ele><time>2026-04-23T07:43:31.003Z</time></trkpt><trkpt lat="47.3484494091366" lon="5.176051582372201"><ele>215.00000000000003</ele><time>2026-04-23T07:43:33.003Z</time></trkpt><trkpt lat="47.34840207195096" lon="5.175980486051797"><ele>215.0</ele><time>2026-04-23T07:43:34.003Z</time></trkpt><trkpt lat="47.34831741717943" lon="5.175883616719615"><ele>215.00000000000003</ele><time>2026-04-23T07:43:36.003Z</time></trkpt><trkpt lat="47.3482922914891" lon="5.175787130223396"><ele>215.0</ele><time>2026-04-23T07:43:38.003Z</time></trkpt><trkpt lat="47.348326103544224" lon="5.175642637358315"><ele>215.0</ele><time>2026-04-23T07:43:40.003Z</time></trkpt><trkpt lat="47.34839658614915" lon="5.175547484845268"><ele>215.0</ele><time>2026-04-23T07:43:42.003Z</time></trkpt><trkpt lat="47.34845997432108" lon="5.1755216828184745"><ele>215.00000000000003</ele><time>2026-04-23T07:43:44.003Z</time></trkpt><trkpt lat="47.3485424855017" lon="5.175454064928069"><ele>215.0</ele><time>2026-04-23T07:43:47.003Z</time></trkpt><trkpt lat="47.34859205210694" lon="5.175368719800508"><ele>215.00000000000003</ele><time>2026-04-23T07:43:49.004Z</time></trkpt><trkpt lat="47.34866597320293" lon="5.175302852039558"><ele>215.0</ele><time>2026-04-23T07:43:52.004Z</time></trkpt><trkpt lat="47.348678272332045" lon="5.1751701730809625"><ele>215.0</ele><time>2026-04-23T07:43:55.004Z</time></trkpt><trkpt lat="47.348717088935445" lon="5.175038404952361"><ele>215.0</ele><time>2026-04-23T07:43:57.004Z</time></trkpt><trkpt lat="47.348735335893466" lon="5.174940357375977"><ele>215.00000000000003</ele><time>2026-04-23T07:43:59.004Z</time></trkpt><trkpt lat="47.34877111051721" lon="5.174805766045867"><ele>215.0</ele><time>2026-04-23T07:44:01.004Z</time></trkpt><trkpt lat="47.348786488058" lon="5.174668659526744"><ele>215.0</ele><time>2026-04-23T07:44:03.004Z</time></trkpt><trkpt lat="47.34881558330866" lon="5.17455545520854"><ele>215.0</ele><time>2026-04-23T07:44:05.004Z</time></trkpt><trkpt lat="47.34881979215713" lon="5.174441543351774"><ele>215.0</ele><time>2026-04-23T07:44:07.004Z</time></trkpt><trkpt lat="47.34876784093253" lon="5.174319019045982"><ele>215.0</ele><time>2026-04-23T07:44:09.004Z</time></trkpt><trkpt lat="47.348744427397975" lon="5.17415039902638"><ele>215.0</ele><time>2026-04-23T07:44:11.004Z</time></trkpt><trkpt lat="47.348768571643426" lon="5.1740408164143465"><ele>215.00000000000003</ele><time>2026-04-23T07:44:13.004Z</time></trkpt><trkpt lat="47.348715867504914" lon="5.1739477804000025"><ele>215.0</ele><time>2026-04-23T07:44:16.004Z</time></trkpt><trkpt lat="47.34864269662627" lon="5.173903432180191"><ele>215.0</ele><time>2026-04-23T07:44:19.004Z</time></trkpt><trkpt lat="47.34862947319394" lon="5.173811572224694"><ele>215.0</ele><time>2026-04-23T07:44:21.004Z</time></trkpt><trkpt lat="47.348637587464566" lon="5.173692265343686"><ele>215.00000000000003</ele><time>2026-04-23T07:44:23.004Z</time></trkpt><trkpt lat="47.34864507060235" lon="5.17357144875716"><ele>215.0</ele><time>2026-04-23T07:44:25.004Z</time></trkpt><trkpt lat="47.3486840134565" lon="5.173433331222131"><ele>215.0</ele><time>2026-04-23T07:44:27.004Z</time></trkpt><trkpt lat="47.34873044579469" lon="5.173296052904216"><ele>215.0</ele><time>2026-04-23T07:44:29.004Z</time></trkpt><trkpt lat="47.3487963507432" lon="5.173167316955684"><ele>215.0</ele><time>2026-04-23T07:44:31.004Z</time></trkpt><trkpt lat="47.348867727006024" lon="5.1730963416565166"><ele>215.0</ele><time>2026-04-23T07:44:33.004Z</time></trkpt><trkpt lat="47.348911431289864" lon="5.173006741344749"><ele>215.0</ele><time>2026-04-23T07:44:35.004Z</time></trkpt><trkpt lat="47.34896495497031" lon="5.172893881481489"><ele>215.33333333333334</ele><time>2026-04-23T07:44:38.004Z</time></trkpt><trkpt lat="47.34900536230562" lon="5.172772170894117"><ele>215.66666666666669</ele><time>2026-04-23T07:44:41.004Z</time></trkpt><trkpt lat="47.34900354936743" lon="5.172652017050738"><ele>216.0</ele><time>2026-04-23T07:44:43.004Z</time></trkpt><trkpt lat="47.34900890524004" lon="5.172525160732247"><ele>216.33333333333331</ele><time>2026-04-23T07:44:45.004Z</time></trkpt><trkpt lat="47.34900719585419" lon="5.172402211270235"><ele>216.66666666666666</ele><time>2026-04-23T07:44:47.004Z</time></trkpt><trkpt lat="47.349016018482324" lon="5.172294757850809"><ele>217.0</ele><time>2026-04-23T07:44:49.004Z</time></trkpt><trkpt lat="47.34902323063781" lon="5.172170666904452"><ele>216.99999999999997</ele><time>2026-04-23T07:44:52.004Z</time></trkpt><trkpt lat="47.34902708247258" lon="5.172042617088342"><ele>217.0</ele><time>2026-04-23T07:44:55.004Z</time></trkpt><trkpt lat="47.34902089755414" lon="5.171931629438439"><ele>217.0</ele><time>2026-04-23T07:44:57.004Z</time></trkpt><trkpt lat="47.34903101330263" lon="5.171792453197138"><ele>217.0</ele><time>2026-04-23T07:44:59.004Z</time></trkpt><trkpt lat="47.34903178202827" lon="5.1716626983208585"><ele>216.99999999999997</ele><time>2026-04-23T07:45:01.004Z</time></trkpt><trkpt lat="47.34902822588665" lon="5.171522689040981"><ele>217.0</ele><time>2026-04-23T07:45:03.004Z</time></trkpt><trkpt lat="47.3490236418569" lon="5.171371766144623"><ele>217.0</ele><time>2026-04-23T07:45:05.004Z</time></trkpt><trkpt lat="47.3490206035996" lon="5.171224175882027"><ele>217.0</ele><time>2026-04-23T07:45:07.004Z</time></trkpt><trkpt lat="47.349014961958844" lon="5.171071693371806"><ele>217.0</ele><time>2026-04-23T07:45:09.004Z</time></trkpt><trkpt lat="47.349022436105194" lon="5.170926205962435"><ele>217.0</ele><time>2026-04-23T07:45:11.004Z</time></trkpt><trkpt lat="47.349013619504206" lon="5.170765267456093"><ele>217.0</ele><time>2026-04-23T07:45:13.004Z</time></trkpt><trkpt lat="47.34901202513325" lon="5.1706132852268025"><ele>217.0</ele><time>2026-04-23T07:45:15.004Z</time></trkpt><trkpt lat="47.349010850114546" lon="5.170448533027565"><ele>217.0</ele><time>2026-04-23T07:45:17.004Z</time></trkpt><trkpt lat="47.34900620363687" lon="5.170288684406234"><ele>217.0</ele><time>2026-04-23T07:45:19.004Z</time></trkpt><trkpt lat="47.34899988262363" lon="5.170128771450981"><ele>217.0</ele><time>2026-04-23T07:45:21.004Z</time></trkpt><trkpt lat="47.34899480903191" lon="5.169957211692837"><ele>217.0</ele><time>2026-04-23T07:45:23.004Z</time></trkpt><trkpt lat="47.348983683948326" lon="5.16979916952166"><ele>217.0</ele><time>2026-04-23T07:45:25.004Z</time></trkpt><trkpt lat="47.34898074592709" lon="5.169641693705459"><ele>217.0</ele><time>2026-04-23T07:45:27.004Z</time></trkpt><trkpt lat="47.34895445001479" lon="5.169481071535546"><ele>217.0</ele><time>2026-04-23T07:45:29.004Z</time></trkpt><trkpt lat="47.34893885898297" lon="5.169323437825867"><ele>217.0</ele><time>2026-04-23T07:45:31.004Z</time></trkpt><trkpt lat="47.34892398540362" lon="5.169162950972912"><ele>217.0</ele><time>2026-04-23T07:45:33.004Z</time></trkpt><trkpt lat="47.34890540646571" lon="5.169014867919153"><ele>217.0</ele><time>2026-04-23T07:45:35.004Z</time></trkpt><trkpt lat="47.34888308923217" lon="5.1688562584680655"><ele>217.0</ele><time>2026-04-23T07:45:37.004Z</time></trkpt><trkpt lat="47.348861062299186" lon="5.168707897033743"><ele>217.0</ele><time>2026-04-23T07:45:39.004Z</time></trkpt><trkpt lat="47.34881407981277" lon="5.168564520874724"><ele>217.0</ele><time>2026-04-23T07:45:41.004Z</time></trkpt><trkpt lat="47.34874472345965" lon="5.1684502171229205"><ele>217.0</ele><time>2026-04-23T07:45:43.004Z</time></trkpt><trkpt lat="47.34868520446465" lon="5.168411569541027"><ele>217.0</ele><time>2026-04-23T07:45:44.004Z</time></trkpt><trkpt lat="47.348583247537455" lon="5.168364710306245"><ele>217.0</ele><time>2026-04-23T07:45:46.004Z</time></trkpt><trkpt lat="47.34848968312421" lon="5.168291930533187"><ele>217.0</ele><time>2026-04-23T07:45:48.004Z</time></trkpt><trkpt lat="47.34840544852823" lon="5.16817952569617"><ele>217.0</ele><time>2026-04-23T07:45:50.004Z</time></trkpt><trkpt lat="47.348367257608174" lon="5.168027267144975"><ele>217.0</ele><time>2026-04-23T07:45:52.004Z</time></trkpt><trkpt lat="47.34834245623734" lon="5.167871694984734"><ele>217.0</ele><time>2026-04-23T07:45:54.004Z</time></trkpt><trkpt lat="47.34834089322328" lon="5.167710773341064"><ele>217.0</ele><time>2026-04-23T07:45:56.004Z</time></trkpt><trkpt lat="47.34835193616121" lon="5.167546293466977"><ele>217.0</ele><time>2026-04-23T07:45:58.004Z</time></trkpt><trkpt lat="47.34835691790987" lon="5.167396005118316"><ele>217.0</ele><time>2026-04-23T07:46:00.004Z</time></trkpt><trkpt lat="47.34833071963821" lon="5.167228803862019"><ele>217.0</ele><time>2026-04-23T07:46:02.004Z</time></trkpt><trkpt lat="47.34829578010225" lon="5.167065330500411"><ele>217.2</ele><time>2026-04-23T07:46:04.005Z</time></trkpt><trkpt lat="47.348253876398424" lon="5.166905778080967"><ele>217.39999999999998</ele><time>2026-04-23T07:46:06.005Z</time></trkpt><trkpt lat="47.34820499673909" lon="5.166752377327849"><ele>217.60000000000002</ele><time>2026-04-23T07:46:08.005Z</time></trkpt><trkpt lat="47.348175077887795" lon="5.1666654891255455"><ele>217.8</ele><time>2026-04-23T07:46:09.005Z</time></trkpt><trkpt lat="47.348122276488695" lon="5.166505791128955"><ele>218.0</ele><time>2026-04-23T07:46:11.005Z</time></trkpt><trkpt lat="47.348074224634196" lon="5.166349605448901"><ele>217.5</ele><time>2026-04-23T07:46:13.005Z</time></trkpt><trkpt lat="47.34801267297711" lon="5.166193800265464"><ele>217.0</ele><time>2026-04-23T07:46:15.005Z</time></trkpt><trkpt lat="47.34795617169199" lon="5.16603700474174"><ele>216.5</ele><time>2026-04-23T07:46:17.005Z</time></trkpt><trkpt lat="47.347914670898305" lon="5.165882166799708"><ele>216.0</ele><time>2026-04-23T07:46:19.005Z</time></trkpt><trkpt lat="47.347905788552424" lon="5.1657166684620455"><ele>216.0</ele><time>2026-04-23T07:46:21.005Z</time></trkpt><trkpt lat="47.347907100745324" lon="5.1656235839612705"><ele>216.0</ele><time>2026-04-23T07:46:22.005Z</time></trkpt><trkpt lat="47.34790314651378" lon="5.16552441211127"><ele>216.0</ele><time>2026-04-23T07:46:23.005Z</time></trkpt><trkpt lat="47.347894322790566" lon="5.165431357361346"><ele>216.0</ele><time>2026-04-23T07:46:24.005Z</time></trkpt><trkpt lat="47.34786043468015" lon="5.165248522486084"><ele>216.0</ele><time>2026-04-23T07:46:26.005Z</time></trkpt><trkpt lat="47.34782841313026" lon="5.1651680733994025"><ele>216.0</ele><time>2026-04-23T07:46:27.005Z</time></trkpt><trkpt lat="47.34779483602795" lon="5.16508514075557"><ele>216.0</ele><time>2026-04-23T07:46:28.005Z</time></trkpt><trkpt lat="47.34776009699197" lon="5.16500603301494"><ele>216.0</ele><time>2026-04-23T07:46:29.005Z</time></trkpt><trkpt lat="47.34772321604289" lon="5.164928474976638"><ele>216.0</ele><time>2026-04-23T07:46:30.005Z</time></trkpt><trkpt lat="47.34768959029269" lon="5.164848498617495"><ele>216.0</ele><time>2026-04-23T07:46:31.005Z</time></trkpt><trkpt lat="47.34765472543898" lon="5.164769845260312"><ele>216.0</ele><time>2026-04-23T07:46:32.005Z</time></trkpt><trkpt lat="47.34762094515295" lon="5.164685261788602"><ele>216.0</ele><time>2026-04-23T07:46:33.005Z</time></trkpt><trkpt lat="47.34758847482444" lon="5.164600790057563"><ele>216.0</ele><time>2026-04-23T07:46:34.005Z</time></trkpt><trkpt lat="47.34755136136859" lon="5.164521432167456"><ele>216.16666666666666</ele><time>2026-04-23T07:46:35.005Z</time></trkpt><trkpt lat="47.34750942664159" lon="5.164444650562894"><ele>216.33333333333331</ele><time>2026-04-23T07:46:36.005Z</time></trkpt><trkpt lat="47.347399558366384" lon="5.164363045494461"><ele>216.5</ele><time>2026-04-23T07:46:38.005Z</time></trkpt><trkpt lat="47.34733571684275" lon="5.164339102580469"><ele>216.66666666666666</ele><time>2026-04-23T07:46:39.005Z</time></trkpt><trkpt lat="47.34727082536712" lon="5.164336207036181"><ele>216.83333333333331</ele><time>2026-04-23T07:46:40.005Z</time></trkpt><trkpt lat="47.3471510537381" lon="5.164371755359827"><ele>217.0</ele><time>2026-04-23T07:46:42.005Z</time></trkpt><trkpt lat="47.34703081387057" lon="5.16438755383664"><ele>217.0</ele><time>2026-04-23T07:46:44.005Z</time></trkpt><trkpt lat="47.346909956632345" lon="5.164399205670511"><ele>217.0</ele><time>2026-04-23T07:46:46.005Z</time></trkpt><trkpt lat="47.34678947308783" lon="5.16441234006631"><ele>217.0</ele><time>2026-04-23T07:46:48.005Z</time></trkpt><trkpt lat="47.34667143310039" lon="5.164427406182896"><ele>217.0</ele><time>2026-04-23T07:46:50.005Z</time></trkpt><trkpt lat="47.34656059959883" lon="5.164430329412053"><ele>216.99999999999997</ele><time>2026-04-23T07:46:52.005Z</time></trkpt><trkpt lat="47.346446440775374" lon="5.16439547749773"><ele>217.0</ele><time>2026-04-23T07:46:54.005Z</time></trkpt><trkpt lat="47.346373767884565" lon="5.164382985117703"><ele>217.0</ele><time>2026-04-23T07:46:56.005Z</time></trkpt><trkpt lat="47.34628994894573" lon="5.1644077161151225"><ele>217.0</ele><time>2026-04-23T07:46:58.005Z</time></trkpt><trkpt lat="47.34620018319976" lon="5.164431016473566"><ele>216.99999999999997</ele><time>2026-04-23T07:47:00.005Z</time></trkpt><trkpt lat="47.34612150831319" lon="5.164445152848662"><ele>217.0</ele><time>2026-04-23T07:47:02.005Z</time></trkpt><trkpt lat="47.34603603249422" lon="5.164458002715478"><ele>217.0</ele><time>2026-04-23T07:47:04.005Z</time></trkpt><trkpt lat="47.34594730941564" lon="5.164482519839892"><ele>217.0</ele><time>2026-04-23T07:47:06.005Z</time></trkpt><trkpt lat="47.3458581480621" lon="5.1645636675181565"><ele>217.0</ele><time>2026-04-23T07:47:08.005Z</time></trkpt><trkpt lat="47.345793664375805" lon="5.164682006632994"><ele>217.0</ele><time>2026-04-23T07:47:10.005Z</time></trkpt><trkpt lat="47.34582920389786" lon="5.164840385616724"><ele>217.0</ele><time>2026-04-23T07:47:12.005Z</time></trkpt><trkpt lat="47.34585582733395" lon="5.164980152471033"><ele>216.99999999999997</ele><time>2026-04-23T07:47:14.005Z</time></trkpt><trkpt lat="47.34588612289061" lon="5.165102649350261"><ele>217.0</ele><time>2026-04-23T07:47:16.005Z</time></trkpt><trkpt lat="47.34593983604841" lon="5.165204449011507"><ele>217.0</ele><time>2026-04-23T07:47:18.005Z</time></trkpt><trkpt lat="47.34596816742008" lon="5.165292150243985"><ele>217.0</ele><time>2026-04-23T07:47:20.005Z</time></trkpt><trkpt lat="47.34599544178194" lon="5.165427579967439"><ele>216.99999999999997</ele><time>2026-04-23T07:47:22.005Z</time></trkpt><trkpt lat="47.34598083803423" lon="5.165538932632311"><ele>217.0</ele><time>2026-04-23T07:47:24.005Z</time></trkpt><trkpt lat="47.34595778226145" lon="5.165641827840254"><ele>217.0</ele><time>2026-04-23T07:47:26.005Z</time></trkpt><trkpt lat="47.34588943420181" lon="5.165769755672491"><ele>217.0</ele><time>2026-04-23T07:47:28.005Z</time></trkpt><trkpt lat="47.34580829026295" lon="5.165845912935356"><ele>217.0</ele><time>2026-04-23T07:47:30.005Z</time></trkpt><trkpt lat="47.34570697566454" lon="5.16588182955806"><ele>217.0</ele><time>2026-04-23T07:47:32.005Z</time></trkpt><trkpt lat="47.34562846822849" lon="5.165879837643865"><ele>217.0</ele><time>2026-04-23T07:47:34.005Z</time></trkpt><trkpt lat="47.345524566536966" lon="5.165849867823992"><ele>217.0</ele><time>2026-04-23T07:47:36.005Z</time></trkpt><trkpt lat="47.34542558585196" lon="5.165821368475034"><ele>217.0</ele><time>2026-04-23T07:47:38.005Z</time></trkpt><trkpt lat="47.34532619677915" lon="5.165843491489391"><ele>217.0</ele><time>2026-04-23T07:47:40.005Z</time></trkpt><trkpt lat="47.34521537235873" lon="5.165850639780204"><ele>217.0</ele><time>2026-04-23T07:47:42.005Z</time></trkpt><trkpt lat="47.3451477492411" lon="5.165887451631028"><ele>217.0</ele><time>2026-04-23T07:47:44.005Z</time></trkpt><trkpt lat="47.34513124691392" lon="5.165981430593077"><ele>217.0</ele><time>2026-04-23T07:47:46.005Z</time></trkpt><trkpt lat="47.34517352714924" lon="5.166061680377675"><ele>217.0</ele><time>2026-04-23T07:47:48.005Z</time></trkpt><trkpt lat="47.345238022069765" lon="5.166091379080191"><ele>217.0</ele><time>2026-04-23T07:47:50.005Z</time></trkpt><trkpt lat="47.34530076856712" lon="5.166113253276932"><ele>217.0</ele><time>2026-04-23T07:47:53.005Z</time></trkpt><trkpt lat="47.34535530945146" lon="5.166181668086491"><ele>217.0</ele><time>2026-04-23T07:47:55.005Z</time></trkpt><trkpt lat="47.34541572672783" lon="5.166248334907203"><ele>217.0</ele><time>2026-04-23T07:47:57.005Z</time></trkpt><trkpt lat="47.345483807332826" lon="5.166329372387609"><ele>217.0</ele><time>2026-04-23T07:47:59.005Z</time></trkpt><trkpt lat="47.345543333263954" lon="5.1664256802928135"><ele>217.2</ele><time>2026-04-23T07:48:01.005Z</time></trkpt><trkpt lat="47.34554000314427" lon="5.166575501310881"><ele>217.39999999999998</ele><time>2026-04-23T07:48:03.005Z</time></trkpt><trkpt lat="47.345473702165634" lon="5.166673507871936"><ele>217.60000000000002</ele><time>2026-04-23T07:48:05.005Z</time></trkpt><trkpt lat="47.34538661941552" lon="5.166677565045511"><ele>217.8</ele><time>2026-04-23T07:48:07.005Z</time></trkpt><trkpt lat="47.34529234529064" lon="5.166688728176245"><ele>218.0</ele><time>2026-04-23T07:48:09.005Z</time></trkpt><trkpt lat="47.34520358289512" lon="5.166714976091264"><ele>218.00000000000003</ele><time>2026-04-23T07:48:11.005Z</time></trkpt><trkpt lat="47.34510707372249" lon="5.166700098725299"><ele>218.0</ele><time>2026-04-23T07:48:13.005Z</time></trkpt><trkpt lat="47.34502596413322" lon="5.166649407240801"><ele>218.0</ele><time>2026-04-23T07:48:15.005Z</time></trkpt><trkpt lat="47.344936529222224" lon="5.166586743307263"><ele>218.0</ele><time>2026-04-23T07:48:17.005Z</time></trkpt><trkpt lat="47.344873608165734" lon="5.166514468572345"><ele>218.00000000000003</ele><time>2026-04-23T07:48:19.005Z</time></trkpt><trkpt lat="47.344806023061444" lon="5.166446272089219"><ele>218.0</ele><time>2026-04-23T07:48:21.006Z</time></trkpt><trkpt lat="47.344738248849126" lon="5.16637307650669"><ele>218.00000000000003</ele><time>2026-04-23T07:48:23.006Z</time></trkpt><trkpt lat="47.34466563725906" lon="5.166301116069469"><ele>218.0</ele><time>2026-04-23T07:48:25.006Z</time></trkpt><trkpt lat="47.34459240670794" lon="5.166326591788154"><ele>218.0</ele><time>2026-04-23T07:48:27.006Z</time></trkpt><trkpt lat="47.34456703389178" lon="5.1664346378623245"><ele>218.0</ele><time>2026-04-23T07:48:29.006Z</time></trkpt><trkpt lat="47.34463501308467" lon="5.166490692355639"><ele>218.00000000000003</ele><time>2026-04-23T07:48:31.006Z</time></trkpt><trkpt lat="47.34470375923335" lon="5.166546100421466"><ele>218.0</ele><time>2026-04-23T07:48:33.006Z</time></trkpt><trkpt lat="47.34477122104082" lon="5.166632808202308"><ele>218.0</ele><time>2026-04-23T07:48:35.006Z</time></trkpt><trkpt lat="47.34484443247307" lon="5.16673164440085"><ele>218.0</ele><time>2026-04-23T07:48:37.006Z</time></trkpt><trkpt lat="47.34491525586503" lon="5.166817993463131"><ele>218.0</ele><time>2026-04-23T07:48:39.006Z</time></trkpt><trkpt lat="47.34497189922976" lon="5.1669516310309715"><ele>218.0</ele><time>2026-04-23T07:48:41.006Z</time></trkpt><trkpt lat="47.344982689965235" lon="5.167095482719524"><ele>218.0</ele><time>2026-04-23T07:48:43.006Z</time></trkpt><trkpt lat="47.344971304521266" lon="5.16723490410755"><ele>218.0</ele><time>2026-04-23T07:48:45.006Z</time></trkpt><trkpt lat="47.34488379976892" lon="5.16733496157706"><ele>218.0</ele><time>2026-04-23T07:48:47.006Z</time></trkpt><trkpt lat="47.34478898782401" lon="5.167352498564096"><ele>218.0</ele><time>2026-04-23T07:48:49.006Z</time></trkpt><trkpt lat="47.34469122792574" lon="5.167328853182694"><ele>218.0</ele><time>2026-04-23T07:48:51.006Z</time></trkpt><trkpt lat="47.344600189081106" lon="5.167315802191399"><ele>218.0</ele><time>2026-04-23T07:48:53.006Z</time></trkpt><trkpt lat="47.34450022540809" lon="5.16728791794993"><ele>217.50000000000003</ele><time>2026-04-23T07:48:55.006Z</time></trkpt><trkpt lat="47.34440318810016" lon="5.167273198805224"><ele>217.0</ele><time>2026-04-23T07:48:57.006Z</time></trkpt><trkpt lat="47.344299616577864" lon="5.1672733908194735"><ele>216.5</ele><time>2026-04-23T07:48:59.006Z</time></trkpt><trkpt lat="47.34423194948124" lon="5.167261187551712"><ele>216.0</ele><time>2026-04-23T07:49:01.006Z</time></trkpt><trkpt lat="47.34416132532421" lon="5.1672817657071075"><ele>215.50000000000003</ele><time>2026-04-23T07:49:03.006Z</time></trkpt><trkpt lat="47.34411004965488" lon="5.167412815900924"><ele>215.0</ele><time>2026-04-23T07:49:05.006Z</time></trkpt><trkpt lat="47.3441235605645" lon="5.167562718125182"><ele>215.0</ele><time>2026-04-23T07:49:07.006Z</time></trkpt><trkpt lat="47.34416743675373" lon="5.167701964589654"><ele>215.0</ele><time>2026-04-23T07:49:09.006Z</time></trkpt><trkpt lat="47.34421994851518" lon="5.1678228133049915"><ele>215.0</ele><time>2026-04-23T07:49:11.006Z</time></trkpt><trkpt lat="47.34425847492116" lon="5.167930784473268"><ele>215.0</ele><time>2026-04-23T07:49:13.006Z</time></trkpt><trkpt lat="47.34423358110108" lon="5.168061125250116"><ele>215.0</ele><time>2026-04-23T07:49:15.006Z</time></trkpt><trkpt lat="47.34415587049161" lon="5.168105101324525"><ele>215.0</ele><time>2026-04-23T07:49:17.006Z</time></trkpt><trkpt lat="47.34407293462312" lon="5.168186552156748"><ele>215.0</ele><time>2026-04-23T07:49:19.006Z</time></trkpt><trkpt lat="47.34409366198943" lon="5.168298620397823"><ele>215.0</ele><time>2026-04-23T07:49:21.006Z</time></trkpt><trkpt lat="47.3442738661642" lon="5.168197318932667"><ele>215.0</ele><time>2026-04-23T07:49:26.006Z</time></trkpt><trkpt lat="47.344366184845995" lon="5.168160690013259"><ele>215.0</ele><time>2026-04-23T07:49:28.006Z</time></trkpt><trkpt lat="47.34445623814433" lon="5.168155997145277"><ele>215.0</ele><time>2026-04-23T07:49:30.006Z</time></trkpt><trkpt lat="47.3445617462677" lon="5.168188799615421"><ele>215.0</ele><time>2026-04-23T07:49:32.006Z</time></trkpt><trkpt lat="47.344613504367885" lon="5.16831796654772"><ele>215.0</ele><time>2026-04-23T07:49:34.006Z</time></trkpt><trkpt lat="47.34458563262952" lon="5.168456408166042"><ele>215.0</ele><time>2026-04-23T07:49:36.006Z</time></trkpt><trkpt lat="47.344527888148846" lon="5.168524202143176"><ele>215.00000000000003</ele><time>2026-04-23T07:49:38.006Z</time></trkpt><trkpt lat="47.34446370756886" lon="5.168567821402495"><ele>215.0</ele><time>2026-04-23T07:49:40.006Z</time></trkpt><trkpt lat="47.34439204741488" lon="5.168606531201175"><ele>215.0</ele><time>2026-04-23T07:49:42.006Z</time></trkpt><trkpt lat="47.34436797356491" lon="5.16871653249618"><ele>215.0</ele><time>2026-04-23T07:49:45.006Z</time></trkpt><trkpt lat="47.34444014002059" lon="5.168796739483573"><ele>215.00000000000003</ele><time>2026-04-23T07:49:48.006Z</time></trkpt><trkpt lat="47.34441618957798" lon="5.168912520810856"><ele>215.0</ele><time>2026-04-23T07:49:50.006Z</time></trkpt><trkpt lat="47.344365611761354" lon="5.1690029602027945"><ele>215.0</ele><time>2026-04-23T07:49:52.006Z</time></trkpt><trkpt lat="47.344332117975014" lon="5.169098115363738"><ele>215.0</ele><time>2026-04-23T07:49:54.006Z</time></trkpt><trkpt lat="47.34431720419172" lon="5.169243134122436"><ele>215.0</ele><time>2026-04-23T07:49:56.006Z</time></trkpt><trkpt lat="47.34435025789132" lon="5.169413709560203"><ele>215.0</ele><time>2026-04-23T07:49:58.006Z</time></trkpt><trkpt lat="47.34437235135276" lon="5.169567873486901"><ele>215.0</ele><time>2026-04-23T07:50:00.006Z</time></trkpt><trkpt lat="47.3443476757392" lon="5.169653570159676"><ele>215.0</ele><time>2026-04-23T07:50:01.006Z</time></trkpt><trkpt lat="47.34428155936595" lon="5.169788205169063"><ele>215.0</ele><time>2026-04-23T07:50:03.006Z</time></trkpt><trkpt lat="47.34424240963601" lon="5.169917467117778"><ele>215.0</ele><time>2026-04-23T07:50:05.006Z</time></trkpt><trkpt lat="47.344244751402655" lon="5.1700761815072624"><ele>215.0</ele><time>2026-04-23T07:50:07.006Z</time></trkpt><trkpt lat="47.34428343434742" lon="5.1702203847440025"><ele>215.0</ele><time>2026-04-23T07:50:09.006Z</time></trkpt><trkpt lat="47.344292484423136" lon="5.170356280353069"><ele>215.16666666666669</ele><time>2026-04-23T07:50:11.006Z</time></trkpt><trkpt lat="47.34422550508317" lon="5.17043657341863"><ele>215.33333333333334</ele><time>2026-04-23T07:50:13.006Z</time></trkpt><trkpt lat="47.344161390923695" lon="5.170433824949935"><ele>215.5</ele><time>2026-04-23T07:50:15.006Z</time></trkpt><trkpt lat="47.344112784498904" lon="5.170537342131028"><ele>215.66666666666669</ele><time>2026-04-23T07:50:17.006Z</time></trkpt><trkpt lat="47.3440951945022" lon="5.170646294845992"><ele>215.83333333333334</ele><time>2026-04-23T07:50:19.006Z</time></trkpt><trkpt lat="47.34406373292667" lon="5.170749233774814"><ele>216.0</ele><time>2026-04-23T07:50:22.006Z</time></trkpt><trkpt lat="47.34410819209713" lon="5.170859898157521"><ele>216.0</ele><time>2026-04-23T07:50:26.006Z</time></trkpt><trkpt lat="47.34418442151855" lon="5.17091079014774"><ele>216.0</ele><time>2026-04-23T07:50:29.006Z</time></trkpt><trkpt lat="47.34419497585623" lon="5.171027954655259"><ele>216.0</ele><time>2026-04-23T07:50:31.006Z</time></trkpt><trkpt lat="47.34419532308289" lon="5.171146822660461"><ele>216.0</ele><time>2026-04-23T07:50:33.006Z</time></trkpt><trkpt lat="47.34416713736992" lon="5.171234013132718"><ele>216.0</ele><time>2026-04-23T07:50:35.006Z</time></trkpt><trkpt lat="47.344104193248235" lon="5.1712814564233645"><ele>216.0</ele><time>2026-04-23T07:50:37.007Z</time></trkpt><trkpt lat="47.34402874110997" lon="5.171345462151721"><ele>216.0</ele><time>2026-04-23T07:50:39.007Z</time></trkpt><trkpt lat="47.34398115523907" lon="5.171417221079312"><ele>216.0</ele><time>2026-04-23T07:50:41.007Z</time></trkpt><trkpt lat="47.34391187452305" lon="5.171351451408597"><ele>216.0</ele><time>2026-04-23T07:50:43.007Z</time></trkpt><trkpt lat="47.34382814119317" lon="5.171332234311848"><ele>216.0</ele><time>2026-04-23T07:50:45.007Z</time></trkpt><trkpt lat="47.34375497988338" lon="5.171320160859884"><ele>216.0</ele><time>2026-04-23T07:50:47.007Z</time></trkpt><trkpt lat="47.34367509595116" lon="5.171323241878998"><ele>216.0</ele><time>2026-04-23T07:50:49.007Z</time></trkpt><trkpt lat="47.343586355292835" lon="5.171349376603243"><ele>216.16666666666666</ele><time>2026-04-23T07:50:51.007Z</time></trkpt><trkpt lat="47.343530953685466" lon="5.171258605603559"><ele>216.33333333333331</ele><time>2026-04-23T07:50:53.007Z</time></trkpt><trkpt lat="47.34347162696034" lon="5.171206759484512"><ele>216.5</ele><time>2026-04-23T07:50:55.007Z</time></trkpt><trkpt lat="47.34340257694151" lon="5.171226352319355"><ele>216.66666666666666</ele><time>2026-04-23T07:50:57.007Z</time></trkpt><trkpt lat="47.343341528052356" lon="5.171281249854411"><ele>216.83333333333331</ele><time>2026-04-23T07:50:59.007Z</time></trkpt><trkpt lat="47.34323885527767" lon="5.171263244395697"><ele>217.0</ele><time>2026-04-23T07:51:02.007Z</time></trkpt><trkpt lat="47.3431709942297" lon="5.171272346669161"><ele>216.99999999999997</ele><time>2026-04-23T07:51:04.007Z</time></trkpt><trkpt lat="47.34306813211216" lon="5.17127634800891"><ele>217.0</ele><time>2026-04-23T07:51:06.007Z</time></trkpt><trkpt lat="47.342993029436435" lon="5.171285051395266"><ele>217.0</ele><time>2026-04-23T07:51:08.007Z</time></trkpt><trkpt lat="47.34290289930764" lon="5.171253052924523"><ele>217.0</ele><time>2026-04-23T07:51:10.007Z</time></trkpt><trkpt lat="47.342824279976156" lon="5.171229204097087"><ele>216.99999999999997</ele><time>2026-04-23T07:51:12.007Z</time></trkpt><trkpt lat="47.342759338410424" lon="5.171213898159769"><ele>217.0</ele><time>2026-04-23T07:51:14.007Z</time></trkpt><trkpt lat="47.34266617495234" lon="5.1711436090424066"><ele>217.16666666666666</ele><time>2026-04-23T07:51:16.007Z</time></trkpt><trkpt lat="47.3425802489603" lon="5.17113213977781"><ele>217.33333333333331</ele><time>2026-04-23T07:51:18.007Z</time></trkpt><trkpt lat="47.3425205533166" lon="5.171092315336425"><ele>217.5</ele><time>2026-04-23T07:51:20.007Z</time></trkpt><trkpt lat="47.342442522713675" lon="5.171113553535647"><ele>217.66666666666669</ele><time>2026-04-23T07:51:22.007Z</time></trkpt><trkpt lat="47.342350380904044" lon="5.171129028606772"><ele>217.83333333333334</ele><time>2026-04-23T07:51:24.007Z</time></trkpt><trkpt lat="47.34226476458209" lon="5.171068466074876"><ele>218.0</ele><time>2026-04-23T07:51:26.007Z</time></trkpt><trkpt lat="47.34218392293393" lon="5.171040614430629"><ele>218.2</ele><time>2026-04-23T07:51:28.007Z</time></trkpt><trkpt lat="47.34207236447699" lon="5.171052869992735"><ele>218.4</ele><time>2026-04-23T07:51:31.007Z</time></trkpt><trkpt lat="47.34196800614209" lon="5.171048315292269"><ele>218.59999999999997</ele><time>2026-04-23T07:51:33.007Z</time></trkpt><trkpt lat="47.3418968352683" lon="5.170967643244835"><ele>218.79999999999998</ele><time>2026-04-23T07:51:35.007Z</time></trkpt><trkpt lat="47.34183470112944" lon="5.17086698561557"><ele>219.0</ele><time>2026-04-23T07:51:37.007Z</time></trkpt><trkpt lat="47.34177685766009" lon="5.170815753561632"><ele>219.0</ele><time>2026-04-23T07:51:39.007Z</time></trkpt><trkpt lat="47.34168581130955" lon="5.170792503870585"><ele>218.99999999999997</ele><time>2026-04-23T07:51:41.007Z</time></trkpt><trkpt lat="47.34158164658341" lon="5.170771302305196"><ele>218.99999999999997</ele><time>2026-04-23T07:51:43.007Z</time></trkpt><trkpt lat="47.34149882025121" lon="5.170786821992864"><ele>219.0</ele><time>2026-04-23T07:51:45.007Z</time></trkpt><trkpt lat="47.34141154422032" lon="5.170775298166556"><ele>219.0</ele><time>2026-04-23T07:51:47.007Z</time></trkpt><trkpt lat="47.341325413431" lon="5.170750313778085"><ele>218.66666666666666</ele><time>2026-04-23T07:51:49.007Z</time></trkpt><trkpt lat="47.341250737664076" lon="5.170751990414896"><ele>218.33333333333331</ele><time>2026-04-23T07:51:51.007Z</time></trkpt><trkpt lat="47.34116117596196" lon="5.1707688312870905"><ele>218.0</ele><time>2026-04-23T07:51:53.007Z</time></trkpt><trkpt lat="47.34108074577153" lon="5.170822739102416"><ele>217.66666666666666</ele><time>2026-04-23T07:51:55.007Z</time></trkpt><trkpt lat="47.34111290866449" lon="5.1709119910146635"><ele>217.33333333333331</ele><time>2026-04-23T07:51:57.007Z</time></trkpt><trkpt lat="47.34115129990679" lon="5.171012099727872"><ele>217.0</ele><time>2026-04-23T07:51:59.007Z</time></trkpt><trkpt lat="47.34113876612602" lon="5.171118878763031"><ele>217.0</ele><time>2026-04-23T07:52:03.007Z</time></trkpt><trkpt lat="47.341047511960305" lon="5.171095759755259"><ele>217.0</ele><time>2026-04-23T07:52:05.007Z</time></trkpt><trkpt lat="47.34095407102903" lon="5.171068757972181"><ele>217.0</ele><time>2026-04-23T07:52:07.007Z</time></trkpt><trkpt lat="47.340856466843256" lon="5.171047718117609"><ele>217.0</ele><time>2026-04-23T07:52:09.007Z</time></trkpt><trkpt lat="47.340768712674304" lon="5.171022030034442"><ele>217.0</ele><time>2026-04-23T07:52:11.007Z</time></trkpt><trkpt lat="47.34067886419042" lon="5.17099434279626"><ele>216.99999999999997</ele><time>2026-04-23T07:52:13.007Z</time></trkpt><trkpt lat="47.34061362312729" lon="5.170963602644227"><ele>217.0</ele><time>2026-04-23T07:52:15.007Z</time></trkpt><trkpt lat="47.34052408282748" lon="5.170980827379644"><ele>217.0</ele><time>2026-04-23T07:52:17.007Z</time></trkpt><trkpt lat="47.340451032364946" lon="5.171012216981413"><ele>217.0</ele><time>2026-04-23T07:52:19.007Z</time></trkpt><trkpt lat="47.340396080581144" lon="5.17107452226114"><ele>216.99999999999997</ele><time>2026-04-23T07:52:21.007Z</time></trkpt><trkpt lat="47.340315271734625" lon="5.171153077038429"><ele>217.0</ele><time>2026-04-23T07:52:23.007Z</time></trkpt><trkpt lat="47.34027948693954" lon="5.171267636650064"><ele>216.8</ele><time>2026-04-23T07:52:25.007Z</time></trkpt><trkpt lat="47.340268924001315" lon="5.17140915131561"><ele>216.6</ele><time>2026-04-23T07:52:27.007Z</time></trkpt><trkpt lat="47.34024893457341" lon="5.171548993618066"><ele>216.40000000000003</ele><time>2026-04-23T07:52:29.007Z</time></trkpt><trkpt lat="47.34023023132652" lon="5.171689710036168"><ele>216.20000000000002</ele><time>2026-04-23T07:52:31.007Z</time></trkpt><trkpt lat="47.34020869884595" lon="5.171838134453269"><ele>216.0</ele><time>2026-04-23T07:52:33.007Z</time></trkpt><trkpt lat="47.34018713935333" lon="5.1719935410002575"><ele>216.0</ele><time>2026-04-23T07:52:35.007Z</time></trkpt><trkpt lat="47.340162276031386" lon="5.172155110245801"><ele>216.0</ele><time>2026-04-23T07:52:37.007Z</time></trkpt><trkpt lat="47.34014682558574" lon="5.17231836603112"><ele>216.0</ele><time>2026-04-23T07:52:39.007Z</time></trkpt><trkpt lat="47.34012526084517" lon="5.172488651818782"><ele>216.0</ele><time>2026-04-23T07:52:41.007Z</time></trkpt><trkpt lat="47.34010686133275" lon="5.172656308394357"><ele>215.5</ele><time>2026-04-23T07:52:43.007Z</time></trkpt><trkpt lat="47.34009195590308" lon="5.1728246268948475"><ele>215.0</ele><time>2026-04-23T07:52:45.007Z</time></trkpt><trkpt lat="47.34008626890744" lon="5.172995738580874"><ele>214.5</ele><time>2026-04-23T07:52:47.007Z</time></trkpt><trkpt lat="47.34008783139417" lon="5.17316922225176"><ele>214.0</ele><time>2026-04-23T07:52:49.007Z</time></trkpt><trkpt lat="47.340097033525105" lon="5.173340833067787"><ele>214.0</ele><time>2026-04-23T07:52:51.007Z</time></trkpt><trkpt lat="47.34010916894546" lon="5.173508463695313"><ele>214.0</ele><time>2026-04-23T07:52:53.008Z</time></trkpt><trkpt lat="47.34012225585716" lon="5.1736774683281395"><ele>214.0</ele><time>2026-04-23T07:52:55.008Z</time></trkpt><trkpt lat="47.340150560982366" lon="5.173848203869108"><ele>214.0</ele><time>2026-04-23T07:52:57.008Z</time></trkpt><trkpt lat="47.34017604175571" lon="5.174022637669489"><ele>214.5</ele><time>2026-04-23T07:52:59.008Z</time></trkpt><trkpt lat="47.34019859488461" lon="5.17419013273958"><ele>215.0</ele><time>2026-04-23T07:53:01.008Z</time></trkpt><trkpt lat="47.34022192091779" lon="5.1743577920601505"><ele>215.5</ele><time>2026-04-23T07:53:03.008Z</time></trkpt><trkpt lat="47.34025036883891" lon="5.174524517957409"><ele>216.0</ele><time>2026-04-23T07:53:05.008Z</time></trkpt><trkpt lat="47.340279861434766" lon="5.1746886084753285"><ele>216.0</ele><time>2026-04-23T07:53:07.008Z</time></trkpt><trkpt lat="47.34030972969793" lon="5.17485485732098"><ele>216.0</ele><time>2026-04-23T07:53:09.008Z</time></trkpt><trkpt lat="47.34032867997979" lon="5.175019954916928"><ele>216.0</ele><time>2026-04-23T07:53:11.008Z</time></trkpt><trkpt lat="47.34032714412576" lon="5.175187225137494"><ele>216.0</ele><time>2026-04-23T07:53:13.008Z</time></trkpt><trkpt lat="47.34032079436829" lon="5.175360682498314"><ele>216.0</ele><time>2026-04-23T07:53:15.008Z</time></trkpt><trkpt lat="47.340295999119" lon="5.175529728932909"><ele>216.0</ele><time>2026-04-23T07:53:17.008Z</time></trkpt><trkpt lat="47.34027815664147" lon="5.175704804729054"><ele>216.0</ele><time>2026-04-23T07:53:19.008Z</time></trkpt><trkpt lat="47.34025892165251" lon="5.175869591238204"><ele>216.0</ele><time>2026-04-23T07:53:21.008Z</time></trkpt><trkpt lat="47.34023727039496" lon="5.176033787139177"><ele>215.8</ele><time>2026-04-23T07:53:23.008Z</time></trkpt><trkpt lat="47.3402243977171" lon="5.176197915960491"><ele>215.60000000000002</ele><time>2026-04-23T07:53:25.008Z</time></trkpt><trkpt lat="47.34017049743997" lon="5.1763373409751345"><ele>215.4</ele><time>2026-04-23T07:53:27.008Z</time></trkpt><trkpt lat="47.34005497245292" lon="5.176350615368793"><ele>215.2</ele><time>2026-04-23T07:53:29.008Z</time></trkpt><trkpt lat="47.339993662619236" lon="5.176301864539019"><ele>215.0</ele><time>2026-04-23T07:53:30.008Z</time></trkpt><trkpt lat="47.339940432605275" lon="5.176247624776624"><ele>215.0</ele><time>2026-04-23T07:53:31.008Z</time></trkpt><trkpt lat="47.33983281386784" lon="5.176166774083791"><ele>215.0</ele><time>2026-04-23T07:53:33.008Z</time></trkpt><trkpt lat="47.33971904227185" lon="5.176099059331898"><ele>215.0</ele><time>2026-04-23T07:53:35.008Z</time></trkpt><trkpt lat="47.339601901310196" lon="5.176041119678467"><ele>215.0</ele><time>2026-04-23T07:53:37.008Z</time></trkpt><trkpt lat="47.33953986124932" lon="5.176002500739958"><ele>215.0</ele><time>2026-04-23T07:53:38.008Z</time></trkpt><trkpt lat="47.33948135224232" lon="5.175964978774349"><ele>214.6</ele><time>2026-04-23T07:53:39.008Z</time></trkpt><trkpt lat="47.33936439494656" lon="5.175898773780976"><ele>214.2</ele><time>2026-04-23T07:53:41.008Z</time></trkpt><trkpt lat="47.33923745183634" lon="5.175859853717997"><ele>213.8</ele><time>2026-04-23T07:53:43.008Z</time></trkpt><trkpt lat="47.33917304225652" lon="5.175847795392225"><ele>213.4</ele><time>2026-04-23T07:53:44.008Z</time></trkpt><trkpt lat="47.33910501797488" lon="5.175840607980397"><ele>213.0</ele><time>2026-04-23T07:53:45.008Z</time></trkpt><trkpt lat="47.33903789041399" lon="5.175829133804216"><ele>213.0</ele><time>2026-04-23T07:53:46.008Z</time></trkpt><trkpt lat="47.33897005361883" lon="5.175820118519541"><ele>213.0</ele><time>2026-04-23T07:53:47.008Z</time></trkpt><trkpt lat="47.33890323395588" lon="5.175815535552727"><ele>213.0</ele><time>2026-04-23T07:53:48.008Z</time></trkpt><trkpt lat="47.338837371038" lon="5.175805487694967"><ele>213.0</ele><time>2026-04-23T07:53:49.008Z</time></trkpt><trkpt lat="47.33871113855278" lon="5.175788386386817"><ele>213.0</ele><time>2026-04-23T07:53:51.008Z</time></trkpt><trkpt lat="47.338586126988346" lon="5.175775063928717"><ele>213.4</ele><time>2026-04-23T07:53:53.008Z</time></trkpt><trkpt lat="47.33845995872698" lon="5.1757552665415965"><ele>213.8</ele><time>2026-04-23T07:53:55.008Z</time></trkpt><trkpt lat="47.33839608571057" lon="5.175746419271844"><ele>214.2</ele><time>2026-04-23T07:53:56.008Z</time></trkpt><trkpt lat="47.33827120737265" lon="5.175732896881068"><ele>214.6</ele><time>2026-04-23T07:53:58.008Z</time></trkpt><trkpt lat="47.33820486882377" lon="5.17572739941973"><ele>215.0</ele><time>2026-04-23T07:53:59.008Z</time></trkpt><trkpt lat="47.338137844795604" lon="5.175722528581582"><ele>214.66666666666669</ele><time>2026-04-23T07:54:00.008Z</time></trkpt><trkpt lat="47.3380096023157" lon="5.175696624832041"><ele>214.33333333333334</ele><time>2026-04-23T07:54:02.008Z</time></trkpt><trkpt lat="47.33788808122193" lon="5.175679771965004"><ele>214.0</ele><time>2026-04-23T07:54:04.008Z</time></trkpt><trkpt lat="47.33782351885857" lon="5.175671702508018"><ele>213.66666666666669</ele><time>2026-04-23T07:54:05.008Z</time></trkpt><trkpt lat="47.33775913316574" lon="5.175662281918409"><ele>213.33333333333334</ele><time>2026-04-23T07:54:06.008Z</time></trkpt><trkpt lat="47.33769455518163" lon="5.175652791445724"><ele>213.0</ele><time>2026-04-23T07:54:07.008Z</time></trkpt><trkpt lat="47.33757005370876" lon="5.175645856824379"><ele>213.0</ele><time>2026-04-23T07:54:09.008Z</time></trkpt><trkpt lat="47.337449585861904" lon="5.175624897732366"><ele>213.0</ele><time>2026-04-23T07:54:11.008Z</time></trkpt><trkpt lat="47.33733298371648" lon="5.175614842231513"><ele>213.0</ele><time>2026-04-23T07:54:13.008Z</time></trkpt><trkpt lat="47.33726691951151" lon="5.1756034948471425"><ele>213.0</ele><time>2026-04-23T07:54:14.008Z</time></trkpt><trkpt lat="47.33714705917996" lon="5.175585244359212"><ele>213.0</ele><time>2026-04-23T07:54:16.008Z</time></trkpt><trkpt lat="47.33702630645993" lon="5.175575309028874"><ele>213.16666666666666</ele><time>2026-04-23T07:54:18.008Z</time></trkpt><trkpt lat="47.33690223291379" lon="5.175557989257292"><ele>213.33333333333331</ele><time>2026-04-23T07:54:20.008Z</time></trkpt><trkpt lat="47.33683964267357" lon="5.175544765868967"><ele>213.5</ele><time>2026-04-23T07:54:21.008Z</time></trkpt><trkpt lat="47.33677578850673" lon="5.175531557379136"><ele>213.66666666666666</ele><time>2026-04-23T07:54:22.008Z</time></trkpt><trkpt lat="47.33671245719982" lon="5.175524380469189"><ele>213.83333333333331</ele><time>2026-04-23T07:54:23.008Z</time></trkpt><trkpt lat="47.336648735485234" lon="5.175516687683044"><ele>214.0</ele><time>2026-04-23T07:54:24.008Z</time></trkpt><trkpt lat="47.33652486777748" lon="5.175511118711367"><ele>213.99999999999997</ele><time>2026-04-23T07:54:26.008Z</time></trkpt><trkpt lat="47.336461503793686" lon="5.17550195253582"><ele>214.0</ele><time>2026-04-23T07:54:27.008Z</time></trkpt><trkpt lat="47.33639604002118" lon="5.175489038578024"><ele>214.0</ele><time>2026-04-23T07:54:28.008Z</time></trkpt><trkpt lat="47.33627569852559" lon="5.175471951375069"><ele>214.0</ele><time>2026-04-23T07:54:30.008Z</time></trkpt><trkpt lat="47.33621040611753" lon="5.175467648574818"><ele>213.99999999999997</ele><time>2026-04-23T07:54:31.008Z</time></trkpt><trkpt lat="47.336083950262356" lon="5.175449645878872"><ele>214.0</ele><time>2026-04-23T07:54:33.008Z</time></trkpt><trkpt lat="47.33595829130245" lon="5.17543084242673"><ele>213.6</ele><time>2026-04-23T07:54:35.008Z</time></trkpt><trkpt lat="47.335895548162014" lon="5.175422822021637"><ele>213.2</ele><time>2026-04-23T07:54:36.008Z</time></trkpt><trkpt lat="47.33577484110958" lon="5.175404174085331"><ele>212.79999999999998</ele><time>2026-04-23T07:54:38.008Z</time></trkpt><trkpt lat="47.335650609057495" lon="5.175392847819823"><ele>212.39999999999998</ele><time>2026-04-23T07:54:40.008Z</time></trkpt><trkpt lat="47.335526786114706" lon="5.1753741243970515"><ele>212.0</ele><time>2026-04-23T07:54:42.008Z</time></trkpt><trkpt lat="47.33540386915202" lon="5.175354155463088"><ele>212.0</ele><time>2026-04-23T07:54:44.008Z</time></trkpt><trkpt lat="47.33534078270496" lon="5.175349702307304"><ele>212.0</ele><time>2026-04-23T07:54:45.008Z</time></trkpt><trkpt lat="47.33527673900832" lon="5.175343775810652"><ele>212.0</ele><time>2026-04-23T07:54:46.008Z</time></trkpt><trkpt lat="47.33515388785015" lon="5.175326306472597"><ele>212.0</ele><time>2026-04-23T07:54:48.008Z</time></trkpt><trkpt lat="47.335031770310565" lon="5.175313538110415"><ele>212.0</ele><time>2026-04-23T07:54:50.008Z</time></trkpt><trkpt lat="47.33491087182465" lon="5.175298623110727"><ele>212.0</ele><time>2026-04-23T07:54:52.008Z</time></trkpt><trkpt lat="47.33478720651908" lon="5.175280521426207"><ele>212.0</ele><time>2026-04-23T07:54:54.008Z</time></trkpt><trkpt lat="47.33466185605011" lon="5.175264523988783"><ele>212.0</ele><time>2026-04-23T07:54:56.008Z</time></trkpt><trkpt lat="47.334542269491315" lon="5.175243721911779"><ele>212.0</ele><time>2026-04-23T07:54:58.008Z</time></trkpt><trkpt lat="47.33441982787212" lon="5.175229675408342"><ele>212.25</ele><time>2026-04-23T07:55:00.008Z</time></trkpt><trkpt lat="47.33429778063546" lon="5.175218189127281"><ele>212.5</ele><time>2026-04-23T07:55:02.008Z</time></trkpt><trkpt lat="47.33417091363286" lon="5.175195961687906"><ele>212.75</ele><time>2026-04-23T07:55:04.008Z</time></trkpt><trkpt lat="47.33404920634142" lon="5.175182350937345"><ele>213.0</ele><time>2026-04-23T07:55:06.008Z</time></trkpt><trkpt lat="47.33392666608628" lon="5.1751695202527195"><ele>213.0</ele><time>2026-04-23T07:55:08.008Z</time></trkpt><trkpt lat="47.33380002199278" lon="5.175142511976749"><ele>213.0</ele><time>2026-04-23T07:55:10.009Z</time></trkpt><trkpt lat="47.33367918384947" lon="5.175138550916663"><ele>213.0</ele><time>2026-04-23T07:55:12.009Z</time></trkpt><trkpt lat="47.33361388767594" lon="5.175128715448942"><ele>213.0</ele><time>2026-04-23T07:55:13.009Z</time></trkpt><trkpt lat="47.33349359721425" lon="5.175107241238946"><ele>213.0</ele><time>2026-04-23T07:55:15.009Z</time></trkpt><trkpt lat="47.333430370232094" lon="5.1750954971640954"><ele>213.0</ele><time>2026-04-23T07:55:16.009Z</time></trkpt><trkpt lat="47.33336727239145" lon="5.175088682038285"><ele>213.0</ele><time>2026-04-23T07:55:17.009Z</time></trkpt><trkpt lat="47.33324269453695" lon="5.175077364627352"><ele>213.0</ele><time>2026-04-23T07:55:19.009Z</time></trkpt><trkpt lat="47.33311499711759" lon="5.175068781032355"><ele>213.0</ele><time>2026-04-23T07:55:21.009Z</time></trkpt><trkpt lat="47.33299365722494" lon="5.175048149309075"><ele>213.0</ele><time>2026-04-23T07:55:23.009Z</time></trkpt><trkpt lat="47.3328693230523" lon="5.175030745848641"><ele>213.0</ele><time>2026-04-23T07:55:25.009Z</time></trkpt><trkpt lat="47.332748116972276" lon="5.175012568531075"><ele>213.0</ele><time>2026-04-23T07:55:27.009Z</time></trkpt><trkpt lat="47.332685203738095" lon="5.175005745621045"><ele>213.0</ele><time>2026-04-23T07:55:28.009Z</time></trkpt><trkpt lat="47.332561141023966" lon="5.174987100234677"><ele>213.0</ele><time>2026-04-23T07:55:30.009Z</time></trkpt><trkpt lat="47.33249712139329" lon="5.174980755779944"><ele>213.0</ele><time>2026-04-23T07:55:31.009Z</time></trkpt><trkpt lat="47.332433943778476" lon="5.17497438337726"><ele>213.0</ele><time>2026-04-23T07:55:32.009Z</time></trkpt><trkpt lat="47.33236997031285" lon="5.174960055834807"><ele>213.0</ele><time>2026-04-23T07:55:33.009Z</time></trkpt><trkpt lat="47.332248951625374" lon="5.174943991064086"><ele>213.0</ele><time>2026-04-23T07:55:35.009Z</time></trkpt><trkpt lat="47.33213090351609" lon="5.174926266851044"><ele>213.0</ele><time>2026-04-23T07:55:37.009Z</time></trkpt><trkpt lat="47.332007146634815" lon="5.174910915574834"><ele>213.0</ele><time>2026-04-23T07:55:39.009Z</time></trkpt><trkpt lat="47.33188194787889" lon="5.174907494112084"><ele>212.60000000000002</ele><time>2026-04-23T07:55:41.009Z</time></trkpt><trkpt lat="47.33181590863484" lon="5.1748992624374335"><ele>212.20000000000002</ele><time>2026-04-23T07:55:42.009Z</time></trkpt><trkpt lat="47.33169461268659" lon="5.1748731977141125"><ele>211.8</ele><time>2026-04-23T07:55:44.009Z</time></trkpt><trkpt lat="47.331569992758084" lon="5.174859683969864"><ele>211.4</ele><time>2026-04-23T07:55:46.009Z</time></trkpt><trkpt lat="47.331448563901176" lon="5.174844843053887"><ele>211.0</ele><time>2026-04-23T07:55:48.009Z</time></trkpt><trkpt lat="47.33132651179757" lon="5.174824681581112"><ele>211.0</ele><time>2026-04-23T07:55:50.009Z</time></trkpt><trkpt lat="47.33120522115453" lon="5.1748140110349645"><ele>211.0</ele><time>2026-04-23T07:55:52.009Z</time></trkpt><trkpt lat="47.331142142569874" lon="5.1748021372264805"><ele>211.0</ele><time>2026-04-23T07:55:53.009Z</time></trkpt><trkpt lat="47.33102169015765" lon="5.174791627731286"><ele>211.0</ele><time>2026-04-23T07:55:55.009Z</time></trkpt><trkpt lat="47.330900069539005" lon="5.174769582020204"><ele>211.0</ele><time>2026-04-23T07:55:57.009Z</time></trkpt><trkpt lat="47.330777445277924" lon="5.174755733837947"><ele>211.0</ele><time>2026-04-23T07:55:59.009Z</time></trkpt><trkpt lat="47.33065732958898" lon="5.174732147473825"><ele>211.0</ele><time>2026-04-23T07:56:01.009Z</time></trkpt><trkpt lat="47.33053843311533" lon="5.174716953661535"><ele>211.0</ele><time>2026-04-23T07:56:03.009Z</time></trkpt><trkpt lat="47.33041619020199" lon="5.174698376126921"><ele>211.0</ele><time>2026-04-23T07:56:05.009Z</time></trkpt><trkpt lat="47.330298590905585" lon="5.1746835318928195"><ele>211.20000000000002</ele><time>2026-04-23T07:56:07.009Z</time></trkpt><trkpt lat="47.3301758422748" lon="5.1746692058472625"><ele>211.4</ele><time>2026-04-23T07:56:09.009Z</time></trkpt><trkpt lat="47.33011317530873" lon="5.174658975371785"><ele>211.6</ele><time>2026-04-23T07:56:10.009Z</time></trkpt><trkpt lat="47.32999363753932" lon="5.174645682878963"><ele>211.8</ele><time>2026-04-23T07:56:12.009Z</time></trkpt><trkpt lat="47.32987805469028" lon="5.174621255990019"><ele>212.0</ele><time>2026-04-23T07:56:14.009Z</time></trkpt><trkpt lat="47.32975650076309" lon="5.174593227160156"><ele>211.75</ele><time>2026-04-23T07:56:16.009Z</time></trkpt><trkpt lat="47.329636341792444" lon="5.174587869123833"><ele>211.5</ele><time>2026-04-23T07:56:18.009Z</time></trkpt><trkpt lat="47.32952211470277" lon="5.174646983759751"><ele>211.25</ele><time>2026-04-23T07:56:20.009Z</time></trkpt><trkpt lat="47.32944087420955" lon="5.174785438187983"><ele>211.0</ele><time>2026-04-23T07:56:22.009Z</time></trkpt><trkpt lat="47.32942085227716" lon="5.174962148809922"><ele>211.0</ele><time>2026-04-23T07:56:24.009Z</time></trkpt><trkpt lat="47.32941590816959" lon="5.175129577892034"><ele>211.0</ele><time>2026-04-23T07:56:26.009Z</time></trkpt><trkpt lat="47.3294125728506" lon="5.1752245770618455"><ele>211.0</ele><time>2026-04-23T07:56:27.009Z</time></trkpt><trkpt lat="47.32940376865589" lon="5.175316624898531"><ele>211.0</ele><time>2026-04-23T07:56:28.009Z</time></trkpt><trkpt lat="47.329388813526485" lon="5.1754892774314145"><ele>211.0</ele><time>2026-04-23T07:56:30.009Z</time></trkpt><trkpt lat="47.32937642837387" lon="5.17566769259161"><ele>211.25</ele><time>2026-04-23T07:56:32.009Z</time></trkpt><trkpt lat="47.329365130866975" lon="5.175838976925774"><ele>211.5</ele><time>2026-04-23T07:56:34.009Z</time></trkpt><trkpt lat="47.32935092664583" lon="5.176013117049351"><ele>211.75</ele><time>2026-04-23T07:56:36.009Z</time></trkpt><trkpt lat="47.32933974500437" lon="5.176182761984516"><ele>212.0</ele><time>2026-04-23T07:56:38.009Z</time></trkpt><trkpt lat="47.32933074840268" lon="5.17634981950733"><ele>212.0</ele><time>2026-04-23T07:56:40.009Z</time></trkpt><trkpt lat="47.32932028561248" lon="5.17651988108292"><ele>212.0</ele><time>2026-04-23T07:56:42.009Z</time></trkpt><trkpt lat="47.32930802664969" lon="5.176687409171153"><ele>212.0</ele><time>2026-04-23T07:56:44.009Z</time></trkpt><trkpt lat="47.329296833189" lon="5.1768522651151585"><ele>212.0</ele><time>2026-04-23T07:56:46.009Z</time></trkpt><trkpt lat="47.32928764808842" lon="5.177020378924352"><ele>212.0</ele><time>2026-04-23T07:56:48.009Z</time></trkpt><trkpt lat="47.32927349547043" lon="5.177191323543501"><ele>212.0</ele><time>2026-04-23T07:56:50.009Z</time></trkpt><trkpt lat="47.32925988270251" lon="5.177357334910454"><ele>212.0</ele><time>2026-04-23T07:56:52.009Z</time></trkpt><trkpt lat="47.329243600991866" lon="5.177515311416538"><ele>212.0</ele><time>2026-04-23T07:56:54.009Z</time></trkpt><trkpt lat="47.329181864238926" lon="5.177614266887734"><ele>212.0</ele><time>2026-04-23T07:56:56.009Z</time></trkpt><trkpt lat="47.32907637549296" lon="5.177639969275142"><ele>212.2</ele><time>2026-04-23T07:56:58.009Z</time></trkpt><trkpt lat="47.32898090132597" lon="5.177612583205642"><ele>212.39999999999998</ele><time>2026-04-23T07:57:00.009Z</time></trkpt><trkpt lat="47.32886991657779" lon="5.177588223703323"><ele>212.60000000000002</ele><time>2026-04-23T07:57:02.009Z</time></trkpt><trkpt lat="47.32876719870158" lon="5.1775505184059165"><ele>212.8</ele><time>2026-04-23T07:57:04.009Z</time></trkpt><trkpt lat="47.32865533524456" lon="5.177533919169761"><ele>213.0</ele><time>2026-04-23T07:57:06.009Z</time></trkpt><trkpt lat="47.32855382060381" lon="5.177497493289049"><ele>212.99999999999997</ele><time>2026-04-23T07:57:08.009Z</time></trkpt><trkpt lat="47.32848907631852" lon="5.1774707749086115"><ele>213.0</ele><time>2026-04-23T07:57:09.009Z</time></trkpt><trkpt lat="47.32837198344378" lon="5.177435855419457"><ele>213.0</ele><time>2026-04-23T07:57:11.009Z</time></trkpt><trkpt lat="47.32830744633904" lon="5.177424396930618"><ele>213.0</ele><time>2026-04-23T07:57:12.009Z</time></trkpt><trkpt lat="47.32824554972171" lon="5.177404367506804"><ele>213.0</ele><time>2026-04-23T07:57:13.009Z</time></trkpt><trkpt lat="47.32818394908598" lon="5.177384110666937"><ele>212.99999999999997</ele><time>2026-04-23T07:57:14.009Z</time></trkpt><trkpt lat="47.32812194552787" lon="5.177361564497515"><ele>213.0</ele><time>2026-04-23T07:57:15.009Z</time></trkpt><trkpt lat="47.32800245704462" lon="5.177315800264274"><ele>212.8</ele><time>2026-04-23T07:57:17.009Z</time></trkpt><trkpt lat="47.327886185594046" lon="5.17728022686433"><ele>212.60000000000002</ele><time>2026-04-23T07:57:19.009Z</time></trkpt><trkpt lat="47.32782096535984" lon="5.17726852305088"><ele>212.39999999999998</ele><time>2026-04-23T07:57:20.009Z</time></trkpt><trkpt lat="47.327700017162186" lon="5.177217037389671"><ele>212.2</ele><time>2026-04-23T07:57:22.009Z</time></trkpt><trkpt lat="47.327585263692164" lon="5.177170087940422"><ele>212.0</ele><time>2026-04-23T07:57:24.009Z</time></trkpt><trkpt lat="47.327470107855035" lon="5.177111658608137"><ele>212.0</ele><time>2026-04-23T07:57:26.01Z</time></trkpt><trkpt lat="47.327368802275814" lon="5.17706315887782"><ele>212.0</ele><time>2026-04-23T07:57:28.01Z</time></trkpt><trkpt lat="47.327255952373086" lon="5.177005581814042"><ele>212.0</ele><time>2026-04-23T07:57:30.01Z</time></trkpt><trkpt lat="47.3271490156199" lon="5.1769544018266505"><ele>212.0</ele><time>2026-04-23T07:57:32.01Z</time></trkpt><trkpt lat="47.327045493315445" lon="5.1769035973151105"><ele>212.0</ele><time>2026-04-23T07:57:34.01Z</time></trkpt><trkpt lat="47.326937814740724" lon="5.1768703447298545"><ele>212.6</ele><time>2026-04-23T07:57:36.01Z</time></trkpt><trkpt lat="47.32687220675739" lon="5.176842384510169"><ele>213.2</ele><time>2026-04-23T07:57:37.01Z</time></trkpt><trkpt lat="47.32675369926416" lon="5.1767967901361285"><ele>213.8</ele><time>2026-04-23T07:57:39.01Z</time></trkpt><trkpt lat="47.32662693781445" lon="5.176751025944819"><ele>214.4</ele><time>2026-04-23T07:57:41.01Z</time></trkpt><trkpt lat="47.326559361454294" lon="5.176727595030744"><ele>215.0</ele><time>2026-04-23T07:57:42.01Z</time></trkpt><trkpt lat="47.326495929736666" lon="5.176706673541094"><ele>215.0</ele><time>2026-04-23T07:57:43.01Z</time></trkpt><trkpt lat="47.32643416768154" lon="5.176683527456933"><ele>215.0</ele><time>2026-04-23T07:57:44.01Z</time></trkpt><trkpt lat="47.32631963059079" lon="5.176644901165519"><ele>215.0</ele><time>2026-04-23T07:57:46.01Z</time></trkpt><trkpt lat="47.32625592170741" lon="5.176625578215797"><ele>215.0</ele><time>2026-04-23T07:57:47.01Z</time></trkpt><trkpt lat="47.32613593868452" lon="5.176587810607722"><ele>215.0</ele><time>2026-04-23T07:57:49.01Z</time></trkpt><trkpt lat="47.326017406959444" lon="5.176573371147505"><ele>215.0</ele><time>2026-04-23T07:57:51.01Z</time></trkpt><trkpt lat="47.32595409720403" lon="5.176570887164128"><ele>215.0</ele><time>2026-04-23T07:57:52.01Z</time></trkpt><trkpt lat="47.32583929682382" lon="5.176548915305563"><ele>215.0</ele><time>2026-04-23T07:57:54.01Z</time></trkpt><trkpt lat="47.3257204691365" lon="5.17654233650381"><ele>215.0</ele><time>2026-04-23T07:57:56.01Z</time></trkpt><trkpt lat="47.32565707719499" lon="5.17654842984482"><ele>215.0</ele><time>2026-04-23T07:57:57.01Z</time></trkpt><trkpt lat="47.32554277466294" lon="5.176575590598851"><ele>214.6</ele><time>2026-04-23T07:57:59.01Z</time></trkpt><trkpt lat="47.32547711487895" lon="5.176585423259978"><ele>214.2</ele><time>2026-04-23T07:58:00.01Z</time></trkpt><trkpt lat="47.325362936520825" lon="5.176628313579191"><ele>213.8</ele><time>2026-04-23T07:58:02.019Z</time></trkpt><trkpt lat="47.32525316487902" lon="5.17667839661761"><ele>213.4</ele><time>2026-04-23T07:58:04.019Z</time></trkpt><trkpt lat="47.32513470039163" lon="5.176717059651067"><ele>213.0</ele><time>2026-04-23T07:58:06.019Z</time></trkpt><trkpt lat="47.32507413664293" lon="5.176742539418519"><ele>213.0</ele><time>2026-04-23T07:58:07.019Z</time></trkpt><trkpt lat="47.32496211178609" lon="5.1767934887463545"><ele>213.0</ele><time>2026-04-23T07:58:09.019Z</time></trkpt><trkpt lat="47.32483816838089" lon="5.176817613729085"><ele>213.0</ele><time>2026-04-23T07:58:11.019Z</time></trkpt><trkpt lat="47.324774589295465" lon="5.176811194653718"><ele>213.0</ele><time>2026-04-23T07:58:12.019Z</time></trkpt><trkpt lat="47.32465507759344" lon="5.176792432397631"><ele>213.0</ele><time>2026-04-23T07:58:14.019Z</time></trkpt><trkpt lat="47.32459270896148" lon="5.176773761096232"><ele>213.0</ele><time>2026-04-23T07:58:15.019Z</time></trkpt><trkpt lat="47.32447297899371" lon="5.176740463364364"><ele>213.0</ele><time>2026-04-23T07:58:17.019Z</time></trkpt><trkpt lat="47.32435110978381" lon="5.176715900525663"><ele>213.0</ele><time>2026-04-23T07:58:19.019Z</time></trkpt><trkpt lat="47.32423104336098" lon="5.176676391424158"><ele>213.0</ele><time>2026-04-23T07:58:21.019Z</time></trkpt><trkpt lat="47.32410738453112" lon="5.176648759413057"><ele>213.0</ele><time>2026-04-23T07:58:23.019Z</time></trkpt><trkpt lat="47.32398788916598" lon="5.1766175267527075"><ele>213.0</ele><time>2026-04-23T07:58:25.019Z</time></trkpt><trkpt lat="47.32386555349946" lon="5.1765943421911755"><ele>213.0</ele><time>2026-04-23T07:58:27.019Z</time></trkpt><trkpt lat="47.32374489412524" lon="5.176564492833161"><ele>213.0</ele><time>2026-04-23T07:58:29.019Z</time></trkpt><trkpt lat="47.323630564684436" lon="5.176529696302341"><ele>212.60000000000002</ele><time>2026-04-23T07:58:31.019Z</time></trkpt><trkpt lat="47.32351697692791" lon="5.176510683873455"><ele>212.20000000000002</ele><time>2026-04-23T07:58:33.019Z</time></trkpt><trkpt lat="47.32340210950934" lon="5.1764748020346385"><ele>211.8</ele><time>2026-04-23T07:58:35.019Z</time></trkpt><trkpt lat="47.323283368593316" lon="5.176452853398068"><ele>211.4</ele><time>2026-04-23T07:58:37.019Z</time></trkpt><trkpt lat="47.32322094306689" lon="5.1764335320105594"><ele>211.0</ele><time>2026-04-23T07:58:38.019Z</time></trkpt><trkpt lat="47.323111608327196" lon="5.176407361574751"><ele>210.8</ele><time>2026-04-23T07:58:40.019Z</time></trkpt><trkpt lat="47.322998845066635" lon="5.176383471030572"><ele>210.60000000000002</ele><time>2026-04-23T07:58:42.019Z</time></trkpt><trkpt lat="47.322888106764246" lon="5.176356419437267"><ele>210.4</ele><time>2026-04-23T07:58:44.019Z</time></trkpt><trkpt lat="47.32278487981377" lon="5.176331463302861"><ele>210.2</ele><time>2026-04-23T07:58:46.019Z</time></trkpt><trkpt lat="47.3226820783484" lon="5.176304970057899"><ele>210.0</ele><time>2026-04-23T07:58:48.019Z</time></trkpt><trkpt lat="47.32259181191851" lon="5.1763590983332035"><ele>210.0</ele><time>2026-04-23T07:58:50.02Z</time></trkpt><trkpt lat="47.322556897361274" lon="5.176472730728832"><ele>210.0</ele><time>2026-04-23T07:58:52.02Z</time></trkpt><trkpt lat="47.32253171309944" lon="5.176626027883949"><ele>210.0</ele><time>2026-04-23T07:58:54.02Z</time></trkpt><trkpt lat="47.32249490739785" lon="5.1767650968397305"><ele>210.0</ele><time>2026-04-23T07:58:56.02Z</time></trkpt><trkpt lat="47.3224562555582" lon="5.176894866278052"><ele>210.0</ele><time>2026-04-23T07:58:58.02Z</time></trkpt><trkpt lat="47.32241456349325" lon="5.177000529951422"><ele>210.5</ele><time>2026-04-23T07:59:00.02Z</time></trkpt><trkpt lat="47.32235564537853" lon="5.177117036680021"><ele>211.0</ele><time>2026-04-23T07:59:02.02Z</time></trkpt><trkpt lat="47.32232127134459" lon="5.1772334068167405"><ele>211.5</ele><time>2026-04-23T07:59:04.02Z</time></trkpt><trkpt lat="47.322315968781524" lon="5.177344354566961"><ele>212.0</ele><time>2026-04-23T07:59:06.02Z</time></trkpt><trkpt lat="47.32222241915904" lon="5.177367716944614"><ele>212.5</ele><time>2026-04-23T07:59:12.02Z</time></trkpt><trkpt lat="47.32215579904937" lon="5.1774307630516905"><ele>213.0</ele><time>2026-04-23T07:59:15.02Z</time></trkpt><trkpt lat="47.3220685549716" lon="5.177376342468034"><ele>213.33333333333334</ele><time>2026-04-23T07:59:19.02Z</time></trkpt><trkpt lat="47.321990669575484" lon="5.177359640865305"><ele>213.66666666666669</ele><time>2026-04-23T07:59:21.02Z</time></trkpt><trkpt lat="47.32191114148912" lon="5.177391780320286"><ele>214.0</ele><time>2026-04-23T07:59:24.02Z</time></trkpt><trkpt lat="47.32182705483518" lon="5.1774023813899825"><ele>214.33333333333334</ele><time>2026-04-23T07:59:26.02Z</time></trkpt><trkpt lat="47.32173968204933" lon="5.1774041026965465"><ele>214.66666666666669</ele><time>2026-04-23T07:59:28.02Z</time></trkpt><trkpt lat="47.321673236854174" lon="5.177409806470016"><ele>215.0</ele><time>2026-04-23T07:59:30.021Z</time></trkpt><trkpt lat="47.32159896524006" lon="5.177365854254454"><ele>215.00000000000003</ele><time>2026-04-23T07:59:33.021Z</time></trkpt><trkpt lat="47.321522684092294" lon="5.177396947489086"><ele>215.0</ele><time>2026-04-23T07:59:35.021Z</time></trkpt><trkpt lat="47.321433157146274" lon="5.177414754690717"><ele>215.0</ele><time>2026-04-23T07:59:37.021Z</time></trkpt><trkpt lat="47.32136135684628" lon="5.177414904970434"><ele>215.0</ele><time>2026-04-23T07:59:39.021Z</time></trkpt><trkpt lat="47.321267662686864" lon="5.177403701624215"><ele>215.00000000000003</ele><time>2026-04-23T07:59:41.021Z</time></trkpt><trkpt lat="47.32118708855875" lon="5.1773928611620015"><ele>215.0</ele><time>2026-04-23T07:59:43.021Z</time></trkpt><trkpt lat="47.32111472732557" lon="5.177392910960491"><ele>215.00000000000003</ele><time>2026-04-23T07:59:45.021Z</time></trkpt><trkpt lat="47.321050162645626" lon="5.1773679636690435"><ele>215.0</ele><time>2026-04-23T07:59:47.021Z</time></trkpt><trkpt lat="47.32096387058768" lon="5.177334289769154"><ele>215.0</ele><time>2026-04-23T07:59:49.021Z</time></trkpt><trkpt lat="47.32088230352652" lon="5.177325812085144"><ele>215.0</ele><time>2026-04-23T07:59:51.021Z</time></trkpt><trkpt lat="47.32078440894515" lon="5.177322020504559"><ele>215.00000000000003</ele><time>2026-04-23T07:59:53.021Z</time></trkpt><trkpt lat="47.320689043239945" lon="5.177316241724569"><ele>215.0</ele><time>2026-04-23T07:59:55.021Z</time></trkpt><trkpt lat="47.3205718401102" lon="5.177339651739195"><ele>215.33333333333334</ele><time>2026-04-23T07:59:58.021Z</time></trkpt><trkpt lat="47.32048637416788" lon="5.17728336903"><ele>215.66666666666669</ele><time>2026-04-23T08:00:00.021Z</time></trkpt><trkpt lat="47.32039175485244" lon="5.177309420233829"><ele>216.0</ele><time>2026-04-23T08:00:02.021Z</time></trkpt><trkpt lat="47.320327045381376" lon="5.1773164417130015"><ele>216.33333333333331</ele><time>2026-04-23T08:00:03.021Z</time></trkpt><trkpt lat="47.32024652639114" lon="5.177307690237318"><ele>216.66666666666666</ele><time>2026-04-23T08:00:05.021Z</time></trkpt><trkpt lat="47.32015272039176" lon="5.1772874414128776"><ele>217.0</ele><time>2026-04-23T08:00:07.021Z</time></trkpt><trkpt lat="47.32007637486864" lon="5.177275951621992"><ele>216.99999999999997</ele><time>2026-04-23T08:00:09.021Z</time></trkpt><trkpt lat="47.32001191062885" lon="5.177262887323126"><ele>217.0</ele><time>2026-04-23T08:00:10.021Z</time></trkpt><trkpt lat="47.31993694377829" lon="5.177277108125525"><ele>217.0</ele><time>2026-04-23T08:00:12.021Z</time></trkpt><trkpt lat="47.31983421238957" lon="5.177244420569563"><ele>217.0</ele><time>2026-04-23T08:00:14.021Z</time></trkpt><trkpt lat="47.31974913414007" lon="5.177214512115395"><ele>216.99999999999997</ele><time>2026-04-23T08:00:16.021Z</time></trkpt><trkpt lat="47.319637492695804" lon="5.177189068159036"><ele>217.0</ele><time>2026-04-23T08:00:18.021Z</time></trkpt><trkpt lat="47.319546845825606" lon="5.1771477079482695"><ele>216.75</ele><time>2026-04-23T08:00:20.021Z</time></trkpt><trkpt lat="47.319424570509476" lon="5.177106545535643"><ele>216.5</ele><time>2026-04-23T08:00:22.021Z</time></trkpt><trkpt lat="47.31930003591871" lon="5.177110297011092"><ele>216.25</ele><time>2026-04-23T08:00:24.021Z</time></trkpt><trkpt lat="47.31916855404689" lon="5.17711673924173"><ele>216.0</ele><time>2026-04-23T08:00:26.021Z</time></trkpt><trkpt lat="47.31905011286051" lon="5.177109494394568"><ele>216.0</ele><time>2026-04-23T08:00:28.021Z</time></trkpt><trkpt lat="47.31898505056446" lon="5.177102636183719"><ele>216.00000000000003</ele><time>2026-04-23T08:00:29.021Z</time></trkpt><trkpt lat="47.31886821336793" lon="5.177103993822586"><ele>216.00000000000003</ele><time>2026-04-23T08:00:31.021Z</time></trkpt><trkpt lat="47.318798497602344" lon="5.1771106895980425"><ele>216.0</ele><time>2026-04-23T08:00:32.021Z</time></trkpt><trkpt lat="47.3186813525501" lon="5.177100869168948"><ele>216.0</ele><time>2026-04-23T08:00:34.021Z</time></trkpt><trkpt lat="47.31856044865237" lon="5.177081415850734"><ele>215.0</ele><time>2026-04-23T08:00:36.021Z</time></trkpt><trkpt lat="47.31845115940486" lon="5.177069993857767"><ele>214.0</ele><time>2026-04-23T08:00:38.021Z</time></trkpt><trkpt lat="47.31833121021261" lon="5.177059091716456"><ele>213.0</ele><time>2026-04-23T08:00:40.021Z</time></trkpt><trkpt lat="47.31821284862234" lon="5.177037441388658"><ele>212.0</ele><time>2026-04-23T08:00:42.021Z</time></trkpt><trkpt lat="47.31810250477642" lon="5.177027921782312"><ele>212.25</ele><time>2026-04-23T08:00:44.021Z</time></trkpt><trkpt lat="47.31799139398374" lon="5.176987856546801"><ele>212.5</ele><time>2026-04-23T08:00:46.021Z</time></trkpt><trkpt lat="47.317881069310296" lon="5.1769468899383195"><ele>212.75</ele><time>2026-04-23T08:00:48.021Z</time></trkpt><trkpt lat="47.317769546887085" lon="5.176915740615998"><ele>213.0</ele><time>2026-04-23T08:00:50.021Z</time></trkpt><trkpt lat="47.317656562178215" lon="5.17686840255184"><ele>213.0</ele><time>2026-04-23T08:00:52.021Z</time></trkpt><trkpt lat="47.31755281275956" lon="5.176813678108643"><ele>213.0</ele><time>2026-04-23T08:00:54.021Z</time></trkpt><trkpt lat="47.317444638882556" lon="5.176767967892893"><ele>213.0</ele><time>2026-04-23T08:00:56.022Z</time></trkpt><trkpt lat="47.31733928571152" lon="5.176714071245781"><ele>213.0</ele><time>2026-04-23T08:00:58.022Z</time></trkpt><trkpt lat="47.317229425571206" lon="5.176674428951191"><ele>213.0</ele><time>2026-04-23T08:01:00.022Z</time></trkpt><trkpt lat="47.31712117626401" lon="5.176628723382984"><ele>213.25</ele><time>2026-04-23T08:01:02.022Z</time></trkpt><trkpt lat="47.31701272765642" lon="5.176579103827437"><ele>213.5</ele><time>2026-04-23T08:01:04.022Z</time></trkpt><trkpt lat="47.31690502258622" lon="5.176534476185712"><ele>213.75</ele><time>2026-04-23T08:01:06.022Z</time></trkpt><trkpt lat="47.31678898119261" lon="5.176474295492532"><ele>214.0</ele><time>2026-04-23T08:01:08.022Z</time></trkpt><trkpt lat="47.31668032623921" lon="5.176428659946846"><ele>213.25</ele><time>2026-04-23T08:01:10.022Z</time></trkpt><trkpt lat="47.31656038700954" lon="5.176370827825151"><ele>212.5</ele><time>2026-04-23T08:01:12.022Z</time></trkpt><trkpt lat="47.31645821203099" lon="5.176316128840088"><ele>211.75</ele><time>2026-04-23T08:01:14.022Z</time></trkpt><trkpt lat="47.316348625205684" lon="5.176255968113453"><ele>211.0</ele><time>2026-04-23T08:01:16.022Z</time></trkpt><trkpt lat="47.316237068981586" lon="5.17620478982632"><ele>211.0</ele><time>2026-04-23T08:01:18.022Z</time></trkpt><trkpt lat="47.31613204490109" lon="5.176150062253236"><ele>211.0</ele><time>2026-04-23T08:01:20.022Z</time></trkpt><trkpt lat="47.31602303790658" lon="5.1760976209318645"><ele>211.0</ele><time>2026-04-23T08:01:22.022Z</time></trkpt><trkpt lat="47.315916973152994" lon="5.17604594716109"><ele>211.0</ele><time>2026-04-23T08:01:24.022Z</time></trkpt><trkpt lat="47.31580934398429" lon="5.1759902790497545"><ele>211.0</ele><time>2026-04-23T08:01:26.022Z</time></trkpt><trkpt lat="47.31570224329953" lon="5.17593406241233"><ele>211.0</ele><time>2026-04-23T08:01:28.022Z</time></trkpt><trkpt lat="47.315594901512775" lon="5.175882415355266"><ele>211.0</ele><time>2026-04-23T08:01:30.022Z</time></trkpt><trkpt lat="47.31548265786278" lon="5.17583657230307"><ele>211.0</ele><time>2026-04-23T08:01:32.022Z</time></trkpt><trkpt lat="47.31537284195857" lon="5.175777296970562"><ele>210.75</ele><time>2026-04-23T08:01:34.022Z</time></trkpt><trkpt lat="47.3152608153822" lon="5.1757150521936195"><ele>210.5</ele><time>2026-04-23T08:01:36.022Z</time></trkpt><trkpt lat="47.315151743447004" lon="5.175659243655858"><ele>210.25</ele><time>2026-04-23T08:01:38.022Z</time></trkpt><trkpt lat="47.315047412508044" lon="5.175598770397945"><ele>210.0</ele><time>2026-04-23T08:01:40.022Z</time></trkpt><trkpt lat="47.314939136865625" lon="5.175548912972773"><ele>210.0</ele><time>2026-04-23T08:01:42.022Z</time></trkpt><trkpt lat="47.314833241864335" lon="5.175491314660623"><ele>210.0</ele><time>2026-04-23T08:01:44.022Z</time></trkpt><trkpt lat="47.31472484746411" lon="5.175429781625681"><ele>210.0</ele><time>2026-04-23T08:01:46.022Z</time></trkpt><trkpt lat="47.31461948684351" lon="5.175377344473456"><ele>210.0</ele><time>2026-04-23T08:01:48.022Z</time></trkpt><trkpt lat="47.31451549755255" lon="5.175322655551828"><ele>210.4</ele><time>2026-04-23T08:01:50.022Z</time></trkpt><trkpt lat="47.314414854495624" lon="5.1752730961834486"><ele>210.8</ele><time>2026-04-23T08:01:52.022Z</time></trkpt><trkpt lat="47.31431198610156" lon="5.175220328022628"><ele>211.2</ele><time>2026-04-23T08:01:54.022Z</time></trkpt><trkpt lat="47.31420781545157" lon="5.175164409025482"><ele>211.6</ele><time>2026-04-23T08:01:56.022Z</time></trkpt><trkpt lat="47.31410264404412" lon="5.175121395794361"><ele>212.0</ele><time>2026-04-23T08:01:58.022Z</time></trkpt><trkpt lat="47.31398682103042" lon="5.175065540191573"><ele>211.6</ele><time>2026-04-23T08:02:00.022Z</time></trkpt><trkpt lat="47.31388186126871" lon="5.175013963076041"><ele>211.2</ele><time>2026-04-23T08:02:02.022Z</time></trkpt><trkpt lat="47.31377963102182" lon="5.1749632226003826"><ele>210.8</ele><time>2026-04-23T08:02:04.022Z</time></trkpt><trkpt lat="47.31367349801783" lon="5.174900460733877"><ele>210.4</ele><time>2026-04-23T08:02:06.022Z</time></trkpt><trkpt lat="47.31356421196841" lon="5.1748485395933255"><ele>210.0</ele><time>2026-04-23T08:02:08.022Z</time></trkpt><trkpt lat="47.313459851929174" lon="5.174799027384321"><ele>210.0</ele><time>2026-04-23T08:02:10.022Z</time></trkpt><trkpt lat="47.313353652230866" lon="5.174746341942264"><ele>210.0</ele><time>2026-04-23T08:02:12.022Z</time></trkpt><trkpt lat="47.31324736343021" lon="5.174694909246471"><ele>210.0</ele><time>2026-04-23T08:02:14.022Z</time></trkpt><trkpt lat="47.31313719486106" lon="5.174642939666658"><ele>210.0</ele><time>2026-04-23T08:02:16.022Z</time></trkpt><trkpt lat="47.31303588884676" lon="5.174597919426615"><ele>210.0</ele><time>2026-04-23T08:02:18.022Z</time></trkpt><trkpt lat="47.312929039407265" lon="5.174553742794468"><ele>209.8</ele><time>2026-04-23T08:02:20.022Z</time></trkpt><trkpt lat="47.31282295446884" lon="5.174508905630133"><ele>209.6</ele><time>2026-04-23T08:02:22.022Z</time></trkpt><trkpt lat="47.312716925487926" lon="5.1744574808732375"><ele>209.39999999999998</ele><time>2026-04-23T08:02:24.022Z</time></trkpt><trkpt lat="47.312614241663574" lon="5.174405748478904"><ele>209.2</ele><time>2026-04-23T08:02:26.022Z</time></trkpt><trkpt lat="47.31250542020566" lon="5.174454805817767"><ele>209.0</ele><time>2026-04-23T08:02:28.022Z</time></trkpt><trkpt lat="47.31241306957385" lon="5.174542493059471"><ele>209.0</ele><time>2026-04-23T08:02:30.022Z</time></trkpt><trkpt lat="47.31231270391752" lon="5.1744808823394095"><ele>209.0</ele><time>2026-04-23T08:02:32.022Z</time></trkpt><trkpt lat="47.312221108031004" lon="5.174404500126784"><ele>209.0</ele><time>2026-04-23T08:02:34.023Z</time></trkpt><trkpt lat="47.312113604567976" lon="5.174345496144048"><ele>209.0</ele><time>2026-04-23T08:02:36.023Z</time></trkpt><trkpt lat="47.31200267163759" lon="5.174281654142446"><ele>209.0</ele><time>2026-04-23T08:02:38.023Z</time></trkpt><trkpt lat="47.31188965673228" lon="5.174227122242385"><ele>209.0</ele><time>2026-04-23T08:02:40.023Z</time></trkpt><trkpt lat="47.3117803124904" lon="5.1741735725769065"><ele>209.0</ele><time>2026-04-23T08:02:42.023Z</time></trkpt><trkpt lat="47.31166886762869" lon="5.174118146965358"><ele>209.0</ele><time>2026-04-23T08:02:44.023Z</time></trkpt><trkpt lat="47.311554743574426" lon="5.174064484370409"><ele>209.0</ele><time>2026-04-23T08:02:46.023Z</time></trkpt><trkpt lat="47.31144202622308" lon="5.174012385088056"><ele>209.0</ele><time>2026-04-23T08:02:48.023Z</time></trkpt><trkpt lat="47.31133112630816" lon="5.173956912276704"><ele>209.0</ele><time>2026-04-23T08:02:50.023Z</time></trkpt><trkpt lat="47.31121575531437" lon="5.173908246253334"><ele>209.0</ele><time>2026-04-23T08:02:52.023Z</time></trkpt><trkpt lat="47.31110481583151" lon="5.173859507558011"><ele>209.0</ele><time>2026-04-23T08:02:54.023Z</time></trkpt><trkpt lat="47.311043310192446" lon="5.173828136870444"><ele>209.0</ele><time>2026-04-23T08:02:55.023Z</time></trkpt><trkpt lat="47.31093003694946" lon="5.173789081099683"><ele>209.0</ele><time>2026-04-23T08:02:57.023Z</time></trkpt><trkpt lat="47.31082439988763" lon="5.173773117298375"><ele>209.0</ele><time>2026-04-23T08:02:59.023Z</time></trkpt><trkpt lat="47.31071196895898" lon="5.173792166148581"><ele>209.0</ele><time>2026-04-23T08:03:01.024Z</time></trkpt><trkpt lat="47.310600833881104" lon="5.173847368668393"><ele>209.0</ele><time>2026-04-23T08:03:03.024Z</time></trkpt><trkpt lat="47.31048392113287" lon="5.173879152749086"><ele>209.2</ele><time>2026-04-23T08:03:05.024Z</time></trkpt><trkpt lat="47.31036521584703" lon="5.17388192973343"><ele>209.39999999999998</ele><time>2026-04-23T08:03:07.024Z</time></trkpt><trkpt lat="47.310302078755356" lon="5.173885367782688"><ele>209.6</ele><time>2026-04-23T08:03:08.024Z</time></trkpt><trkpt lat="47.31019491284329" lon="5.1738746368519966"><ele>209.8</ele><time>2026-04-23T08:03:10.024Z</time></trkpt><trkpt lat="47.31009176315474" lon="5.173880568890736"><ele>210.0</ele><time>2026-04-23T08:03:12.024Z</time></trkpt><trkpt lat="47.30997353363222" lon="5.173937181369626"><ele>210.0</ele><time>2026-04-23T08:03:14.024Z</time></trkpt><trkpt lat="47.309914806302736" lon="5.17398096309086"><ele>210.0</ele><time>2026-04-23T08:03:15.024Z</time></trkpt><trkpt lat="47.30985634327886" lon="5.1740432021791065"><ele>210.0</ele><time>2026-04-23T08:03:16.024Z</time></trkpt><trkpt lat="47.309796641153724" lon="5.17409709570292"><ele>210.0</ele><time>2026-04-23T08:03:17.024Z</time></trkpt><trkpt lat="47.3097424161183" lon="5.174156019385182"><ele>210.0</ele><time>2026-04-23T08:03:18.024Z</time></trkpt><trkpt lat="47.309688901253125" lon="5.174219231205589"><ele>210.0</ele><time>2026-04-23T08:03:19.024Z</time></trkpt><trkpt lat="47.30964376424183" lon="5.174285553844483"><ele>210.0</ele><time>2026-04-23T08:03:20.024Z</time></trkpt><trkpt lat="47.30959305806227" lon="5.174348774589694"><ele>209.71428571428572</ele><time>2026-04-23T08:03:21.024Z</time></trkpt><trkpt lat="47.3095490771755" lon="5.17441984466604"><ele>209.42857142857144</ele><time>2026-04-23T08:03:22.024Z</time></trkpt><trkpt lat="47.30950703103765" lon="5.174489438430434"><ele>209.14285714285714</ele><time>2026-04-23T08:03:23.024Z</time></trkpt><trkpt lat="47.30943077444523" lon="5.174593394397692"><ele>208.85714285714286</ele><time>2026-04-23T08:03:25.024Z</time></trkpt><trkpt lat="47.30949172768274" lon="5.174561068138058"><ele>208.57142857142858</ele><time>2026-04-23T08:03:29.024Z</time></trkpt><trkpt lat="47.309497242785504" lon="5.174453481181203"><ele>208.28571428571428</ele><time>2026-04-23T08:03:32.024Z</time></trkpt><trkpt lat="47.309447675399994" lon="5.174542050816223"><ele>208.0</ele><time>2026-04-23T08:03:44.024Z</time></trkpt><trkpt lat="47.30941897270071" lon="5.1746551102353"><ele>208.0</ele><time>2026-04-23T08:03:46.024Z</time></trkpt><trkpt lat="47.30935303087857" lon="5.174775681718282"><ele>208.0</ele><time>2026-04-23T08:03:48.024Z</time></trkpt><trkpt lat="47.30929048545095" lon="5.174908696849406"><ele>208.0</ele><time>2026-04-23T08:03:50.024Z</time></trkpt><trkpt lat="47.30925610088186" lon="5.174989810767595"><ele>208.0</ele><time>2026-04-23T08:03:51.024Z</time></trkpt><trkpt lat="47.30919719266158" lon="5.1750447095120204"><ele>208.0</ele><time>2026-04-23T08:03:52.024Z</time></trkpt><trkpt lat="47.3091293515813" lon="5.175205838915647"><ele>208.0</ele><time>2026-04-23T08:03:54.024Z</time></trkpt><trkpt lat="47.30907967974341" lon="5.1753482683946395"><ele>208.0</ele><time>2026-04-23T08:03:56.024Z</time></trkpt><trkpt lat="47.30902239154866" lon="5.175390747072572"><ele>208.0</ele><time>2026-04-23T08:03:57.024Z</time></trkpt><trkpt lat="47.30894354263947" lon="5.175515009425789"><ele>208.0</ele><time>2026-04-23T08:03:59.024Z</time></trkpt><trkpt lat="47.30888855811875" lon="5.175673420858624"><ele>208.0</ele><time>2026-04-23T08:04:01.024Z</time></trkpt><trkpt lat="47.308823017732536" lon="5.175823789681377"><ele>208.0</ele><time>2026-04-23T08:04:03.024Z</time></trkpt><trkpt lat="47.30876756294677" lon="5.1759705775153355"><ele>208.0</ele><time>2026-04-23T08:04:05.024Z</time></trkpt><trkpt lat="47.30871182160849" lon="5.176125586079891"><ele>208.0</ele><time>2026-04-23T08:04:07.024Z</time></trkpt><trkpt lat="47.30866699908405" lon="5.176206289835299"><ele>208.0</ele><time>2026-04-23T08:04:08.024Z</time></trkpt><trkpt lat="47.30860814956492" lon="5.1763658301875175"><ele>208.0</ele><time>2026-04-23T08:04:10.024Z</time></trkpt><trkpt lat="47.30857603154404" lon="5.176445874534379"><ele>208.60000000000002</ele><time>2026-04-23T08:04:11.024Z</time></trkpt><trkpt lat="47.30854077136814" lon="5.176525321022406"><ele>209.20000000000002</ele><time>2026-04-23T08:04:12.024Z</time></trkpt><trkpt lat="47.30847916621749" lon="5.17668713125468"><ele>209.8</ele><time>2026-04-23T08:04:14.024Z</time></trkpt><trkpt lat="47.308443088136805" lon="5.176766184750493"><ele>210.4</ele><time>2026-04-23T08:04:15.024Z</time></trkpt><trkpt lat="47.30838320873786" lon="5.1769174785170655"><ele>211.0</ele><time>2026-04-23T08:04:17.024Z</time></trkpt><trkpt lat="47.30830130783492" lon="5.177052576196548"><ele>210.99999999999997</ele><time>2026-04-23T08:04:19.024Z</time></trkpt><trkpt lat="47.308205211275386" lon="5.1771510494280975"><ele>211.0</ele><time>2026-04-23T08:04:21.024Z</time></trkpt><trkpt lat="47.3081438818817" lon="5.177189065730027"><ele>211.0</ele><time>2026-04-23T08:04:22.024Z</time></trkpt><trkpt lat="47.30808415897106" lon="5.177234202165447"><ele>211.0</ele><time>2026-04-23T08:04:23.024Z</time></trkpt><trkpt lat="47.30802576375182" lon="5.177270969112228"><ele>210.99999999999997</ele><time>2026-04-23T08:04:24.024Z</time></trkpt><trkpt lat="47.30791054866009" lon="5.177338760187831"><ele>211.0</ele><time>2026-04-23T08:04:26.024Z</time></trkpt><trkpt lat="47.307850482466606" lon="5.1773673337984585"><ele>210.60000000000002</ele><time>2026-04-23T08:04:27.024Z</time></trkpt><trkpt lat="47.30773465079893" lon="5.177402699705352"><ele>210.2</ele><time>2026-04-23T08:04:29.024Z</time></trkpt><trkpt lat="47.30767217753782" lon="5.177416864142516"><ele>209.8</ele><time>2026-04-23T08:04:30.024Z</time></trkpt><trkpt lat="47.307553949447424" lon="5.177429258949688"><ele>209.39999999999998</ele><time>2026-04-23T08:04:32.024Z</time></trkpt><trkpt lat="47.30743595056738" lon="5.177457342760752"><ele>209.0</ele><time>2026-04-23T08:04:34.025Z</time></trkpt><trkpt lat="47.30732234419249" lon="5.177464831158303"><ele>208.79999999999998</ele><time>2026-04-23T08:04:36.025Z</time></trkpt><trkpt lat="47.3072009882368" lon="5.177478801952355"><ele>208.6</ele><time>2026-04-23T08:04:38.025Z</time></trkpt><trkpt lat="47.307134297780244" lon="5.177487575074381"><ele>208.4</ele><time>2026-04-23T08:04:39.025Z</time></trkpt><trkpt lat="47.307011624182195" lon="5.177482157468248"><ele>208.2</ele><time>2026-04-23T08:04:41.025Z</time></trkpt><trkpt lat="47.30688730268736" lon="5.177479945542515"><ele>208.0</ele><time>2026-04-23T08:04:43.025Z</time></trkpt><trkpt lat="47.30677206216284" lon="5.177496941243205"><ele>208.0</ele><time>2026-04-23T08:04:45.025Z</time></trkpt><trkpt lat="47.306649297988585" lon="5.17749375216837"><ele>208.0</ele><time>2026-04-23T08:04:47.025Z</time></trkpt><trkpt lat="47.306530705230614" lon="5.177496618794186"><ele>208.0</ele><time>2026-04-23T08:04:49.025Z</time></trkpt><trkpt lat="47.30642092610121" lon="5.177483447604002"><ele>208.0</ele><time>2026-04-23T08:04:51.025Z</time></trkpt><trkpt lat="47.30629259140583" lon="5.177474192104498"><ele>208.0</ele><time>2026-04-23T08:04:53.025Z</time></trkpt><trkpt lat="47.30617662480084" lon="5.177480224894617"><ele>208.0</ele><time>2026-04-23T08:04:55.025Z</time></trkpt><trkpt lat="47.30605352286771" lon="5.177470386228096"><ele>208.0</ele><time>2026-04-23T08:04:57.025Z</time></trkpt><trkpt lat="47.305936509421116" lon="5.177459642486322"><ele>208.0</ele><time>2026-04-23T08:04:59.025Z</time></trkpt><trkpt lat="47.30587032464692" lon="5.1774490331817145"><ele>208.0</ele><time>2026-04-23T08:05:00.025Z</time></trkpt><trkpt lat="47.305749701472045" lon="5.177446025028775"><ele>208.0</ele><time>2026-04-23T08:05:02.025Z</time></trkpt><trkpt lat="47.30562596178985" lon="5.177453860087172"><ele>208.0</ele><time>2026-04-23T08:05:04.025Z</time></trkpt><trkpt lat="47.30550427610795" lon="5.177455864227962"><ele>208.0</ele><time>2026-04-23T08:05:06.025Z</time></trkpt><trkpt lat="47.305383934773594" lon="5.177485841599849"><ele>208.0</ele><time>2026-04-23T08:05:08.025Z</time></trkpt><trkpt lat="47.30526634022768" lon="5.177498664754536"><ele>208.0</ele><time>2026-04-23T08:05:10.026Z</time></trkpt><trkpt lat="47.30515372606741" lon="5.177525452356402"><ele>208.0</ele><time>2026-04-23T08:05:12.025Z</time></trkpt><trkpt lat="47.30503146074057" lon="5.177548348381716"><ele>208.0</ele><time>2026-04-23T08:05:14.026Z</time></trkpt><trkpt lat="47.304969119530135" lon="5.177563835371575"><ele>208.0</ele><time>2026-04-23T08:05:15.026Z</time></trkpt><trkpt lat="47.30485438791904" lon="5.177599707098686"><ele>208.0</ele><time>2026-04-23T08:05:17.026Z</time></trkpt><trkpt lat="47.30479060665052" lon="5.1776131286566764"><ele>207.75</ele><time>2026-04-23T08:05:18.026Z</time></trkpt><trkpt lat="47.30467947290161" lon="5.177654715451101"><ele>207.5</ele><time>2026-04-23T08:05:20.026Z</time></trkpt><trkpt lat="47.30455698751753" lon="5.177701904208019"><ele>207.25</ele><time>2026-04-23T08:05:22.026Z</time></trkpt><trkpt lat="47.30444716505" lon="5.177760919642236"><ele>207.0</ele><time>2026-04-23T08:05:24.026Z</time></trkpt><trkpt lat="47.30433396779073" lon="5.177813388308306"><ele>207.0</ele><time>2026-04-23T08:05:26.026Z</time></trkpt><trkpt lat="47.30421995530757" lon="5.177875952470422"><ele>207.0</ele><time>2026-04-23T08:05:28.026Z</time></trkpt><trkpt lat="47.30410804703135" lon="5.177934535088178"><ele>207.0</ele><time>2026-04-23T08:05:30.026Z</time></trkpt><trkpt lat="47.30399607798536" lon="5.178002888572494"><ele>207.0</ele><time>2026-04-23T08:05:32.026Z</time></trkpt><trkpt lat="47.30387877780327" lon="5.17806166494101"><ele>207.0</ele><time>2026-04-23T08:05:34.026Z</time></trkpt><trkpt lat="47.303769760316015" lon="5.1781251783441435"><ele>207.0</ele><time>2026-04-23T08:05:36.026Z</time></trkpt><trkpt lat="47.303654226845005" lon="5.1781914311378054"><ele>207.0</ele><time>2026-04-23T08:05:38.027Z</time></trkpt><trkpt lat="47.303541606594706" lon="5.178254226365244"><ele>207.0</ele><time>2026-04-23T08:05:40.027Z</time></trkpt><trkpt lat="47.30343097087352" lon="5.178326774050084"><ele>207.0</ele><time>2026-04-23T08:05:42.027Z</time></trkpt><trkpt lat="47.30331679199803" lon="5.178384180914921"><ele>207.0</ele><time>2026-04-23T08:05:44.027Z</time></trkpt><trkpt lat="47.303260301771765" lon="5.178426383549818"><ele>207.0</ele><time>2026-04-23T08:05:45.027Z</time></trkpt><trkpt lat="47.30314867120211" lon="5.178482962485989"><ele>207.0</ele><time>2026-04-23T08:05:47.027Z</time></trkpt><trkpt lat="47.3030391575595" lon="5.178551783473445"><ele>207.0</ele><time>2026-04-23T08:05:49.027Z</time></trkpt><trkpt lat="47.302924399871436" lon="5.178619788244392"><ele>207.25</ele><time>2026-04-23T08:05:51.027Z</time></trkpt><trkpt lat="47.30280724647541" lon="5.178675161945415"><ele>207.5</ele><time>2026-04-23T08:05:53.027Z</time></trkpt><trkpt lat="47.302695949606864" lon="5.17872250513907"><ele>207.75</ele><time>2026-04-23T08:05:55.027Z</time></trkpt><trkpt lat="47.302571398304025" lon="5.178736758489581"><ele>208.0</ele><time>2026-04-23T08:05:57.027Z</time></trkpt><trkpt lat="47.30245083988115" lon="5.178705594034079"><ele>208.0</ele><time>2026-04-23T08:05:59.027Z</time></trkpt><trkpt lat="47.30238573602242" lon="5.178669584352039"><ele>208.0</ele><time>2026-04-23T08:06:00.027Z</time></trkpt><trkpt lat="47.30232802082033" lon="5.178621387979729"><ele>208.0</ele><time>2026-04-23T08:06:01.027Z</time></trkpt><trkpt lat="47.30221976742136" lon="5.178510004083907"><ele>208.0</ele><time>2026-04-23T08:06:03.027Z</time></trkpt><trkpt lat="47.302119979256155" lon="5.178413946304425"><ele>208.0</ele><time>2026-04-23T08:06:05.027Z</time></trkpt><trkpt lat="47.30202463758746" lon="5.178331044695257"><ele>208.2</ele><time>2026-04-23T08:06:07.027Z</time></trkpt><trkpt lat="47.30197023895212" lon="5.178275153941893"><ele>208.4</ele><time>2026-04-23T08:06:08.027Z</time></trkpt><trkpt lat="47.301871845302934" lon="5.17817236741474"><ele>208.6</ele><time>2026-04-23T08:06:10.027Z</time></trkpt><trkpt lat="47.30176082579836" lon="5.178077956762696"><ele>208.79999999999998</ele><time>2026-04-23T08:06:12.027Z</time></trkpt><trkpt lat="47.30166371090308" lon="5.17798788330152"><ele>209.0</ele><time>2026-04-23T08:06:14.027Z</time></trkpt><trkpt lat="47.30156044591874" lon="5.177893574725523"><ele>209.0</ele><time>2026-04-23T08:06:16.027Z</time></trkpt><trkpt lat="47.30150884438117" lon="5.17783987123657"><ele>209.0</ele><time>2026-04-23T08:06:17.027Z</time></trkpt><trkpt lat="47.30141206317955" lon="5.17774963485027"><ele>209.0</ele><time>2026-04-23T08:06:19.027Z</time></trkpt><trkpt lat="47.3013063543982" lon="5.177651777293432"><ele>209.0</ele><time>2026-04-23T08:06:21.027Z</time></trkpt><trkpt lat="47.30120183260621" lon="5.177559718902668"><ele>209.0</ele><time>2026-04-23T08:06:23.027Z</time></trkpt><trkpt lat="47.301101774658946" lon="5.177461914226405"><ele>209.0</ele><time>2026-04-23T08:06:25.027Z</time></trkpt><trkpt lat="47.30099669271299" lon="5.177369144156564"><ele>209.0</ele><time>2026-04-23T08:06:27.027Z</time></trkpt><trkpt lat="47.299744087832195" lon="5.176701753908117"><ele>208.75</ele><time>2026-04-23T08:06:40.622Z</time></trkpt><trkpt lat="47.29978656519633" lon="5.176482461217369"><ele>208.5</ele><time>2026-04-23T08:06:50.703Z</time></trkpt><trkpt lat="47.29973075213921" lon="5.176372883190326"><ele>208.25</ele><time>2026-04-23T08:06:52.129Z</time></trkpt><trkpt lat="47.299738117273726" lon="5.176171361330949"><ele>208.0</ele><time>2026-04-23T08:06:54.129Z</time></trkpt><trkpt lat="47.29968505219778" lon="5.176108196961123"><ele>208.0</ele><time>2026-04-23T08:06:56.129Z</time></trkpt><trkpt lat="47.29962563070313" lon="5.175973402082076"><ele>208.0</ele><time>2026-04-23T08:06:58.027Z</time></trkpt><trkpt lat="47.29956392140596" lon="5.175881323899792"><ele>208.0</ele><time>2026-04-23T08:07:00.024Z</time></trkpt><trkpt lat="47.29949026659522" lon="5.175848914407013"><ele>208.0</ele><time>2026-04-23T08:07:02.021Z</time></trkpt><trkpt lat="47.299408643122526" lon="5.1758587403703435"><ele>208.0</ele><time>2026-04-23T08:07:04.019Z</time></trkpt><trkpt lat="47.2993145201677" lon="5.175885549307545"><ele>208.0</ele><time>2026-04-23T08:07:06.015Z</time></trkpt><trkpt lat="47.299192729678516" lon="5.1759171115127485"><ele>208.0</ele><time>2026-04-23T08:07:08.013Z</time></trkpt><trkpt lat="47.29908566171869" lon="5.1759616928623355"><ele>208.0</ele><time>2026-04-23T08:07:10.011Z</time></trkpt><trkpt lat="47.298955343467384" lon="5.176006373090713"><ele>208.0</ele><time>2026-04-23T08:07:12.009Z</time></trkpt><trkpt lat="47.29883336445683" lon="5.176030229237178"><ele>207.5</ele><time>2026-04-23T08:07:14.008Z</time></trkpt><trkpt lat="47.29871803471638" lon="5.176044608310019"><ele>207.0</ele><time>2026-04-23T08:07:16.007Z</time></trkpt><trkpt lat="47.29859638696101" lon="5.176050648268971"><ele>206.5</ele><time>2026-04-23T08:07:18.006Z</time></trkpt><trkpt lat="47.29847476441621" lon="5.176079783669872"><ele>206.0</ele><time>2026-04-23T08:07:20.005Z</time></trkpt><trkpt lat="47.29835334825445" lon="5.1761044914000225"><ele>206.0</ele><time>2026-04-23T08:07:22.005Z</time></trkpt><trkpt lat="47.298235102971965" lon="5.1761542546671295"><ele>206.0</ele><time>2026-04-23T08:07:24.004Z</time></trkpt><trkpt lat="47.29812844065016" lon="5.176181772794051"><ele>206.0</ele><time>2026-04-23T08:07:26.003Z</time></trkpt><trkpt lat="47.298015522330005" lon="5.176220569940025"><ele>206.0</ele><time>2026-04-23T08:07:28.003Z</time></trkpt><trkpt lat="47.29790352100557" lon="5.176237549075422"><ele>206.0</ele><time>2026-04-23T08:07:30.002Z</time></trkpt><trkpt lat="47.29778603051704" lon="5.176243237996255"><ele>206.0</ele><time>2026-04-23T08:07:32.002Z</time></trkpt><trkpt lat="47.29772512519695" lon="5.17626699788194"><ele>206.0</ele><time>2026-04-23T08:07:33.002Z</time></trkpt><trkpt lat="47.29761109765548" lon="5.176303856339066"><ele>206.0</ele><time>2026-04-23T08:07:35.001Z</time></trkpt><trkpt lat="47.29749451966116" lon="5.176330908017002"><ele>206.0</ele><time>2026-04-23T08:07:37.001Z</time></trkpt><trkpt lat="47.297380505979085" lon="5.1763594835102875"><ele>206.0</ele><time>2026-04-23T08:07:39.001Z</time></trkpt><trkpt lat="47.29726291869346" lon="5.1763770011899295"><ele>206.0</ele><time>2026-04-23T08:07:41.001Z</time></trkpt><trkpt lat="47.29714866288627" lon="5.176408187779012"><ele>206.0</ele><time>2026-04-23T08:07:43Z</time></trkpt><trkpt lat="47.297087785682905" lon="5.1764340213023505"><ele>206.0</ele><time>2026-04-23T08:07:44Z</time></trkpt><trkpt lat="47.29697597554701" lon="5.176462958127113"><ele>206.0</ele><time>2026-04-23T08:07:46Z</time></trkpt><trkpt lat="47.29686199221233" lon="5.176481237755237"><ele>206.0</ele><time>2026-04-23T08:07:48Z</time></trkpt><trkpt lat="47.2967990967543" lon="5.176489907359398"><ele>206.0</ele><time>2026-04-23T08:07:49Z</time></trkpt><trkpt lat="47.296687013410555" lon="5.1765432229578545"><ele>206.0</ele><time>2026-04-23T08:07:51Z</time></trkpt><trkpt lat="47.29657393962107" lon="5.176534982262155"><ele>206.0</ele><time>2026-04-23T08:07:53Z</time></trkpt><trkpt lat="47.29645785676874" lon="5.176531786133583"><ele>206.0</ele><time>2026-04-23T08:07:55Z</time></trkpt><trkpt lat="47.29639459486384" lon="5.1765580094406936"><ele>206.00000000000003</ele><time>2026-04-23T08:07:56Z</time></trkpt><trkpt lat="47.296286636176816" lon="5.176600344966723"><ele>206.0</ele><time>2026-04-23T08:07:57.999Z</time></trkpt><trkpt lat="47.29618469642874" lon="5.176616661146251"><ele>206.0</ele><time>2026-04-23T08:07:59.999Z</time></trkpt><trkpt lat="47.296118004202924" lon="5.176601714442086"><ele>206.0</ele><time>2026-04-23T08:08:01.999Z</time></trkpt><trkpt lat="47.29610442636061" lon="5.176507182193213"><ele>206.00000000000003</ele><time>2026-04-23T08:08:03.999Z</time></trkpt><trkpt lat="47.29609028608678" lon="5.176403500585165"><ele>206.0</ele><time>2026-04-23T08:08:05.999Z</time></trkpt><trkpt lat="47.29602875603349" lon="5.1763349894758095"><ele>206.0</ele><time>2026-04-23T08:08:07.999Z</time></trkpt><trkpt lat="47.295953279912965" lon="5.176290832544799"><ele>206.0</ele><time>2026-04-23T08:08:10.999Z</time></trkpt><trkpt lat="47.295888959700605" lon="5.176348158726048"><ele>206.0</ele><time>2026-04-23T08:08:12.999Z</time></trkpt><trkpt lat="47.295787562462756" lon="5.1763616594284665"><ele>206.0</ele><time>2026-04-23T08:08:14.999Z</time></trkpt><trkpt lat="47.295672872330464" lon="5.1764124896566654"><ele>206.0</ele><time>2026-04-23T08:08:16.999Z</time></trkpt><trkpt lat="47.295570998935624" lon="5.176443069982313"><ele>206.0</ele><time>2026-04-23T08:08:18.999Z</time></trkpt><trkpt lat="47.295474017584375" lon="5.1764445878205745"><ele>206.0</ele><time>2026-04-23T08:08:20.999Z</time></trkpt><trkpt lat="47.29535994669965" lon="5.176476006723534"><ele>206.0</ele><time>2026-04-23T08:08:22.999Z</time></trkpt><trkpt lat="47.29524680269494" lon="5.176488436375901"><ele>206.0</ele><time>2026-04-23T08:08:24.999Z</time></trkpt><trkpt lat="47.29517855022601" lon="5.1765121082968735"><ele>206.0</ele><time>2026-04-23T08:08:25.999Z</time></trkpt><trkpt lat="47.29507501395992" lon="5.176543319071079"><ele>205.8</ele><time>2026-04-23T08:08:27.999Z</time></trkpt><trkpt lat="47.2949708591853" lon="5.176586877576076"><ele>205.60000000000002</ele><time>2026-04-23T08:08:29.999Z</time></trkpt><trkpt lat="47.29485077874962" lon="5.176595962848967"><ele>205.4</ele><time>2026-04-23T08:08:31.999Z</time></trkpt><trkpt lat="47.294740706444806" lon="5.17659993104248"><ele>205.2</ele><time>2026-04-23T08:08:33.999Z</time></trkpt><trkpt lat="47.29466790085216" lon="5.176577714852172"><ele>205.0</ele><time>2026-04-23T08:08:34.999Z</time></trkpt><trkpt lat="47.2945900978745" lon="5.176463045095997"><ele>205.49999999999997</ele><time>2026-04-23T08:08:36.999Z</time></trkpt><trkpt lat="47.29456080647627" lon="5.17636742476914"><ele>206.0</ele><time>2026-04-23T08:08:37.999Z</time></trkpt><trkpt lat="47.294535208544914" lon="5.176266595357131"><ele>206.5</ele><time>2026-04-23T08:08:38.999Z</time></trkpt><trkpt lat="47.29452433570504" lon="5.176169404159023"><ele>207.0</ele><time>2026-04-23T08:08:39.999Z</time></trkpt><trkpt lat="47.29449989106547" lon="5.175992032917546"><ele>207.49999999999997</ele><time>2026-04-23T08:08:41.999Z</time></trkpt><trkpt lat="47.29448094350024" lon="5.175895756526132"><ele>208.0</ele><time>2026-04-23T08:08:42.999Z</time></trkpt><trkpt lat="47.29447909985857" lon="5.175802928259808"><ele>208.0</ele><time>2026-04-23T08:08:43.999Z</time></trkpt><trkpt lat="47.29446611888265" lon="5.175708983417595"><ele>208.0</ele><time>2026-04-23T08:08:44.999Z</time></trkpt><trkpt lat="47.294439133144955" lon="5.175533175889401"><ele>208.0</ele><time>2026-04-23T08:08:46.998Z</time></trkpt><trkpt lat="47.29442298664673" lon="5.175350013170821"><ele>208.0</ele><time>2026-04-23T08:08:48.998Z</time></trkpt><trkpt lat="47.294422314637686" lon="5.175178979389096"><ele>208.0</ele><time>2026-04-23T08:08:50.998Z</time></trkpt><trkpt lat="47.294415926437686" lon="5.1750057752505"><ele>207.4</ele><time>2026-04-23T08:08:52.998Z</time></trkpt><trkpt lat="47.2943865725809" lon="5.174834810756618"><ele>206.8</ele><time>2026-04-23T08:08:54.998Z</time></trkpt><trkpt lat="47.29438481359597" lon="5.174739942047369"><ele>206.2</ele><time>2026-04-23T08:08:55.998Z</time></trkpt><trkpt lat="47.29437094538203" lon="5.174575671835852"><ele>205.6</ele><time>2026-04-23T08:08:57.998Z</time></trkpt><trkpt lat="47.29436043950658" lon="5.174399773473544"><ele>205.0</ele><time>2026-04-23T08:08:59.998Z</time></trkpt><trkpt lat="47.294345047884384" lon="5.174222523571386"><ele>205.0</ele><time>2026-04-23T08:09:01.998Z</time></trkpt><trkpt lat="47.29434183461517" lon="5.174127312884774"><ele>205.0</ele><time>2026-04-23T08:09:02.998Z</time></trkpt><trkpt lat="47.2943230776539" lon="5.173959814301877"><ele>205.0</ele><time>2026-04-23T08:09:04.998Z</time></trkpt><trkpt lat="47.29432954215166" lon="5.1737869849755524"><ele>205.0</ele><time>2026-04-23T08:09:06.998Z</time></trkpt><trkpt lat="47.29436127748683" lon="5.173705326960875"><ele>205.0</ele><time>2026-04-23T08:09:07.998Z</time></trkpt><trkpt lat="47.294455520191526" lon="5.173615428400508"><ele>205.2</ele><time>2026-04-23T08:09:09.998Z</time></trkpt><trkpt lat="47.29456474587838" lon="5.173569791641959"><ele>205.4</ele><time>2026-04-23T08:09:11.998Z</time></trkpt><trkpt lat="47.29467431847083" lon="5.173564684086551"><ele>205.60000000000002</ele><time>2026-04-23T08:09:13.998Z</time></trkpt><trkpt lat="47.29477430090988" lon="5.173544464828375"><ele>205.8</ele><time>2026-04-23T08:09:15.998Z</time></trkpt><trkpt lat="47.29484638442369" lon="5.173431353193446"><ele>206.0</ele><time>2026-04-23T08:09:17.998Z</time></trkpt><trkpt lat="47.29489184944895" lon="5.173310876363635"><ele>206.0</ele><time>2026-04-23T08:09:19.998Z</time></trkpt><trkpt lat="47.2949932598717" lon="5.173266806613998"><ele>206.0</ele><time>2026-04-23T08:09:21.998Z</time></trkpt><trkpt lat="47.29513878226879" lon="5.173256653250935"><ele>206.0</ele><time>2026-04-23T08:09:24.998Z</time></trkpt><trkpt lat="47.29524881974662" lon="5.173213175321275"><ele>206.0</ele><time>2026-04-23T08:09:26.998Z</time></trkpt><trkpt lat="47.29535308171618" lon="5.1731740289604975"><ele>206.0</ele><time>2026-04-23T08:09:28.998Z</time></trkpt><trkpt lat="47.2954171590737" lon="5.173154348684552"><ele>206.0</ele><time>2026-04-23T08:09:29.998Z</time></trkpt><trkpt lat="47.29548272660957" lon="5.173157156482887"><ele>206.0</ele><time>2026-04-23T08:09:30.998Z</time></trkpt><trkpt lat="47.2956033164537" lon="5.173146389289279"><ele>206.0</ele><time>2026-04-23T08:09:32.998Z</time></trkpt><trkpt lat="47.29570897644133" lon="5.173115560167977"><ele>206.0</ele><time>2026-04-23T08:09:34.998Z</time></trkpt><trkpt lat="47.29583072289126" lon="5.173103154426456"><ele>206.20000000000002</ele><time>2026-04-23T08:09:36.998Z</time></trkpt><trkpt lat="47.29593690313714" lon="5.1730661307783254"><ele>206.4</ele><time>2026-04-23T08:09:38.998Z</time></trkpt><trkpt lat="47.296037376486474" lon="5.1729977006172305"><ele>206.6</ele><time>2026-04-23T08:09:40.998Z</time></trkpt><trkpt lat="47.29613307894988" lon="5.17295325453914"><ele>206.8</ele><time>2026-04-23T08:09:42.998Z</time></trkpt><trkpt lat="47.29623748934743" lon="5.17295001336227"><ele>207.0</ele><time>2026-04-23T08:09:44.998Z</time></trkpt><trkpt lat="47.29633292867394" lon="5.1729694501758825"><ele>206.75</ele><time>2026-04-23T08:09:46.998Z</time></trkpt><trkpt lat="47.29649350225155" lon="5.173003317333246"><ele>206.5</ele><time>2026-04-23T08:09:49.998Z</time></trkpt><trkpt lat="47.29661275873928" lon="5.172982336981336"><ele>206.25</ele><time>2026-04-23T08:09:51.998Z</time></trkpt><trkpt lat="47.296729994974406" lon="5.1729063309239685"><ele>206.0</ele><time>2026-04-23T08:09:53.998Z</time></trkpt><trkpt lat="47.29679330864494" lon="5.172888903406724"><ele>206.0</ele><time>2026-04-23T08:09:54.998Z</time></trkpt><trkpt lat="47.296856237372886" lon="5.172874421758274"><ele>206.0</ele><time>2026-04-23T08:09:55.998Z</time></trkpt><trkpt lat="47.29692261900759" lon="5.1728751628364105"><ele>206.0</ele><time>2026-04-23T08:09:56.998Z</time></trkpt><trkpt lat="47.297029517050774" lon="5.1728667462846545"><ele>206.0</ele><time>2026-04-23T08:09:58.998Z</time></trkpt><trkpt lat="47.297139327961816" lon="5.172852728212678"><ele>206.0</ele><time>2026-04-23T08:10:00.998Z</time></trkpt><trkpt lat="47.29724873618726" lon="5.172818820255022"><ele>206.0</ele><time>2026-04-23T08:10:02.998Z</time></trkpt><trkpt lat="47.29735495583579" lon="5.172774181251835"><ele>206.0</ele><time>2026-04-23T08:10:04.998Z</time></trkpt><trkpt lat="47.29743788801051" lon="5.172674888002889"><ele>206.0</ele><time>2026-04-23T08:10:06.998Z</time></trkpt><trkpt lat="47.297418983175824" lon="5.172532567911522"><ele>206.0</ele><time>2026-04-23T08:10:08.998Z</time></trkpt><trkpt lat="47.297382741141924" lon="5.172424033030697"><ele>206.0</ele><time>2026-04-23T08:10:10.998Z</time></trkpt><trkpt lat="47.29740585019722" lon="5.172300600522519"><ele>206.8</ele><time>2026-04-23T08:10:12.998Z</time></trkpt><trkpt lat="47.2974815469916" lon="5.17219749054663"><ele>207.60000000000002</ele><time>2026-04-23T08:10:14.998Z</time></trkpt><trkpt lat="47.29757056243786" lon="5.1721435335896695"><ele>208.4</ele><time>2026-04-23T08:10:16.998Z</time></trkpt><trkpt lat="47.29767949914071" lon="5.172175588814498"><ele>209.2</ele><time>2026-04-23T08:10:18.998Z</time></trkpt><trkpt lat="47.29778640526694" lon="5.172193838254258"><ele>210.0</ele><time>2026-04-23T08:10:20.998Z</time></trkpt><trkpt lat="47.29790254884639" lon="5.172207837030342"><ele>210.0</ele><time>2026-04-23T08:10:22.998Z</time></trkpt><trkpt lat="47.298000106086754" lon="5.1722225440206415"><ele>210.0</ele><time>2026-04-23T08:10:24.998Z</time></trkpt><trkpt lat="47.29811411466962" lon="5.172230952851647"><ele>210.0</ele><time>2026-04-23T08:10:26.998Z</time></trkpt><trkpt lat="47.298198757564634" lon="5.1722402584245675"><ele>210.0</ele><time>2026-04-23T08:10:28.998Z</time></trkpt><trkpt lat="47.298301201080605" lon="5.172290732925363"><ele>210.0</ele><time>2026-04-23T08:10:30.998Z</time></trkpt><trkpt lat="47.29841335390636" lon="5.1723235784279264"><ele>209.25</ele><time>2026-04-23T08:10:32.998Z</time></trkpt><trkpt lat="47.2985364965155" lon="5.1723564650535785"><ele>208.5</ele><time>2026-04-23T08:10:34.997Z</time></trkpt><trkpt lat="47.29865997022432" lon="5.17239132525631"><ele>207.75</ele><time>2026-04-23T08:10:36.997Z</time></trkpt><trkpt lat="47.298777679846886" lon="5.172429216921653"><ele>207.0</ele><time>2026-04-23T08:10:38.997Z</time></trkpt><trkpt lat="47.29888930141728" lon="5.172473023563793"><ele>207.0</ele><time>2026-04-23T08:10:40.997Z</time></trkpt><trkpt lat="47.2989876669997" lon="5.172510460038812"><ele>207.0</ele><time>2026-04-23T08:10:42.997Z</time></trkpt><trkpt lat="47.2991054403048" lon="5.17246801842941"><ele>207.0</ele><time>2026-04-23T08:10:44.997Z</time></trkpt><trkpt lat="47.29920765097309" lon="5.172399451451351"><ele>207.0</ele><time>2026-04-23T08:10:46.997Z</time></trkpt><trkpt lat="47.29930064742005" lon="5.172342129580608"><ele>207.0</ele><time>2026-04-23T08:10:48.997Z</time></trkpt><trkpt lat="47.299407641543674" lon="5.172336425481655"><ele>207.0</ele><time>2026-04-23T08:10:50.997Z</time></trkpt><trkpt lat="47.29952268811998" lon="5.172372481510633"><ele>207.0</ele><time>2026-04-23T08:10:52.997Z</time></trkpt><trkpt lat="47.2996158362275" lon="5.172368168607699"><ele>207.0</ele><time>2026-04-23T08:10:54.997Z</time></trkpt><trkpt lat="47.29969411495121" lon="5.172375021371359"><ele>207.0</ele><time>2026-04-23T08:10:56.997Z</time></trkpt><trkpt lat="47.29977621752536" lon="5.172394764140339"><ele>207.0</ele><time>2026-04-23T08:10:58.997Z</time></trkpt><trkpt lat="47.29985044563322" lon="5.172326742108791"><ele>207.8</ele><time>2026-04-23T08:11:00.997Z</time></trkpt><trkpt lat="47.2999301129268" lon="5.172267974848783"><ele>208.6</ele><time>2026-04-23T08:11:02.997Z</time></trkpt><trkpt lat="47.29999363866663" lon="5.172275218631721"><ele>209.4</ele><time>2026-04-23T08:11:03.997Z</time></trkpt><trkpt lat="47.30009780286275" lon="5.1722721729783"><ele>210.20000000000002</ele><time>2026-04-23T08:11:05.997Z</time></trkpt><trkpt lat="47.30019688451999" lon="5.172274618386941"><ele>211.0</ele><time>2026-04-23T08:11:07.997Z</time></trkpt><trkpt lat="47.30030341734703" lon="5.172254330168271"><ele>211.0</ele><time>2026-04-23T08:11:09.997Z</time></trkpt><trkpt lat="47.3004138384526" lon="5.172258374407221"><ele>211.0</ele><time>2026-04-23T08:11:11.997Z</time></trkpt><trkpt lat="47.300523922317595" lon="5.172253197717165"><ele>211.0</ele><time>2026-04-23T08:11:13.997Z</time></trkpt><trkpt lat="47.30063845387515" lon="5.172253238321446"><ele>211.0</ele><time>2026-04-23T08:11:15.997Z</time></trkpt><trkpt lat="47.30075202268604" lon="5.172247590703705"><ele>211.0</ele><time>2026-04-23T08:11:17.997Z</time></trkpt><trkpt lat="47.30085987470859" lon="5.172242016526014"><ele>210.20000000000002</ele><time>2026-04-23T08:11:19.997Z</time></trkpt><trkpt lat="47.30097165262321" lon="5.172242273834748"><ele>209.4</ele><time>2026-04-23T08:11:21.997Z</time></trkpt><trkpt lat="47.30108002060207" lon="5.172238102772271"><ele>208.6</ele><time>2026-04-23T08:11:23.997Z</time></trkpt><trkpt lat="47.301185377601726" lon="5.172232729419175"><ele>207.8</ele><time>2026-04-23T08:11:25.997Z</time></trkpt><trkpt lat="47.30128666682141" lon="5.172208257385122"><ele>207.0</ele><time>2026-04-23T08:11:27.997Z</time></trkpt><trkpt lat="47.301392323833454" lon="5.1721972656264095"><ele>207.0</ele><time>2026-04-23T08:11:29.997Z</time></trkpt><trkpt lat="47.30150320944906" lon="5.172221263670978"><ele>207.0</ele><time>2026-04-23T08:11:31.997Z</time></trkpt><trkpt lat="47.30160570590562" lon="5.1722845012393766"><ele>207.0</ele><time>2026-04-23T08:11:33.997Z</time></trkpt><trkpt lat="47.30170553548665" lon="5.172342085856811"><ele>207.0</ele><time>2026-04-23T08:11:35.997Z</time></trkpt><trkpt lat="47.30180991204217" lon="5.172386610273827"><ele>207.0</ele><time>2026-04-23T08:11:37.997Z</time></trkpt><trkpt lat="47.30191439359965" lon="5.172437399894477"><ele>207.0</ele><time>2026-04-23T08:11:39.997Z</time></trkpt><trkpt lat="47.30201596551895" lon="5.172492993699646"><ele>207.0</ele><time>2026-04-23T08:11:41.997Z</time></trkpt><trkpt lat="47.302122094621545" lon="5.172545945139222"><ele>207.0</ele><time>2026-04-23T08:11:43.997Z</time></trkpt><trkpt lat="47.30222879962232" lon="5.172596130684651"><ele>207.0</ele><time>2026-04-23T08:11:45.997Z</time></trkpt><trkpt lat="47.30233447722011" lon="5.172645420971142"><ele>207.0</ele><time>2026-04-23T08:11:47.997Z</time></trkpt><trkpt lat="47.30244659746799" lon="5.172700833566395"><ele>207.2</ele><time>2026-04-23T08:11:49.997Z</time></trkpt><trkpt lat="47.302508907783135" lon="5.172729012519312"><ele>207.39999999999998</ele><time>2026-04-23T08:11:50.997Z</time></trkpt><trkpt lat="47.30261711713786" lon="5.172774660500521"><ele>207.60000000000002</ele><time>2026-04-23T08:11:52.997Z</time></trkpt><trkpt lat="47.30272900262772" lon="5.172817993500484"><ele>207.8</ele><time>2026-04-23T08:11:54.997Z</time></trkpt><trkpt lat="47.302844766115406" lon="5.172864208615946"><ele>208.0</ele><time>2026-04-23T08:11:56.997Z</time></trkpt><trkpt lat="47.30294790720706" lon="5.1729097647238556"><ele>208.0</ele><time>2026-04-23T08:11:58.997Z</time></trkpt><trkpt lat="47.30306359050886" lon="5.17295167401401"><ele>208.0</ele><time>2026-04-23T08:12:00.997Z</time></trkpt><trkpt lat="47.3031750748532" lon="5.172977257822756"><ele>208.0</ele><time>2026-04-23T08:12:02.997Z</time></trkpt><trkpt lat="47.30329024584155" lon="5.1730191422179335"><ele>208.0</ele><time>2026-04-23T08:12:04.997Z</time></trkpt><trkpt lat="47.30340435580287" lon="5.1730613802873435"><ele>208.2</ele><time>2026-04-23T08:12:06.997Z</time></trkpt><trkpt lat="47.30351205562927" lon="5.173112594806443"><ele>208.4</ele><time>2026-04-23T08:12:08.997Z</time></trkpt><trkpt lat="47.30362296275525" lon="5.1731435263532575"><ele>208.6</ele><time>2026-04-23T08:12:10.997Z</time></trkpt><trkpt lat="47.30368526261388" lon="5.173164326362294"><ele>208.79999999999998</ele><time>2026-04-23T08:12:11.997Z</time></trkpt><trkpt lat="47.3037911692808" lon="5.173205356194669"><ele>209.0</ele><time>2026-04-23T08:12:13.997Z</time></trkpt><trkpt lat="47.30390264843565" lon="5.173244060485999"><ele>208.83333333333334</ele><time>2026-04-23T08:12:15.997Z</time></trkpt><trkpt lat="47.303965634577274" lon="5.173268898361347"><ele>208.66666666666669</ele><time>2026-04-23T08:12:16.997Z</time></trkpt><trkpt lat="47.30407792897929" lon="5.173306046598486"><ele>208.5</ele><time>2026-04-23T08:12:18.997Z</time></trkpt><trkpt lat="47.30414415002577" lon="5.173330954969649"><ele>208.33333333333331</ele><time>2026-04-23T08:12:19.997Z</time></trkpt><trkpt lat="47.30425502366493" lon="5.173371546588084"><ele>208.16666666666666</ele><time>2026-04-23T08:12:21.997Z</time></trkpt><trkpt lat="47.3043199056314" lon="5.1733850116366025"><ele>208.0</ele><time>2026-04-23T08:12:22.997Z</time></trkpt><trkpt lat="47.304429535718484" lon="5.173414573698408"><ele>208.0</ele><time>2026-04-23T08:12:24.996Z</time></trkpt><trkpt lat="47.30455069610978" lon="5.173448780735749"><ele>208.0</ele><time>2026-04-23T08:12:26.996Z</time></trkpt><trkpt lat="47.30467010349956" lon="5.173482972904275"><ele>208.0</ele><time>2026-04-23T08:12:28.996Z</time></trkpt><trkpt lat="47.30479031045827" lon="5.173513950464743"><ele>208.0</ele><time>2026-04-23T08:12:30.996Z</time></trkpt><trkpt lat="47.304911415664535" lon="5.17353889503592"><ele>208.0</ele><time>2026-04-23T08:12:32.996Z</time></trkpt><trkpt lat="47.3050261010531" lon="5.173564804738258"><ele>208.0</ele><time>2026-04-23T08:12:34.996Z</time></trkpt><trkpt lat="47.3051448129051" lon="5.1735997261394395"><ele>208.0</ele><time>2026-04-23T08:12:36.996Z</time></trkpt><trkpt lat="47.305260878316695" lon="5.17363080959717"><ele>208.0</ele><time>2026-04-23T08:12:38.996Z</time></trkpt><trkpt lat="47.30532433336416" lon="5.1736452565040425"><ele>208.0</ele><time>2026-04-23T08:12:39.996Z</time></trkpt><trkpt lat="47.3054273395049" lon="5.1736708077847045"><ele>208.0</ele><time>2026-04-23T08:12:41.996Z</time></trkpt><trkpt lat="47.305539867636355" lon="5.173690329862097"><ele>208.0</ele><time>2026-04-23T08:12:43.996Z</time></trkpt><trkpt lat="47.30565666541359" lon="5.173724278145348"><ele>208.0</ele><time>2026-04-23T08:12:45.996Z</time></trkpt><trkpt lat="47.30576971770373" lon="5.1737477979722915"><ele>208.0</ele><time>2026-04-23T08:12:47.996Z</time></trkpt><trkpt lat="47.30588395341657" lon="5.173778765327502"><ele>207.75</ele><time>2026-04-23T08:12:49.996Z</time></trkpt><trkpt lat="47.30600341849514" lon="5.173802821052506"><ele>207.5</ele><time>2026-04-23T08:12:51.996Z</time></trkpt><trkpt lat="47.30611133469925" lon="5.173831711352183"><ele>207.25</ele><time>2026-04-23T08:12:53.996Z</time></trkpt><trkpt lat="47.30622085380088" lon="5.173858076076132"><ele>207.0</ele><time>2026-04-23T08:12:55.996Z</time></trkpt><trkpt lat="47.30633807109799" lon="5.1738703351522535"><ele>207.25</ele><time>2026-04-23T08:12:57.996Z</time></trkpt><trkpt lat="47.30645090979297" lon="5.173885856037189"><ele>207.5</ele><time>2026-04-23T08:12:59.996Z</time></trkpt><trkpt lat="47.30657254534512" lon="5.173899230345601"><ele>207.75</ele><time>2026-04-23T08:13:01.996Z</time></trkpt><trkpt lat="47.30669295558841" lon="5.173909371708954"><ele>208.0</ele><time>2026-04-23T08:13:03.996Z</time></trkpt><trkpt lat="47.306807665663364" lon="5.173921900537657"><ele>208.0</ele><time>2026-04-23T08:13:05.996Z</time></trkpt><trkpt lat="47.30692151994688" lon="5.173917181943056"><ele>208.0</ele><time>2026-04-23T08:13:07.996Z</time></trkpt><trkpt lat="47.307034616066794" lon="5.173913964982308"><ele>208.0</ele><time>2026-04-23T08:13:09.996Z</time></trkpt><trkpt lat="47.307147730961915" lon="5.173915505190701"><ele>208.0</ele><time>2026-04-23T08:13:11.996Z</time></trkpt><trkpt lat="47.30726233605195" lon="5.173920642352536"><ele>207.75</ele><time>2026-04-23T08:13:13.996Z</time></trkpt><trkpt lat="47.30737383830296" lon="5.1739172218789085"><ele>207.5</ele><time>2026-04-23T08:13:15.996Z</time></trkpt><trkpt lat="47.30749409804317" lon="5.1739259667008275"><ele>207.25</ele><time>2026-04-23T08:13:17.996Z</time></trkpt><trkpt lat="47.307602967586384" lon="5.173922857723798"><ele>207.0</ele><time>2026-04-23T08:13:19.996Z</time></trkpt><trkpt lat="47.30771316475453" lon="5.173939963640754"><ele>207.0</ele><time>2026-04-23T08:13:21.996Z</time></trkpt><trkpt lat="47.3078206411615" lon="5.173935373323369"><ele>207.0</ele><time>2026-04-23T08:13:23.996Z</time></trkpt><trkpt lat="47.30792388620919" lon="5.173928931730976"><ele>207.0</ele><time>2026-04-23T08:13:25.996Z</time></trkpt><trkpt lat="47.308017671550786" lon="5.173953028410984"><ele>207.0</ele><time>2026-04-23T08:13:27.996Z</time></trkpt><trkpt lat="47.308125718740094" lon="5.1739402063248745"><ele>207.0</ele><time>2026-04-23T08:13:29.996Z</time></trkpt><trkpt lat="47.308229107030066" lon="5.173933951928133"><ele>207.39999999999998</ele><time>2026-04-23T08:13:31.996Z</time></trkpt><trkpt lat="47.30833810117731" lon="5.173911512075539"><ele>207.79999999999998</ele><time>2026-04-23T08:13:33.996Z</time></trkpt><trkpt lat="47.3084424487851" lon="5.173891181612564"><ele>208.2</ele><time>2026-04-23T08:13:35.996Z</time></trkpt><trkpt lat="47.30855626026109" lon="5.173880575080214"><ele>208.6</ele><time>2026-04-23T08:13:37.996Z</time></trkpt><trkpt lat="47.308652708585385" lon="5.17385895799638"><ele>209.0</ele><time>2026-04-23T08:13:39.996Z</time></trkpt><trkpt lat="47.30876608783924" lon="5.173845464696915"><ele>209.0</ele><time>2026-04-23T08:13:41.996Z</time></trkpt><trkpt lat="47.30888249326986" lon="5.17383062430633"><ele>209.0</ele><time>2026-04-23T08:13:43.996Z</time></trkpt><trkpt lat="47.30900131125346" lon="5.173807318959145"><ele>209.0</ele><time>2026-04-23T08:13:45.996Z</time></trkpt><trkpt lat="47.309119957934996" lon="5.173779051639532"><ele>209.0</ele><time>2026-04-23T08:13:47.996Z</time></trkpt><trkpt lat="47.309182368953365" lon="5.173761806811492"><ele>209.0</ele><time>2026-04-23T08:13:48.996Z</time></trkpt><trkpt lat="47.309293867022426" lon="5.17373341052212"><ele>208.79999999999998</ele><time>2026-04-23T08:13:50.996Z</time></trkpt><trkpt lat="47.30941612654928" lon="5.17371158703658"><ele>208.6</ele><time>2026-04-23T08:13:52.996Z</time></trkpt><trkpt lat="47.30951936286309" lon="5.173683562459121"><ele>208.4</ele><time>2026-04-23T08:13:54.996Z</time></trkpt><trkpt lat="47.30961698155537" lon="5.173662689173582"><ele>208.2</ele><time>2026-04-23T08:13:56.996Z</time></trkpt><trkpt lat="47.30971630813045" lon="5.17364314965634"><ele>208.0</ele><time>2026-04-23T08:13:58.996Z</time></trkpt><trkpt lat="47.30980828497902" lon="5.173618870536905"><ele>208.4</ele><time>2026-04-23T08:14:00.996Z</time></trkpt><trkpt lat="47.309909053445196" lon="5.1735884269259955"><ele>208.8</ele><time>2026-04-23T08:14:02.996Z</time></trkpt><trkpt lat="47.310017956536655" lon="5.1735560651231465"><ele>209.2</ele><time>2026-04-23T08:14:04.996Z</time></trkpt><trkpt lat="47.31012831678461" lon="5.1735297772247835"><ele>209.6</ele><time>2026-04-23T08:14:06.996Z</time></trkpt><trkpt lat="47.31024686963486" lon="5.173500324543309"><ele>210.0</ele><time>2026-04-23T08:14:08.996Z</time></trkpt><trkpt lat="47.310316631076795" lon="5.173469072785347"><ele>210.0</ele><time>2026-04-23T08:14:09.996Z</time></trkpt><trkpt lat="47.31038778323204" lon="5.173422738245658"><ele>210.0</ele><time>2026-04-23T08:14:10.996Z</time></trkpt><trkpt lat="47.31049539452211" lon="5.173377729203002"><ele>210.0</ele><time>2026-04-23T08:14:12.996Z</time></trkpt><trkpt lat="47.310622244934386" lon="5.173344121459945"><ele>210.0</ele><time>2026-04-23T08:14:14.995Z</time></trkpt><trkpt lat="47.310704831752076" lon="5.173468164494208"><ele>210.0</ele><time>2026-04-23T08:14:16.995Z</time></trkpt><trkpt lat="47.310707003890045" lon="5.173611524258168"><ele>209.75</ele><time>2026-04-23T08:14:18.995Z</time></trkpt><trkpt lat="47.310749318397164" lon="5.173740261194503"><ele>209.5</ele><time>2026-04-23T08:14:20.995Z</time></trkpt><trkpt lat="47.31085722676012" lon="5.17379293841378"><ele>209.25</ele><time>2026-04-23T08:14:22.995Z</time></trkpt><trkpt lat="47.31097517840327" lon="5.173827883296204"><ele>209.0</ele><time>2026-04-23T08:14:24.995Z</time></trkpt><trkpt lat="47.31109150525235" lon="5.173874644302126"><ele>209.0</ele><time>2026-04-23T08:14:26.995Z</time></trkpt><trkpt lat="47.311152304785914" lon="5.173901405370128"><ele>209.0</ele><time>2026-04-23T08:14:27.995Z</time></trkpt><trkpt lat="47.31125940143963" lon="5.173950043161454"><ele>209.0</ele><time>2026-04-23T08:14:29.995Z</time></trkpt><trkpt lat="47.31136539364276" lon="5.174006691565866"><ele>209.0</ele><time>2026-04-23T08:14:31.995Z</time></trkpt><trkpt lat="47.31147738350515" lon="5.174054406706588"><ele>209.0</ele><time>2026-04-23T08:14:33.995Z</time></trkpt><trkpt lat="47.31158287672059" lon="5.1741091899465586"><ele>208.75</ele><time>2026-04-23T08:14:35.995Z</time></trkpt><trkpt lat="47.311691890798826" lon="5.17415749445337"><ele>208.5</ele><time>2026-04-23T08:14:37.995Z</time></trkpt><trkpt lat="47.31179553990514" lon="5.174215366986298"><ele>208.25</ele><time>2026-04-23T08:14:39.995Z</time></trkpt><trkpt lat="47.311907008017876" lon="5.174265026062365"><ele>208.0</ele><time>2026-04-23T08:14:41.995Z</time></trkpt><trkpt lat="47.31201133707176" lon="5.174317232750526"><ele>208.0</ele><time>2026-04-23T08:14:43.995Z</time></trkpt><trkpt lat="47.31211179672869" lon="5.17437085571282"><ele>208.0</ele><time>2026-04-23T08:14:45.995Z</time></trkpt><trkpt lat="47.31221874708353" lon="5.1744246052743135"><ele>208.0</ele><time>2026-04-23T08:14:47.995Z</time></trkpt><trkpt lat="47.31231752445957" lon="5.174485441574296"><ele>208.0</ele><time>2026-04-23T08:14:49.995Z</time></trkpt><trkpt lat="47.31241787285341" lon="5.17453245152259"><ele>208.0</ele><time>2026-04-23T08:14:51.995Z</time></trkpt><trkpt lat="47.31251551606085" lon="5.174464807756309"><ele>208.2</ele><time>2026-04-23T08:14:53.995Z</time></trkpt><trkpt lat="47.312598312270104" lon="5.1743813222202615"><ele>208.4</ele><time>2026-04-23T08:14:55.995Z</time></trkpt><trkpt lat="47.31269642878738" lon="5.174441509383577"><ele>208.6</ele><time>2026-04-23T08:14:57.995Z</time></trkpt><trkpt lat="47.312793834064806" lon="5.174497124455663"><ele>208.79999999999998</ele><time>2026-04-23T08:14:59.995Z</time></trkpt><trkpt lat="47.31289698386912" lon="5.174542485153274"><ele>209.0</ele><time>2026-04-23T08:15:01.995Z</time></trkpt><trkpt lat="47.313001564729056" lon="5.174587957954363"><ele>209.25</ele><time>2026-04-23T08:15:03.995Z</time></trkpt><trkpt lat="47.31310860393512" lon="5.174634798611199"><ele>209.5</ele><time>2026-04-23T08:15:05.995Z</time></trkpt><trkpt lat="47.3132245069632" lon="5.174687419824045"><ele>209.75</ele><time>2026-04-23T08:15:07.995Z</time></trkpt><trkpt lat="47.31333264401609" lon="5.17473420974218"><ele>210.0</ele><time>2026-04-23T08:15:09.995Z</time></trkpt><trkpt lat="47.31344344618968" lon="5.1747727505436405"><ele>210.0</ele><time>2026-04-23T08:15:11.995Z</time></trkpt><trkpt lat="47.313546920178254" lon="5.174830927514213"><ele>210.0</ele><time>2026-04-23T08:15:13.995Z</time></trkpt><trkpt lat="47.31365555188789" lon="5.174873103870263"><ele>210.0</ele><time>2026-04-23T08:15:15.995Z</time></trkpt><trkpt lat="47.31375385244341" lon="5.174929322512489"><ele>210.0</ele><time>2026-04-23T08:15:17.995Z</time></trkpt><trkpt lat="47.313863541964565" lon="5.17498383391252"><ele>210.0</ele><time>2026-04-23T08:15:19.995Z</time></trkpt><trkpt lat="47.31396483435379" lon="5.175043003959527"><ele>210.4</ele><time>2026-04-23T08:15:21.995Z</time></trkpt><trkpt lat="47.31407302685973" lon="5.175075446041463"><ele>210.8</ele><time>2026-04-23T08:15:23.995Z</time></trkpt><trkpt lat="47.3141363844632" lon="5.175090833121094"><ele>211.2</ele><time>2026-04-23T08:15:24.995Z</time></trkpt><trkpt lat="47.31423383894063" lon="5.17515791294071"><ele>211.6</ele><time>2026-04-23T08:15:26.995Z</time></trkpt><trkpt lat="47.314338931652394" lon="5.1752069697748135"><ele>212.0</ele><time>2026-04-23T08:15:28.995Z</time></trkpt><trkpt lat="47.314439551157584" lon="5.175268076287014"><ele>212.0</ele><time>2026-04-23T08:15:30.995Z</time></trkpt><trkpt lat="47.31454692962235" lon="5.17532317558003"><ele>212.0</ele><time>2026-04-23T08:15:32.995Z</time></trkpt><trkpt lat="47.31465216488444" lon="5.175384322799227"><ele>212.0</ele><time>2026-04-23T08:15:34.995Z</time></trkpt><trkpt lat="47.31475934088907" lon="5.175443072896143"><ele>212.0</ele><time>2026-04-23T08:15:36.995Z</time></trkpt><trkpt lat="47.31487025112689" lon="5.175495555799123"><ele>211.6</ele><time>2026-04-23T08:15:38.995Z</time></trkpt><trkpt lat="47.31496255159236" lon="5.175552188049353"><ele>211.2</ele><time>2026-04-23T08:15:40.995Z</time></trkpt><trkpt lat="47.315074745624564" lon="5.175600695552223"><ele>210.8</ele><time>2026-04-23T08:15:42.995Z</time></trkpt><trkpt lat="47.31517785611093" lon="5.175648803463121"><ele>210.4</ele><time>2026-04-23T08:15:44.995Z</time></trkpt><trkpt lat="47.31528781486532" lon="5.175701902668316"><ele>210.0</ele><time>2026-04-23T08:15:46.995Z</time></trkpt><trkpt lat="47.31539088566633" lon="5.175758882238874"><ele>210.25</ele><time>2026-04-23T08:15:48.995Z</time></trkpt><trkpt lat="47.31549486737097" lon="5.1758153746420135"><ele>210.5</ele><time>2026-04-23T08:15:50.995Z</time></trkpt><trkpt lat="47.3156048314285" lon="5.175870253534277"><ele>210.75</ele><time>2026-04-23T08:15:52.995Z</time></trkpt><trkpt lat="47.31571465268975" lon="5.175923464509097"><ele>211.0</ele><time>2026-04-23T08:15:54.995Z</time></trkpt><trkpt lat="47.315824455178344" lon="5.175977319265356"><ele>211.0</ele><time>2026-04-23T08:15:56.995Z</time></trkpt><trkpt lat="47.315935599230954" lon="5.176035302317749"><ele>211.0</ele><time>2026-04-23T08:15:58.995Z</time></trkpt><trkpt lat="47.316038807972156" lon="5.176082011913868"><ele>211.0</ele><time>2026-04-23T08:16:00.995Z</time></trkpt><trkpt lat="47.31615003506852" lon="5.176138830705455"><ele>211.0</ele><time>2026-04-23T08:16:02.994Z</time></trkpt><trkpt lat="47.31626014569875" lon="5.17618764541484"><ele>211.0</ele><time>2026-04-23T08:16:04.994Z</time></trkpt><trkpt lat="47.31636415367646" lon="5.176240524729189"><ele>211.0</ele><time>2026-04-23T08:16:06.994Z</time></trkpt><trkpt lat="47.316470662210236" lon="5.176299084933059"><ele>211.0</ele><time>2026-04-23T08:16:08.994Z</time></trkpt><trkpt lat="47.316578965929345" lon="5.176352167576823"><ele>211.0</ele><time>2026-04-23T08:16:10.994Z</time></trkpt><trkpt lat="47.316688459235245" lon="5.17641157196471"><ele>211.0</ele><time>2026-04-23T08:16:12.994Z</time></trkpt><trkpt lat="47.31679629747961" lon="5.17646898966924"><ele>211.0</ele><time>2026-04-23T08:16:14.994Z</time></trkpt><trkpt lat="47.316907573701904" lon="5.176510335465844"><ele>211.0</ele><time>2026-04-23T08:16:16.994Z</time></trkpt><trkpt lat="47.31701213970144" lon="5.176567484765208"><ele>211.0</ele><time>2026-04-23T08:16:18.994Z</time></trkpt><trkpt lat="47.31711078900679" lon="5.176618781404432"><ele>211.0</ele><time>2026-04-23T08:16:20.994Z</time></trkpt><trkpt lat="47.31721911846936" lon="5.176659275371123"><ele>211.5</ele><time>2026-04-23T08:16:22.994Z</time></trkpt><trkpt lat="47.31732516668409" lon="5.176704118565"><ele>212.0</ele><time>2026-04-23T08:16:24.994Z</time></trkpt><trkpt lat="47.31743902019913" lon="5.176753925589735"><ele>212.5</ele><time>2026-04-23T08:16:26.994Z</time></trkpt><trkpt lat="47.31754752585992" lon="5.176814085965108"><ele>213.0</ele><time>2026-04-23T08:16:28.994Z</time></trkpt><trkpt lat="47.31765863365812" lon="5.176866461074459"><ele>213.0</ele><time>2026-04-23T08:16:30.994Z</time></trkpt><trkpt lat="47.3177777143624" lon="5.176904038076849"><ele>213.0</ele><time>2026-04-23T08:16:32.994Z</time></trkpt><trkpt lat="47.31789096020401" lon="5.176923711223254"><ele>213.0</ele><time>2026-04-23T08:16:34.994Z</time></trkpt><trkpt lat="47.31800020906927" lon="5.176951030056689"><ele>213.0</ele><time>2026-04-23T08:16:36.994Z</time></trkpt><trkpt lat="47.318102286191596" lon="5.176980466970899"><ele>212.75</ele><time>2026-04-23T08:16:38.994Z</time></trkpt><trkpt lat="47.31821989266607" lon="5.176967848009025"><ele>212.5</ele><time>2026-04-23T08:16:40.994Z</time></trkpt><trkpt lat="47.318331256553236" lon="5.177002654511775"><ele>212.25</ele><time>2026-04-23T08:16:42.994Z</time></trkpt><trkpt lat="47.318443561346236" lon="5.177023754312816"><ele>212.0</ele><time>2026-04-23T08:16:44.994Z</time></trkpt><trkpt lat="47.31855006169369" lon="5.17702009403564"><ele>212.0</ele><time>2026-04-23T08:16:46.994Z</time></trkpt><trkpt lat="47.318644816455574" lon="5.177025219205272"><ele>212.0</ele><time>2026-04-23T08:16:48.994Z</time></trkpt><trkpt lat="47.31875079065349" lon="5.177013635716256"><ele>212.0</ele><time>2026-04-23T08:16:50.994Z</time></trkpt><trkpt lat="47.31886989312588" lon="5.177015279224592"><ele>212.0</ele><time>2026-04-23T08:16:52.994Z</time></trkpt><trkpt lat="47.318968560711674" lon="5.177032213134057"><ele>212.0</ele><time>2026-04-23T08:16:54.994Z</time></trkpt><trkpt lat="47.319073048192784" lon="5.177021914266726"><ele>212.8</ele><time>2026-04-23T08:16:56.994Z</time></trkpt><trkpt lat="47.31917637130844" lon="5.1770160657284325"><ele>213.6</ele><time>2026-04-23T08:16:58.994Z</time></trkpt><trkpt lat="47.319269865191856" lon="5.177039249660313"><ele>214.40000000000003</ele><time>2026-04-23T08:17:00.994Z</time></trkpt><trkpt lat="47.31936089807656" lon="5.177063203056708"><ele>215.20000000000002</ele><time>2026-04-23T08:17:02.994Z</time></trkpt><trkpt lat="47.31943882168377" lon="5.177096168501809"><ele>216.0</ele><time>2026-04-23T08:17:05.994Z</time></trkpt><trkpt lat="47.31953418842232" lon="5.177135375199743"><ele>216.25</ele><time>2026-04-23T08:17:08.994Z</time></trkpt><trkpt lat="47.31978734230891" lon="5.177180727802108"><ele>216.5</ele><time>2026-04-23T08:17:15.994Z</time></trkpt><trkpt lat="47.319874109565994" lon="5.177181294140017"><ele>216.75</ele><time>2026-04-23T08:17:17.994Z</time></trkpt><trkpt lat="47.31995192546844" lon="5.177157640703427"><ele>217.0</ele><time>2026-04-23T08:17:19.994Z</time></trkpt><trkpt lat="47.320035395668526" lon="5.177118603960349"><ele>217.0</ele><time>2026-04-23T08:17:21.994Z</time></trkpt><trkpt lat="47.320255138430596" lon="5.177125871125243"><ele>217.0</ele><time>2026-04-23T08:17:26.994Z</time></trkpt><trkpt lat="47.320335021834985" lon="5.177151256705936"><ele>217.0</ele><time>2026-04-23T08:17:28.994Z</time></trkpt><trkpt lat="47.320476846662395" lon="5.177155926642977"><ele>217.0</ele><time>2026-04-23T08:17:31.994Z</time></trkpt><trkpt lat="47.32055951227328" lon="5.17717820003451"><ele>217.0</ele><time>2026-04-23T08:17:33.994Z</time></trkpt><trkpt lat="47.320639917138045" lon="5.177186560226015"><ele>217.0</ele><time>2026-04-23T08:17:35.994Z</time></trkpt><trkpt lat="47.32074467185078" lon="5.177206925033095"><ele>217.0</ele><time>2026-04-23T08:17:37.994Z</time></trkpt><trkpt lat="47.321025287986004" lon="5.177211287988267"><ele>217.0</ele><time>2026-04-23T08:17:43.994Z</time></trkpt><trkpt lat="47.321156771317646" lon="5.177213843671195"><ele>217.0</ele><time>2026-04-23T08:17:46.994Z</time></trkpt><trkpt lat="47.321219934012326" lon="5.177262570927652"><ele>217.0</ele><time>2026-04-23T08:17:48.994Z</time></trkpt><trkpt lat="47.32132374212338" lon="5.177296517501216"><ele>217.0</ele><time>2026-04-23T08:17:50.994Z</time></trkpt><trkpt lat="47.321415680065066" lon="5.1772939469244195"><ele>217.0</ele><time>2026-04-23T08:17:52.993Z</time></trkpt><trkpt lat="47.321529836716145" lon="5.1772711403835885"><ele>216.5</ele><time>2026-04-23T08:17:54.993Z</time></trkpt><trkpt lat="47.32162407962421" lon="5.177221804257367"><ele>216.0</ele><time>2026-04-23T08:17:56.993Z</time></trkpt><trkpt lat="47.3217130750651" lon="5.177243639337974"><ele>215.5</ele><time>2026-04-23T08:17:58.993Z</time></trkpt><trkpt lat="47.32194417220994" lon="5.177280081878965"><ele>215.0</ele><time>2026-04-23T08:18:04.993Z</time></trkpt><trkpt lat="47.32211369303207" lon="5.177227341248115"><ele>215.0</ele><time>2026-04-23T08:18:10.993Z</time></trkpt><trkpt lat="47.322183702278636" lon="5.177114532248441"><ele>215.0</ele><time>2026-04-23T08:18:12.993Z</time></trkpt><trkpt lat="47.32227578205709" lon="5.1769932264737415"><ele>215.0</ele><time>2026-04-23T08:18:14.993Z</time></trkpt><trkpt lat="47.322356695050374" lon="5.176865886770905"><ele>215.0</ele><time>2026-04-23T08:18:16.993Z</time></trkpt><trkpt lat="47.32242302722344" lon="5.17674357903971"><ele>214.6</ele><time>2026-04-23T08:18:18.993Z</time></trkpt><trkpt lat="47.32246810679887" lon="5.176588445452343"><ele>214.2</ele><time>2026-04-23T08:18:20.993Z</time></trkpt><trkpt lat="47.322501818038006" lon="5.176458489871301"><ele>213.8</ele><time>2026-04-23T08:18:22.993Z</time></trkpt><trkpt lat="47.322553459742785" lon="5.176348383682961"><ele>213.4</ele><time>2026-04-23T08:18:24.993Z</time></trkpt><trkpt lat="47.32261694638657" lon="5.176293281035959"><ele>213.0</ele><time>2026-04-23T08:18:26.993Z</time></trkpt><trkpt lat="47.322713149916254" lon="5.176305908623191"><ele>212.60000000000002</ele><time>2026-04-23T08:18:28.993Z</time></trkpt><trkpt lat="47.32280620392958" lon="5.176336427674327"><ele>212.20000000000002</ele><time>2026-04-23T08:18:30.993Z</time></trkpt><trkpt lat="47.32290259300413" lon="5.1763611784793"><ele>211.8</ele><time>2026-04-23T08:18:32.993Z</time></trkpt><trkpt lat="47.32299273973675" lon="5.176382438965176"><ele>211.4</ele><time>2026-04-23T08:18:34.993Z</time></trkpt><trkpt lat="47.32309353417078" lon="5.1763960614720945"><ele>211.0</ele><time>2026-04-23T08:18:36.993Z</time></trkpt><trkpt lat="47.32319483228373" lon="5.176419627048291"><ele>211.0</ele><time>2026-04-23T08:18:38.993Z</time></trkpt><trkpt lat="47.32329457858539" lon="5.176450384641339"><ele>211.0</ele><time>2026-04-23T08:18:40.993Z</time></trkpt><trkpt lat="47.3234009462747" lon="5.176469002934847"><ele>211.0</ele><time>2026-04-23T08:18:42.993Z</time></trkpt><trkpt lat="47.323503482299685" lon="5.176496977030282"><ele>211.0</ele><time>2026-04-23T08:18:44.993Z</time></trkpt><trkpt lat="47.32360943719567" lon="5.176528510465678"><ele>211.0</ele><time>2026-04-23T08:18:46.993Z</time></trkpt><trkpt lat="47.32370292431071" lon="5.17656132974836"><ele>211.4</ele><time>2026-04-23T08:18:48.993Z</time></trkpt><trkpt lat="47.323815022286155" lon="5.176582117259886"><ele>211.8</ele><time>2026-04-23T08:18:50.993Z</time></trkpt><trkpt lat="47.32391313818462" lon="5.176613921021279"><ele>212.20000000000002</ele><time>2026-04-23T08:18:52.993Z</time></trkpt><trkpt lat="47.32401595737499" lon="5.1766402265268745"><ele>212.60000000000002</ele><time>2026-04-23T08:18:54.993Z</time></trkpt><trkpt lat="47.324122316699835" lon="5.176660650481054"><ele>213.0</ele><time>2026-04-23T08:18:56.993Z</time></trkpt><trkpt lat="47.32422753149251" lon="5.176697849000196"><ele>213.0</ele><time>2026-04-23T08:18:58.993Z</time></trkpt><trkpt lat="47.32433550914043" lon="5.176728101713804"><ele>213.0</ele><time>2026-04-23T08:19:00.993Z</time></trkpt><trkpt lat="47.324438436549904" lon="5.176754174740318"><ele>213.0</ele><time>2026-04-23T08:19:02.993Z</time></trkpt><trkpt lat="47.324545267747204" lon="5.176784315081803"><ele>213.0</ele><time>2026-04-23T08:19:04.993Z</time></trkpt><trkpt lat="47.32465342810823" lon="5.176805182938211"><ele>213.0</ele><time>2026-04-23T08:19:06.993Z</time></trkpt><trkpt lat="47.32475410388182" lon="5.176825208690896"><ele>213.0</ele><time>2026-04-23T08:19:08.993Z</time></trkpt><trkpt lat="47.32485847450802" lon="5.176822088912017"><ele>213.0</ele><time>2026-04-23T08:19:10.993Z</time></trkpt><trkpt lat="47.32495416994393" lon="5.176791139410491"><ele>213.0</ele><time>2026-04-23T08:19:12.993Z</time></trkpt><trkpt lat="47.32504574869017" lon="5.176751275222993"><ele>213.0</ele><time>2026-04-23T08:19:14.993Z</time></trkpt><trkpt lat="47.32513847444746" lon="5.176705149229948"><ele>213.0</ele><time>2026-04-23T08:19:16.993Z</time></trkpt><trkpt lat="47.325234295546025" lon="5.176654764472665"><ele>213.0</ele><time>2026-04-23T08:19:18.993Z</time></trkpt><trkpt lat="47.32532831723717" lon="5.176613344349458"><ele>213.0</ele><time>2026-04-23T08:19:20.993Z</time></trkpt><trkpt lat="47.32543226874754" lon="5.176574992898793"><ele>213.0</ele><time>2026-04-23T08:19:22.993Z</time></trkpt><trkpt lat="47.32552589955358" lon="5.176538965184033"><ele>213.0</ele><time>2026-04-23T08:19:24.993Z</time></trkpt><trkpt lat="47.325634455887304" lon="5.176533204930265"><ele>213.0</ele><time>2026-04-23T08:19:26.993Z</time></trkpt><trkpt lat="47.32573522216238" lon="5.176500493348252"><ele>213.0</ele><time>2026-04-23T08:19:28.993Z</time></trkpt><trkpt lat="47.325824105241516" lon="5.176517105312218"><ele>213.0</ele><time>2026-04-23T08:19:30.993Z</time></trkpt><trkpt lat="47.325911548265864" lon="5.176527696647934"><ele>213.0</ele><time>2026-04-23T08:19:32.993Z</time></trkpt><trkpt lat="47.325997852370456" lon="5.176544084887301"><ele>213.0</ele><time>2026-04-23T08:19:34.993Z</time></trkpt><trkpt lat="47.32609290508821" lon="5.176575197911089"><ele>213.0</ele><time>2026-04-23T08:19:36.993Z</time></trkpt><trkpt lat="47.32620175422178" lon="5.176619362053578"><ele>213.4</ele><time>2026-04-23T08:19:38.993Z</time></trkpt><trkpt lat="47.32631969724031" lon="5.176676488938637"><ele>213.8</ele><time>2026-04-23T08:19:40.993Z</time></trkpt><trkpt lat="47.326440676452286" lon="5.176702500857527"><ele>214.2</ele><time>2026-04-23T08:19:42.992Z</time></trkpt><trkpt lat="47.32650280784807" lon="5.176722860084969"><ele>214.6</ele><time>2026-04-23T08:19:43.992Z</time></trkpt><trkpt lat="47.32661320888404" lon="5.17674540987652"><ele>215.0</ele><time>2026-04-23T08:19:45.992Z</time></trkpt><trkpt lat="47.326720024200846" lon="5.176777903589323"><ele>215.00000000000003</ele><time>2026-04-23T08:19:47.992Z</time></trkpt><trkpt lat="47.3268099978549" lon="5.176794701433309"><ele>215.0</ele><time>2026-04-23T08:19:49.992Z</time></trkpt><trkpt lat="47.32687868570507" lon="5.176818120578761"><ele>215.0</ele><time>2026-04-23T08:19:51.992Z</time></trkpt><trkpt lat="47.32697143678543" lon="5.176863666091422"><ele>215.0</ele><time>2026-04-23T08:19:53.992Z</time></trkpt><trkpt lat="47.32705498365937" lon="5.176901014621617"><ele>215.00000000000003</ele><time>2026-04-23T08:19:55.992Z</time></trkpt><trkpt lat="47.32714431024249" lon="5.176937369816637"><ele>215.0</ele><time>2026-04-23T08:19:57.992Z</time></trkpt><trkpt lat="47.32725626287577" lon="5.176994013954196"><ele>214.25</ele><time>2026-04-23T08:19:59.992Z</time></trkpt><trkpt lat="47.32735932024164" lon="5.177045771506485"><ele>213.5</ele><time>2026-04-23T08:20:01.992Z</time></trkpt><trkpt lat="47.327468090372335" lon="5.17708662451496"><ele>212.75</ele><time>2026-04-23T08:20:03.992Z</time></trkpt><trkpt lat="47.32758238681516" lon="5.177142660936001"><ele>212.0</ele><time>2026-04-23T08:20:05.992Z</time></trkpt><trkpt lat="47.327695838844534" lon="5.177181419226125"><ele>212.0</ele><time>2026-04-23T08:20:07.992Z</time></trkpt><trkpt lat="47.327807542120254" lon="5.177238442695712"><ele>212.0</ele><time>2026-04-23T08:20:09.992Z</time></trkpt><trkpt lat="47.327917601534836" lon="5.1772899839997635"><ele>212.0</ele><time>2026-04-23T08:20:11.992Z</time></trkpt><trkpt lat="47.32802221382313" lon="5.177321583059139"><ele>212.0</ele><time>2026-04-23T08:20:13.992Z</time></trkpt><trkpt lat="47.32812647092239" lon="5.177332919855349"><ele>212.0</ele><time>2026-04-23T08:20:15.992Z</time></trkpt><trkpt lat="47.32822012907774" lon="5.1773675779359865"><ele>212.2</ele><time>2026-04-23T08:20:17.992Z</time></trkpt><trkpt lat="47.32831514003688" lon="5.177371337111658"><ele>212.39999999999998</ele><time>2026-04-23T08:20:19.992Z</time></trkpt><trkpt lat="47.32843073350003" lon="5.17740611896978"><ele>212.60000000000002</ele><time>2026-04-23T08:20:21.992Z</time></trkpt><trkpt lat="47.32852799114166" lon="5.177455077617426"><ele>212.8</ele><time>2026-04-23T08:20:23.992Z</time></trkpt><trkpt lat="47.32862916365148" lon="5.177482230054083"><ele>213.0</ele><time>2026-04-23T08:20:25.992Z</time></trkpt><trkpt lat="47.328706403234285" lon="5.177509201165922"><ele>213.0</ele><time>2026-04-23T08:20:27.992Z</time></trkpt><trkpt lat="47.328852513557905" lon="5.177524351281635"><ele>213.0</ele><time>2026-04-23T08:20:30.992Z</time></trkpt><trkpt lat="47.328942470627815" lon="5.177548202439877"><ele>213.0</ele><time>2026-04-23T08:20:32.992Z</time></trkpt><trkpt lat="47.329047859760166" lon="5.17757170201887"><ele>213.0</ele><time>2026-04-23T08:20:34.992Z</time></trkpt><trkpt lat="47.32909622234445" lon="5.177641447614942"><ele>213.0</ele><time>2026-04-23T08:20:35.992Z</time></trkpt><trkpt lat="47.32913254246658" lon="5.177717577638946"><ele>213.0</ele><time>2026-04-23T08:20:36.992Z</time></trkpt><trkpt lat="47.329156846604256" lon="5.177861155798188"><ele>213.0</ele><time>2026-04-23T08:20:38.992Z</time></trkpt><trkpt lat="47.329173797958966" lon="5.1779936368142625"><ele>213.0</ele><time>2026-04-23T08:20:40.992Z</time></trkpt><trkpt lat="47.329192922945396" lon="5.178136060422235"><ele>213.0</ele><time>2026-04-23T08:20:42.992Z</time></trkpt><trkpt lat="47.32920756731197" lon="5.178309454069118"><ele>213.0</ele><time>2026-04-23T08:20:44.992Z</time></trkpt><trkpt lat="47.32920561417522" lon="5.178478045629814"><ele>212.75</ele><time>2026-04-23T08:20:46.992Z</time></trkpt><trkpt lat="47.3292042910342" lon="5.178649256710394"><ele>212.5</ele><time>2026-04-23T08:20:48.992Z</time></trkpt><trkpt lat="47.329203274381925" lon="5.178823302709697"><ele>212.25</ele><time>2026-04-23T08:20:50.992Z</time></trkpt><trkpt lat="47.329191687941965" lon="5.178987049262673"><ele>212.0</ele><time>2026-04-23T08:20:52.992Z</time></trkpt><trkpt lat="47.32918652127635" lon="5.179149777334095"><ele>212.0</ele><time>2026-04-23T08:20:54.992Z</time></trkpt><trkpt lat="47.32917592041029" lon="5.179316532651783"><ele>212.0</ele><time>2026-04-23T08:20:56.992Z</time></trkpt><trkpt lat="47.32916734942183" lon="5.17947992612989"><ele>212.0</ele><time>2026-04-23T08:20:58.992Z</time></trkpt><trkpt lat="47.32916196150258" lon="5.179637020507814"><ele>212.0</ele><time>2026-04-23T08:21:00.992Z</time></trkpt><trkpt lat="47.32915047301685" lon="5.179795467837439"><ele>212.0</ele><time>2026-04-23T08:21:02.992Z</time></trkpt><trkpt lat="47.329143703049795" lon="5.179951010855007"><ele>212.0</ele><time>2026-04-23T08:21:04.992Z</time></trkpt><trkpt lat="47.32913540125229" lon="5.180109285810983"><ele>212.0</ele><time>2026-04-23T08:21:06.992Z</time></trkpt><trkpt lat="47.329125361689925" lon="5.180263565079469"><ele>212.0</ele><time>2026-04-23T08:21:08.992Z</time></trkpt><trkpt lat="47.32911331189603" lon="5.180419275889235"><ele>212.0</ele><time>2026-04-23T08:21:10.992Z</time></trkpt><trkpt lat="47.32910574183548" lon="5.180574945923357"><ele>212.0</ele><time>2026-04-23T08:21:12.992Z</time></trkpt><trkpt lat="47.32909381482634" lon="5.18072571822364"><ele>212.2</ele><time>2026-04-23T08:21:14.992Z</time></trkpt><trkpt lat="47.32908583616389" lon="5.1808772858285534"><ele>212.39999999999998</ele><time>2026-04-23T08:21:16.992Z</time></trkpt><trkpt lat="47.32907477224347" lon="5.181027274255199"><ele>212.60000000000002</ele><time>2026-04-23T08:21:18.992Z</time></trkpt><trkpt lat="47.329068288554446" lon="5.181177285018569"><ele>212.8</ele><time>2026-04-23T08:21:20.992Z</time></trkpt><trkpt lat="47.32906199527493" lon="5.1813281776128015"><ele>213.0</ele><time>2026-04-23T08:21:22.992Z</time></trkpt><trkpt lat="47.32905017924645" lon="5.18148749527965"><ele>212.8</ele><time>2026-04-23T08:21:24.992Z</time></trkpt><trkpt lat="47.32904506507105" lon="5.181642802395086"><ele>212.60000000000002</ele><time>2026-04-23T08:21:26.992Z</time></trkpt><trkpt lat="47.32904923575568" lon="5.181800072372771"><ele>212.39999999999998</ele><time>2026-04-23T08:21:28.992Z</time></trkpt><trkpt lat="47.329036285238445" lon="5.18194861651687"><ele>212.2</ele><time>2026-04-23T08:21:30.992Z</time></trkpt><trkpt lat="47.32908045441655" lon="5.182071918190328"><ele>212.0</ele><time>2026-04-23T08:21:32.991Z</time></trkpt><trkpt lat="47.32919053339337" lon="5.182096400407983"><ele>212.0</ele><time>2026-04-23T08:21:34.991Z</time></trkpt><trkpt lat="47.329301240456545" lon="5.182090146567035"><ele>212.0</ele><time>2026-04-23T08:21:36.991Z</time></trkpt><trkpt lat="47.329414850115555" lon="5.18210020813598"><ele>212.0</ele><time>2026-04-23T08:21:38.991Z</time></trkpt><trkpt lat="47.329524032244876" lon="5.182100639157321"><ele>212.0</ele><time>2026-04-23T08:21:40.991Z</time></trkpt><trkpt lat="47.32963462962054" lon="5.18210595215317"><ele>212.0</ele><time>2026-04-23T08:21:42.991Z</time></trkpt><trkpt lat="47.329745383935766" lon="5.1821144697543655"><ele>212.25</ele><time>2026-04-23T08:21:44.991Z</time></trkpt><trkpt lat="47.32985358341733" lon="5.182110984092408"><ele>212.5</ele><time>2026-04-23T08:21:46.991Z</time></trkpt><trkpt lat="47.329969740299056" lon="5.1821160740530745"><ele>212.75</ele><time>2026-04-23T08:21:48.991Z</time></trkpt><trkpt lat="47.33008353404166" lon="5.182114106414909"><ele>213.0</ele><time>2026-04-23T08:21:50.991Z</time></trkpt><trkpt lat="47.33019521046651" lon="5.182113797364185"><ele>213.0</ele><time>2026-04-23T08:21:52.991Z</time></trkpt><trkpt lat="47.33031123719256" lon="5.182117020157872"><ele>213.0</ele><time>2026-04-23T08:21:54.991Z</time></trkpt><trkpt lat="47.3304254658483" lon="5.182116894712948"><ele>213.0</ele><time>2026-04-23T08:21:56.991Z</time></trkpt><trkpt lat="47.33053777398643" lon="5.1821167497078555"><ele>213.0</ele><time>2026-04-23T08:21:58.991Z</time></trkpt><trkpt lat="47.33064810318578" lon="5.182120798695725"><ele>212.75</ele><time>2026-04-23T08:22:00.991Z</time></trkpt><trkpt lat="47.330760960481896" lon="5.182119948174042"><ele>212.5</ele><time>2026-04-23T08:22:02.991Z</time></trkpt><trkpt lat="47.33087125238005" lon="5.182118729112183"><ele>212.25</ele><time>2026-04-23T08:22:04.991Z</time></trkpt><trkpt lat="47.33098758492707" lon="5.182122556081724"><ele>212.0</ele><time>2026-04-23T08:22:06.991Z</time></trkpt><trkpt lat="47.33110310671692" lon="5.182123702111888"><ele>212.0</ele><time>2026-04-23T08:22:08.991Z</time></trkpt><trkpt lat="47.3312182732679" lon="5.182132852956093"><ele>212.0</ele><time>2026-04-23T08:22:10.991Z</time></trkpt><trkpt lat="47.331332160598805" lon="5.182142132924918"><ele>212.0</ele><time>2026-04-23T08:22:12.991Z</time></trkpt><trkpt lat="47.3314437086803" lon="5.18214333872443"><ele>212.0</ele><time>2026-04-23T08:22:14.991Z</time></trkpt><trkpt lat="47.3315593911588" lon="5.182153000337173"><ele>212.2</ele><time>2026-04-23T08:22:16.991Z</time></trkpt><trkpt lat="47.331668921391206" lon="5.182149759392614"><ele>212.39999999999998</ele><time>2026-04-23T08:22:18.991Z</time></trkpt><trkpt lat="47.33178050917234" lon="5.182155600965347"><ele>212.60000000000002</ele><time>2026-04-23T08:22:20.991Z</time></trkpt><trkpt lat="47.33189082985483" lon="5.182154647777132"><ele>212.8</ele><time>2026-04-23T08:22:22.991Z</time></trkpt><trkpt lat="47.33199468357365" lon="5.182146645246787"><ele>213.0</ele><time>2026-04-23T08:22:24.991Z</time></trkpt><trkpt lat="47.332106624044656" lon="5.182144995435759"><ele>213.0</ele><time>2026-04-23T08:22:26.991Z</time></trkpt><trkpt lat="47.33221880893641" lon="5.182142115422842"><ele>213.0</ele><time>2026-04-23T08:22:28.991Z</time></trkpt><trkpt lat="47.33233212590356" lon="5.182142515462771"><ele>213.0</ele><time>2026-04-23T08:22:30.991Z</time></trkpt><trkpt lat="47.332441242259925" lon="5.182146917615391"><ele>213.0</ele><time>2026-04-23T08:22:32.991Z</time></trkpt><trkpt lat="47.33255005303257" lon="5.182145757950467"><ele>213.0</ele><time>2026-04-23T08:22:34.991Z</time></trkpt><trkpt lat="47.332661568515114" lon="5.182151521421332"><ele>213.0</ele><time>2026-04-23T08:22:36.991Z</time></trkpt><trkpt lat="47.33277346026016" lon="5.182141273262347"><ele>213.0</ele><time>2026-04-23T08:22:38.991Z</time></trkpt><trkpt lat="47.33288608147108" lon="5.18214423472594"><ele>213.0</ele><time>2026-04-23T08:22:40.991Z</time></trkpt><trkpt lat="47.33299910543866" lon="5.182143529054338"><ele>213.0</ele><time>2026-04-23T08:22:42.991Z</time></trkpt><trkpt lat="47.33311488646247" lon="5.182143426593275"><ele>212.8</ele><time>2026-04-23T08:22:44.991Z</time></trkpt><trkpt lat="47.33322860013294" lon="5.182149418921673"><ele>212.60000000000002</ele><time>2026-04-23T08:22:46.991Z</time></trkpt><trkpt lat="47.33333575934288" lon="5.182146834247029"><ele>212.39999999999998</ele><time>2026-04-23T08:22:48.991Z</time></trkpt><trkpt lat="47.33344607990303" lon="5.18215205161451"><ele>212.2</ele><time>2026-04-23T08:22:50.991Z</time></trkpt><trkpt lat="47.33356340991902" lon="5.1821602883544875"><ele>212.0</ele><time>2026-04-23T08:22:52.991Z</time></trkpt><trkpt lat="47.33367783086079" lon="5.182152126214691"><ele>212.0</ele><time>2026-04-23T08:22:54.991Z</time></trkpt><trkpt lat="47.333787391195436" lon="5.182154363568418"><ele>212.0</ele><time>2026-04-23T08:22:56.991Z</time></trkpt><trkpt lat="47.333901070432034" lon="5.18215526763887"><ele>212.0</ele><time>2026-04-23T08:22:58.991Z</time></trkpt><trkpt lat="47.33401083123573" lon="5.18215395928454"><ele>212.0</ele><time>2026-04-23T08:23:00.991Z</time></trkpt><trkpt lat="47.33412049229364" lon="5.182146210802838"><ele>212.0</ele><time>2026-04-23T08:23:02.991Z</time></trkpt><trkpt lat="47.33423529452" lon="5.182148621232594"><ele>212.25</ele><time>2026-04-23T08:23:04.991Z</time></trkpt><trkpt lat="47.33435272257251" lon="5.1821518264515305"><ele>212.5</ele><time>2026-04-23T08:23:06.991Z</time></trkpt><trkpt lat="47.33446584359412" lon="5.182153306468252"><ele>212.75</ele><time>2026-04-23T08:23:08.991Z</time></trkpt><trkpt lat="47.334577416908914" lon="5.182159832078406"><ele>213.0</ele><time>2026-04-23T08:23:10.991Z</time></trkpt><trkpt lat="47.33468803326009" lon="5.182179664037773"><ele>213.2</ele><time>2026-04-23T08:23:12.991Z</time></trkpt><trkpt lat="47.334796267612575" lon="5.182180070340518"><ele>213.4</ele><time>2026-04-23T08:23:14.991Z</time></trkpt><trkpt lat="47.334911809397134" lon="5.182180857742547"><ele>213.59999999999997</ele><time>2026-04-23T08:23:16.991Z</time></trkpt><trkpt lat="47.335020497445086" lon="5.1821808657730655"><ele>213.79999999999998</ele><time>2026-04-23T08:23:18.991Z</time></trkpt><trkpt lat="47.33513479849207" lon="5.182186432116861"><ele>214.0</ele><time>2026-04-23T08:23:20.99Z</time></trkpt><trkpt lat="47.33524878898928" lon="5.18218828460082"><ele>214.0</ele><time>2026-04-23T08:23:22.99Z</time></trkpt><trkpt lat="47.33536565414198" lon="5.182186889275059"><ele>214.0</ele><time>2026-04-23T08:23:24.99Z</time></trkpt><trkpt lat="47.33547846660896" lon="5.182188632794302"><ele>214.0</ele><time>2026-04-23T08:23:26.99Z</time></trkpt><trkpt lat="47.33559551295318" lon="5.18219571509107"><ele>214.0</ele><time>2026-04-23T08:23:28.99Z</time></trkpt><trkpt lat="47.33570918742444" lon="5.182189597925709"><ele>213.79999999999998</ele><time>2026-04-23T08:23:30.99Z</time></trkpt><trkpt lat="47.33581956074971" lon="5.182193146547785"><ele>213.59999999999997</ele><time>2026-04-23T08:23:32.99Z</time></trkpt><trkpt lat="47.33592894731476" lon="5.1821982654727945"><ele>213.4</ele><time>2026-04-23T08:23:34.99Z</time></trkpt><trkpt lat="47.33603809439377" lon="5.182189340766086"><ele>213.2</ele><time>2026-04-23T08:23:36.99Z</time></trkpt><trkpt lat="47.336153426276006" lon="5.182186178217975"><ele>213.0</ele><time>2026-04-23T08:23:38.99Z</time></trkpt><trkpt lat="47.33626557968978" lon="5.1822017430412535"><ele>213.0</ele><time>2026-04-23T08:23:40.99Z</time></trkpt><trkpt lat="47.33637635071355" lon="5.182203276261882"><ele>213.0</ele><time>2026-04-23T08:23:42.99Z</time></trkpt><trkpt lat="47.33648442880037" lon="5.18220452922795"><ele>213.0</ele><time>2026-04-23T08:23:44.99Z</time></trkpt><trkpt lat="47.336592828316704" lon="5.18219836578329"><ele>213.0</ele><time>2026-04-23T08:23:46.99Z</time></trkpt><trkpt lat="47.33670112207758" lon="5.182206622732731"><ele>213.0</ele><time>2026-04-23T08:23:48.99Z</time></trkpt><trkpt lat="47.336802713062696" lon="5.182207119016996"><ele>213.25</ele><time>2026-04-23T08:23:50.99Z</time></trkpt><trkpt lat="47.33691523235382" lon="5.182206897281453"><ele>213.5</ele><time>2026-04-23T08:23:52.99Z</time></trkpt><trkpt lat="47.3370251345585" lon="5.182211543301965"><ele>213.75</ele><time>2026-04-23T08:23:54.99Z</time></trkpt><trkpt lat="47.33713752172049" lon="5.1822146893987355"><ele>214.0</ele><time>2026-04-23T08:23:56.99Z</time></trkpt><trkpt lat="47.33725319748265" lon="5.182218430106962"><ele>214.0</ele><time>2026-04-23T08:23:58.99Z</time></trkpt><trkpt lat="47.33736635646288" lon="5.182221254878631"><ele>214.0</ele><time>2026-04-23T08:24:00.99Z</time></trkpt><trkpt lat="47.33747987027203" lon="5.182222710380958"><ele>214.0</ele><time>2026-04-23T08:24:02.99Z</time></trkpt><trkpt lat="47.337593187463796" lon="5.182226734541405"><ele>214.0</ele><time>2026-04-23T08:24:04.99Z</time></trkpt><trkpt lat="47.33770670918888" lon="5.182227707719906"><ele>214.0</ele><time>2026-04-23T08:24:06.99Z</time></trkpt><trkpt lat="47.3378184242435" lon="5.182230506818226"><ele>214.0</ele><time>2026-04-23T08:24:08.99Z</time></trkpt><trkpt lat="47.33792938077556" lon="5.1822292862873915"><ele>214.0</ele><time>2026-04-23T08:24:10.99Z</time></trkpt><trkpt lat="47.33804510255795" lon="5.18223455128749"><ele>214.0</ele><time>2026-04-23T08:24:12.99Z</time></trkpt><trkpt lat="47.338159742953884" lon="5.182236716866087"><ele>214.0</ele><time>2026-04-23T08:24:14.99Z</time></trkpt><trkpt lat="47.33827471270806" lon="5.18223835338005"><ele>214.0</ele><time>2026-04-23T08:24:16.99Z</time></trkpt><trkpt lat="47.33838977520295" lon="5.1822375224138435"><ele>214.0</ele><time>2026-04-23T08:24:18.99Z</time></trkpt><trkpt lat="47.338510017738166" lon="5.182238605369465"><ele>214.0</ele><time>2026-04-23T08:24:20.99Z</time></trkpt><trkpt lat="47.33861947724302" lon="5.182244697253815"><ele>214.0</ele><time>2026-04-23T08:24:22.99Z</time></trkpt><trkpt lat="47.338734111442086" lon="5.182243870570897"><ele>214.0</ele><time>2026-04-23T08:24:24.99Z</time></trkpt><trkpt lat="47.33884714319907" lon="5.1822468596159235"><ele>214.0</ele><time>2026-04-23T08:24:26.99Z</time></trkpt><trkpt lat="47.3389575285683" lon="5.1822479608668655"><ele>214.0</ele><time>2026-04-23T08:24:28.99Z</time></trkpt><trkpt lat="47.33907697133588" lon="5.182250451016085"><ele>214.5</ele><time>2026-04-23T08:24:30.99Z</time></trkpt><trkpt lat="47.3391931425234" lon="5.182248219625388"><ele>215.0</ele><time>2026-04-23T08:24:32.99Z</time></trkpt><trkpt lat="47.33931060389931" lon="5.1822490856596515"><ele>215.5</ele><time>2026-04-23T08:24:34.99Z</time></trkpt><trkpt lat="47.339420841272954" lon="5.182235884912681"><ele>216.0</ele><time>2026-04-23T08:24:36.99Z</time></trkpt><trkpt lat="47.33952998699525" lon="5.182245479694902"><ele>216.0</ele><time>2026-04-23T08:24:38.99Z</time></trkpt><trkpt lat="47.33963953540893" lon="5.182259051558695"><ele>216.00000000000003</ele><time>2026-04-23T08:24:40.99Z</time></trkpt><trkpt lat="47.339748383346205" lon="5.18225989712115"><ele>216.00000000000003</ele><time>2026-04-23T08:24:42.99Z</time></trkpt><trkpt lat="47.3398585807976" lon="5.1822554997753905"><ele>216.0</ele><time>2026-04-23T08:24:44.99Z</time></trkpt><trkpt lat="47.33996774073975" lon="5.18224571858104"><ele>216.0</ele><time>2026-04-23T08:24:46.99Z</time></trkpt><trkpt lat="47.34008302972686" lon="5.182230829955316"><ele>215.75</ele><time>2026-04-23T08:24:48.99Z</time></trkpt><trkpt lat="47.340195073036966" lon="5.182190534113464"><ele>215.5</ele><time>2026-04-23T08:24:50.99Z</time></trkpt><trkpt lat="47.340308069594755" lon="5.182156207836054"><ele>215.25</ele><time>2026-04-23T08:24:52.99Z</time></trkpt><trkpt lat="47.340419562970204" lon="5.182120867025797"><ele>215.0</ele><time>2026-04-23T08:24:54.99Z</time></trkpt><trkpt lat="47.34053481218232" lon="5.182103026163765"><ele>215.0</ele><time>2026-04-23T08:24:56.99Z</time></trkpt><trkpt lat="47.34059777501852" lon="5.182093658911454"><ele>215.0</ele><time>2026-04-23T08:24:57.99Z</time></trkpt><trkpt lat="47.34071747500325" lon="5.182086297549838"><ele>215.0</ele><time>2026-04-23T08:24:59.99Z</time></trkpt><trkpt lat="47.340832206431855" lon="5.182088028341386"><ele>215.0</ele><time>2026-04-23T08:25:01.99Z</time></trkpt><trkpt lat="47.34094957494224" lon="5.1821000835159605"><ele>215.0</ele><time>2026-04-23T08:25:03.99Z</time></trkpt><trkpt lat="47.34106184349126" lon="5.182101170399262"><ele>215.0</ele><time>2026-04-23T08:25:05.99Z</time></trkpt><trkpt lat="47.341171768184026" lon="5.1821030213205495"><ele>215.0</ele><time>2026-04-23T08:25:07.99Z</time></trkpt><trkpt lat="47.3412709801711" lon="5.182138848315816"><ele>215.0</ele><time>2026-04-23T08:25:09.99Z</time></trkpt><trkpt lat="47.341378073094894" lon="5.182188343963752"><ele>215.0</ele><time>2026-04-23T08:25:11.989Z</time></trkpt><trkpt lat="47.34147161869321" lon="5.182264200157483"><ele>215.0</ele><time>2026-04-23T08:25:13.989Z</time></trkpt><trkpt lat="47.34156336304903" lon="5.182322157792099"><ele>215.4</ele><time>2026-04-23T08:25:15.989Z</time></trkpt><trkpt lat="47.34164727516201" lon="5.182371972890225"><ele>215.8</ele><time>2026-04-23T08:25:17.989Z</time></trkpt><trkpt lat="47.341692392790385" lon="5.182469783677745"><ele>216.2</ele><time>2026-04-23T08:25:19.989Z</time></trkpt><trkpt lat="47.34167439165407" lon="5.1825971513116205"><ele>216.6</ele><time>2026-04-23T08:25:21.989Z</time></trkpt><trkpt lat="47.34163844483938" lon="5.182731844354669"><ele>217.0</ele><time>2026-04-23T08:25:23.989Z</time></trkpt><trkpt lat="47.34166098574028" lon="5.182871275369934"><ele>217.0</ele><time>2026-04-23T08:25:25.989Z</time></trkpt><trkpt lat="47.34171780520558" lon="5.182978715219716"><ele>217.0</ele><time>2026-04-23T08:25:27.989Z</time></trkpt><trkpt lat="47.341799679720296" lon="5.183066585343589"><ele>217.0</ele><time>2026-04-23T08:25:29.989Z</time></trkpt><trkpt lat="47.34188408032783" lon="5.183147793726755"><ele>217.0</ele><time>2026-04-23T08:25:31.989Z</time></trkpt><trkpt lat="47.34196111695972" lon="5.183249125568356"><ele>217.0</ele><time>2026-04-23T08:25:33.989Z</time></trkpt><trkpt lat="47.3420392219786" lon="5.183346690476568"><ele>217.0</ele><time>2026-04-23T08:25:35.989Z</time></trkpt><trkpt lat="47.34211686558072" lon="5.183436152877132"><ele>217.0</ele><time>2026-04-23T08:25:37.989Z</time></trkpt><trkpt lat="47.34219194802964" lon="5.183535924343233"><ele>217.0</ele><time>2026-04-23T08:25:39.989Z</time></trkpt><trkpt lat="47.34226651274378" lon="5.183627255681881"><ele>217.0</ele><time>2026-04-23T08:25:41.989Z</time></trkpt><trkpt lat="47.34234172295356" lon="5.18370934746302"><ele>217.0</ele><time>2026-04-23T08:25:43.989Z</time></trkpt><trkpt lat="47.34241259878574" lon="5.1838011568922155"><ele>216.99999999999997</ele><time>2026-04-23T08:25:45.989Z</time></trkpt><trkpt lat="47.34248441173038" lon="5.183880638261267"><ele>217.0</ele><time>2026-04-23T08:25:47.989Z</time></trkpt><trkpt lat="47.34254781360263" lon="5.183959458498325"><ele>217.0</ele><time>2026-04-23T08:25:49.989Z</time></trkpt><trkpt lat="47.342592904195186" lon="5.184060676306867"><ele>217.0</ele><time>2026-04-23T08:25:51.989Z</time></trkpt><trkpt lat="47.34260066680873" lon="5.184196319770606"><ele>216.99999999999997</ele><time>2026-04-23T08:25:53.989Z</time></trkpt><trkpt lat="47.34258922758075" lon="5.1843247844515785"><ele>217.0</ele><time>2026-04-23T08:25:55.989Z</time></trkpt><trkpt lat="47.34255827298623" lon="5.1844545199427206"><ele>217.33333333333331</ele><time>2026-04-23T08:25:57.989Z</time></trkpt><trkpt lat="47.34253990362651" lon="5.184592801817309"><ele>217.66666666666666</ele><time>2026-04-23T08:25:59.989Z</time></trkpt><trkpt lat="47.34251708916523" lon="5.1847076018619145"><ele>218.0</ele><time>2026-04-23T08:26:01.989Z</time></trkpt><trkpt lat="47.34251000292423" lon="5.184808068347773"><ele>218.33333333333331</ele><time>2026-04-23T08:26:03.989Z</time></trkpt><trkpt lat="47.342530113134394" lon="5.184914240098303"><ele>218.66666666666666</ele><time>2026-04-23T08:26:06.989Z</time></trkpt><trkpt lat="47.342572637298865" lon="5.184832242067631"><ele>219.0</ele><time>2026-04-23T08:26:08.989Z</time></trkpt><trkpt lat="47.34254255635499" lon="5.184711348899597"><ele>219.0</ele><time>2026-04-23T08:26:10.989Z</time></trkpt><trkpt lat="47.34257366902316" lon="5.184583359720599"><ele>218.99999999999997</ele><time>2026-04-23T08:26:12.989Z</time></trkpt><trkpt lat="47.34260230474015" lon="5.184438844929031"><ele>218.99999999999997</ele><time>2026-04-23T08:26:14.989Z</time></trkpt><trkpt lat="47.342631707636954" lon="5.184285754816471"><ele>219.0</ele><time>2026-04-23T08:26:16.989Z</time></trkpt><trkpt lat="47.34265685727516" lon="5.184120695852929"><ele>219.0</ele><time>2026-04-23T08:26:18.989Z</time></trkpt><trkpt lat="47.3426803851585" lon="5.183958360619209"><ele>218.5</ele><time>2026-04-23T08:26:20.989Z</time></trkpt><trkpt lat="47.34270870332633" lon="5.183793638339915"><ele>218.0</ele><time>2026-04-23T08:26:22.989Z</time></trkpt><trkpt lat="47.3427214990249" lon="5.18362491509418"><ele>217.5</ele><time>2026-04-23T08:26:24.989Z</time></trkpt><trkpt lat="47.34272449687188" lon="5.1834518208543265"><ele>217.0</ele><time>2026-04-23T08:26:26.989Z</time></trkpt><trkpt lat="47.342726365879436" lon="5.183280415668657"><ele>217.0</ele><time>2026-04-23T08:26:28.989Z</time></trkpt><trkpt lat="47.342724936986485" lon="5.1831149180606255"><ele>217.0</ele><time>2026-04-23T08:26:30.989Z</time></trkpt><trkpt lat="47.342710146853" lon="5.182952269461385"><ele>217.0</ele><time>2026-04-23T08:26:32.989Z</time></trkpt><trkpt lat="47.34269632613304" lon="5.1827822824304794"><ele>217.0</ele><time>2026-04-23T08:26:34.989Z</time></trkpt><trkpt lat="47.34267646962458" lon="5.182618869138954"><ele>217.0</ele><time>2026-04-23T08:26:36.989Z</time></trkpt><trkpt lat="47.342655380390916" lon="5.182452274998669"><ele>217.0</ele><time>2026-04-23T08:26:38.989Z</time></trkpt><trkpt lat="47.34269339929256" lon="5.182312296403644"><ele>217.0</ele><time>2026-04-23T08:26:40.989Z</time></trkpt><trkpt lat="47.34275288445497" lon="5.182271965883893"><ele>217.0</ele><time>2026-04-23T08:26:41.989Z</time></trkpt><trkpt lat="47.34287228981912" lon="5.182286285908841"><ele>217.0</ele><time>2026-04-23T08:26:43.989Z</time></trkpt><trkpt lat="47.34297547959012" lon="5.182358795344099"><ele>217.0</ele><time>2026-04-23T08:26:45.989Z</time></trkpt><trkpt lat="47.34305065614742" lon="5.182453294068166"><ele>217.0</ele><time>2026-04-23T08:26:47.989Z</time></trkpt><trkpt lat="47.34313408028019" lon="5.1825446703095475"><ele>217.0</ele><time>2026-04-23T08:26:49.989Z</time></trkpt><trkpt lat="47.34319736360355" lon="5.1826663247638365"><ele>217.0</ele><time>2026-04-23T08:26:51.989Z</time></trkpt><trkpt lat="47.343277164838845" lon="5.182751054500716"><ele>217.0</ele><time>2026-04-23T08:26:53.989Z</time></trkpt><trkpt lat="47.343378227173794" lon="5.182773778656299"><ele>217.0</ele><time>2026-04-23T08:26:55.989Z</time></trkpt><trkpt lat="47.3434922947607" lon="5.182796427625715"><ele>217.0</ele><time>2026-04-23T08:26:57.989Z</time></trkpt><trkpt lat="47.343579765190995" lon="5.182820713600201"><ele>217.0</ele><time>2026-04-23T08:26:59.988Z</time></trkpt><trkpt lat="47.343677980571584" lon="5.182828027881354"><ele>217.0</ele><time>2026-04-23T08:27:01.988Z</time></trkpt><trkpt lat="47.343772017874535" lon="5.182840564986306"><ele>217.0</ele><time>2026-04-23T08:27:03.988Z</time></trkpt><trkpt lat="47.34386799505349" lon="5.182844785184315"><ele>216.8</ele><time>2026-04-23T08:27:05.988Z</time></trkpt><trkpt lat="47.34396184684122" lon="5.182886641847888"><ele>216.6</ele><time>2026-04-23T08:27:07.988Z</time></trkpt><trkpt lat="47.34405928722737" lon="5.1829087169557235"><ele>216.40000000000003</ele><time>2026-04-23T08:27:09.998Z</time></trkpt><trkpt lat="47.34414122580189" lon="5.1829314341653685"><ele>216.20000000000002</ele><time>2026-04-23T08:27:11.998Z</time></trkpt><trkpt lat="47.34424519408225" lon="5.182956755505351"><ele>216.0</ele><time>2026-04-23T08:27:13.998Z</time></trkpt><trkpt lat="47.3443519821064" lon="5.183001634772261"><ele>216.0</ele><time>2026-04-23T08:27:15.998Z</time></trkpt><trkpt lat="47.34444958757676" lon="5.18304138179055"><ele>216.0</ele><time>2026-04-23T08:27:17.998Z</time></trkpt><trkpt lat="47.3445401493067" lon="5.183091349259416"><ele>216.0</ele><time>2026-04-23T08:27:19.998Z</time></trkpt><trkpt lat="47.34461975972083" lon="5.183116737829669"><ele>216.0</ele><time>2026-04-23T08:27:21.998Z</time></trkpt><trkpt lat="47.3446847368434" lon="5.183133987645275"><ele>216.0</ele><time>2026-04-23T08:27:23.998Z</time></trkpt><trkpt lat="47.344765244806275" lon="5.183168888216095"><ele>216.0</ele><time>2026-04-23T08:27:25.998Z</time></trkpt><trkpt lat="47.344853730204626" lon="5.183215268106223"><ele>216.33333333333334</ele><time>2026-04-23T08:27:27.998Z</time></trkpt><trkpt lat="47.34492471016479" lon="5.183241760717858"><ele>216.66666666666669</ele><time>2026-04-23T08:27:29.998Z</time></trkpt><trkpt lat="47.34500371276523" lon="5.183267077689403"><ele>217.0</ele><time>2026-04-23T08:27:31.998Z</time></trkpt><trkpt lat="47.345088437065534" lon="5.183311998829014"><ele>217.33333333333334</ele><time>2026-04-23T08:27:33.998Z</time></trkpt><trkpt lat="47.34515921759302" lon="5.1833555378251965"><ele>217.66666666666669</ele><time>2026-04-23T08:27:35.998Z</time></trkpt><trkpt lat="47.34523635107267" lon="5.183395797289842"><ele>218.0</ele><time>2026-04-23T08:27:37.998Z</time></trkpt><trkpt lat="47.34532340669622" lon="5.183492827430808"><ele>218.00000000000003</ele><time>2026-04-23T08:27:39.998Z</time></trkpt><trkpt lat="47.34539474196094" lon="5.183609633787776"><ele>218.0</ele><time>2026-04-23T08:27:41.998Z</time></trkpt><trkpt lat="47.34545786440127" lon="5.183705837080717"><ele>218.0</ele><time>2026-04-23T08:27:43.998Z</time></trkpt><trkpt lat="47.34546716264523" lon="5.183838403388103"><ele>218.0</ele><time>2026-04-23T08:27:45.998Z</time></trkpt><trkpt lat="47.345443848947625" lon="5.183945172209972"><ele>218.00000000000003</ele><time>2026-04-23T08:27:47.998Z</time></trkpt><trkpt lat="47.345448314444134" lon="5.1840437046661485"><ele>218.0</ele><time>2026-04-23T08:27:49.998Z</time></trkpt><trkpt lat="47.345437655010954" lon="5.184181025722669"><ele>218.0</ele><time>2026-04-23T08:27:51.998Z</time></trkpt><trkpt lat="47.34541507282395" lon="5.184316138450735"><ele>218.0</ele><time>2026-04-23T08:27:53.998Z</time></trkpt><trkpt lat="47.34538684952325" lon="5.184450915024336"><ele>218.0</ele><time>2026-04-23T08:27:55.998Z</time></trkpt><trkpt lat="47.34534403055612" lon="5.184600416837812"><ele>218.0</ele><time>2026-04-23T08:27:57.999Z</time></trkpt><trkpt lat="47.34527250469661" lon="5.1846801431612946"><ele>218.0</ele><time>2026-04-23T08:27:59.998Z</time></trkpt><trkpt lat="47.34519035454859" lon="5.184749326218156"><ele>218.00000000000003</ele><time>2026-04-23T08:28:01.998Z</time></trkpt><trkpt lat="47.345174575947794" lon="5.184863266130465"><ele>218.0</ele><time>2026-04-23T08:28:03.998Z</time></trkpt><trkpt lat="47.34518259658467" lon="5.184982542367583"><ele>218.0</ele><time>2026-04-23T08:28:05.998Z</time></trkpt><trkpt lat="47.345173207849925" lon="5.185126873827888"><ele>218.0</ele><time>2026-04-23T08:28:07.998Z</time></trkpt><trkpt lat="47.345156008280235" lon="5.185241745931151"><ele>218.00000000000003</ele><time>2026-04-23T08:28:09.999Z</time></trkpt><trkpt lat="47.345140279254046" lon="5.185351710062038"><ele>218.0</ele><time>2026-04-23T08:28:11.999Z</time></trkpt><trkpt lat="47.345107255841725" lon="5.185436383190902"><ele>218.00000000000003</ele><time>2026-04-23T08:28:14.999Z</time></trkpt><trkpt lat="47.34503124524734" lon="5.185481151779087"><ele>218.0</ele><time>2026-04-23T08:28:16.999Z</time></trkpt><trkpt lat="47.34495604587789" lon="5.185501634379935"><ele>218.0</ele><time>2026-04-23T08:28:18.998Z</time></trkpt><trkpt lat="47.34487907827731" lon="5.185558317964004"><ele>218.0</ele><time>2026-04-23T08:28:20.998Z</time></trkpt><trkpt lat="47.34481266295185" lon="5.185620048213229"><ele>218.00000000000003</ele><time>2026-04-23T08:28:22.998Z</time></trkpt><trkpt lat="47.34474888763471" lon="5.185661381586834"><ele>218.0</ele><time>2026-04-23T08:28:24.998Z</time></trkpt><trkpt lat="47.344694013730745" lon="5.185710605455639"><ele>216.0</ele><time>2026-04-23T08:28:26.998Z</time></trkpt><trkpt lat="47.34462842816493" lon="5.185786045393794"><ele>216.0</ele><time>2026-04-23T08:28:29.998Z</time></trkpt></trkseg></trk></gpx>